Provisional Data: West Branch Owego Creek near Speedsville, NY


Please select a monitoring station.
Please select start date.
Please select start date.

Toggle Unit: C/F Toggle Unit: C/F
Sample Time Temperature (C) Temperature (F) Specific Conductivity (mS/cm) pH   Turbidity (NTU+) DO (mg/L)
6/22/2021 12:00:00 AM 18.56 65.408 0.187 7.41 45.1 8.4
6/22/2021 12:15:00 AM 18.47 65.246 0.175 7.39 46.68 8.44
6/22/2021 12:30:00 AM 18.37 65.066 0.173 7.37 61.45 8.46
6/22/2021 12:45:00 AM 18.27 64.886 0.181 7.37 44.58 8.48
6/22/2021 1:00:00 AM 18.14 64.652 0.19 7.38 43.75 8.51
6/22/2021 1:15:00 AM 18.01 64.418 0.194 7.38 42.78 8.53
6/22/2021 1:30:00 AM 17.95 64.31 0.189 7.38 62.6 8.55
6/22/2021 1:45:00 AM 17.94 64.292 0.179 7.36 72.99 8.54
6/22/2021 2:00:00 AM 17.97 64.346 0.167 7.35 88.2 8.54
6/22/2021 2:15:00 AM 17.99 64.382 0.155 7.33 83.34 8.51
6/22/2021 2:30:00 AM 17.99 64.382 0.145 7.31 86.39 8.51
6/22/2021 2:45:00 AM 17.98 64.364 0.138 7.29 113.24 8.5
6/22/2021 3:00:00 AM 17.96 64.328 0.132 7.28 72.08 8.5
6/22/2021 3:15:00 AM 17.92 64.256 0.127 7.26 92.78 8.49
6/22/2021 3:30:00 AM 17.88 64.184 0.124 7.25 94.36 8.5
6/22/2021 3:45:00 AM 17.83 64.094 0.122 7.24 83.6 8.5
6/22/2021 4:00:00 AM 17.78 64.004 0.12 7.24 70.98 8.53
6/22/2021 4:15:00 AM 17.73 63.914 0.119 7.25 64.55 8.54
6/22/2021 4:30:00 AM 17.68 63.824 0.119 7.25 63.39 8.55
6/22/2021 4:45:00 AM 17.62 63.716 0.118 7.24 57.04 8.57
6/22/2021 5:00:00 AM 17.56 63.608 0.118 7.25 64.13 8.57
6/22/2021 5:15:00 AM 17.5 63.5 0.118 7.24 57.38 8.59
6/22/2021 5:30:00 AM 17.44 63.392 0.118 7.25 58.59 8.59
6/22/2021 5:45:00 AM 17.38 63.284 0.119 7.25 62.95 8.61
6/22/2021 6:00:00 AM 17.32 63.176 0.119 7.25 54.6 8.62
6/22/2021 6:15:00 AM 17.25 63.05 0.119 7.25 55.97 8.64
6/22/2021 6:30:00 AM 17.19 62.942 0.119 7.26 43.6 8.65
6/22/2021 6:45:00 AM 17.13 62.834 0.12 7.26 52.15 8.67
6/22/2021 7:00:00 AM 17.07 62.726 0.12 7.26 47.25 8.69
6/22/2021 7:15:00 AM 17.01 62.618 0.12 7.27 50.29 8.71
6/22/2021 7:30:00 AM 16.95 62.51 0.121 7.27 42.02 8.74
6/22/2021 7:45:00 AM 16.9 62.42 0.121 7.27 39.73 8.76
6/22/2021 8:00:00 AM 16.84 62.312 0.121 7.28 62.91 8.78
6/22/2021 8:15:00 AM 16.78 62.204 0.122 7.29 38.92 8.8
6/22/2021 8:30:00 AM 16.72 62.096 0.122 7.29 36.57 8.83
6/22/2021 8:45:00 AM 16.66 61.988 0.122 7.29 34.29 8.85
6/22/2021 9:00:00 AM 16.61 61.898 0.123 7.29 33.71 8.87
6/22/2021 9:15:00 AM 16.55 61.79 0.123 7.3 40.97 8.9
6/22/2021 9:30:00 AM 16.5 61.7 0.123 7.31 37.59 8.91
6/22/2021 9:45:00 AM 16.46 61.628 0.124 7.31 32.78 8.94
6/22/2021 10:00:00 AM 16.42 61.556 0.124 7.31 30.59 8.98
6/22/2021 10:15:00 AM 16.37 61.466 0.124 7.32 27.88 9
6/22/2021 10:30:00 AM 16.32 61.376 0.125 7.33 24.19 9.03
6/22/2021 10:45:00 AM 16.28 61.304 0.125 7.33 24.23 9.05
6/22/2021 11:00:00 AM 16.24 61.232 0.126 7.34 22.95 9.07
6/22/2021 11:15:00 AM 16.19 61.142 0.126 7.34 25.13 9.07
6/22/2021 11:30:00 AM 16.16 61.088 0.127 7.34 23.35 9.09
6/22/2021 11:45:00 AM 16.13 61.034 0.127 7.35 22.51 9.12
6/22/2021 12:00:00 PM 16.12 61.016 0.128 7.36 21.02 9.16
6/22/2021 12:15:00 PM 16.11 60.998 0.128 7.37 22.01 9.21
6/22/2021 12:30:00 PM 16.08 60.944 0.129 7.37 25.93 9.23
6/22/2021 12:45:00 PM 16.07 60.926 0.129 7.38 21 9.25
6/22/2021 1:00:00 PM 16.07 60.926 0.13 7.39 20.27 9.28
6/22/2021 1:15:00 PM 16.04 60.872 0.13 7.39 20.43 9.29
6/22/2021 1:30:00 PM 16.03 60.854 0.131 7.4 18.53 9.31
6/22/2021 1:45:00 PM 16.01 60.818 0.131 7.4 18.04 9.32
6/22/2021 2:00:00 PM 15.99 60.782 0.132 7.41 16.59 9.35
6/22/2021 2:15:00 PM 15.93 60.674 0.133 7.41 16.86 9.32
6/22/2021 2:30:00 PM 15.9 60.62 0.133 7.42 16.51 9.32
6/22/2021 2:45:00 PM 15.89 60.602 0.134 7.42 15.47 9.33
6/22/2021 3:00:00 PM 15.87 60.566 0.134 7.43 16.79 9.34
6/22/2021 3:15:00 PM 15.82 60.476 0.135 7.43 14.73 9.33
6/22/2021 3:30:00 PM 15.78 60.404 0.135 7.43 14.31 9.33
6/22/2021 3:45:00 PM 15.74 60.332 0.136 7.43 13.98 9.33
6/22/2021 4:00:00 PM 15.69 60.242 0.137 7.43 12.82 9.32
6/22/2021 4:15:00 PM 15.65 60.17 0.137 7.43 12.43 9.31
6/22/2021 4:30:00 PM 15.63 60.134 0.138 7.43 12.67 9.33
6/22/2021 4:45:00 PM 15.59 60.062 0.138 7.43 11.7 9.35
6/22/2021 5:00:00 PM 15.57 60.026 0.139 7.44 13.08 9.38
6/22/2021 5:15:00 PM 15.61 60.098 0.139 7.45 12.93 9.43
6/22/2021 5:30:00 PM 15.59 60.062 0.14 7.45 11.9 9.47
6/22/2021 5:45:00 PM 15.55 59.99 0.14 7.46 12.24 9.48
6/22/2021 6:00:00 PM 15.51 59.918 0.141 7.46 11.1 9.47
6/22/2021 6:15:00 PM 15.5 59.9 0.142 7.47 10.59 9.47
6/22/2021 6:30:00 PM 15.48 59.864 0.142 7.47 10.92 9.46
6/22/2021 6:45:00 PM 15.43 59.774 0.143 7.46 11.48 9.44
6/22/2021 7:00:00 PM 15.36 59.648 0.143 7.46 10.36 9.41
6/22/2021 7:15:00 PM 15.3 59.54 0.144 7.45 9.11 9.38
6/22/2021 7:30:00 PM 15.24 59.432 0.145 7.45 9.5 9.36
6/22/2021 7:45:00 PM 15.18 59.324 0.145 7.44 9.83 9.35
6/22/2021 8:00:00 PM 15.11 59.198 0.146 7.44 9.88 9.33
6/22/2021 8:15:00 PM 15.03 59.054 0.146 7.43 9.55 9.32
6/22/2021 8:30:00 PM 14.96 58.928 0.147 7.42 9.37 9.3
6/22/2021 8:45:00 PM 14.88 58.784 0.147 7.41 8.73 9.29
6/22/2021 9:00:00 PM 14.81 58.658 0.148 7.41 9.27 9.29
6/22/2021 9:15:00 PM 14.73 58.514 0.148 7.41 8.8 9.28
6/22/2021 9:30:00 PM 14.66 58.388 0.149 7.4 8.17 9.28
6/22/2021 9:45:00 PM 14.58 58.244 0.149 7.4 8.61 9.28
6/22/2021 10:00:00 PM 14.5 58.1 0.15 7.39 8.11 9.28
6/22/2021 10:15:00 PM 14.42 57.956 0.15 7.39 8.39 9.28
6/22/2021 10:30:00 PM 14.34 57.812 0.151 7.38 8.89 9.28
6/22/2021 10:45:00 PM 14.26 57.668 0.151 7.38 8.62 9.29
6/22/2021 11:00:00 PM 14.18 57.524 0.152 7.38 7.81 9.3
6/22/2021 11:15:00 PM 14.1 57.38 0.152 7.38 8 9.31
6/22/2021 11:30:00 PM 14.02 57.236 0.152 7.37 8.21 9.32
6/22/2021 11:45:00 PM 13.93 57.074 0.153 7.37 7.6 9.33
6/23/2021 12:00:00 AM 13.85 56.93 0.153 7.37 8.02 9.34
6/23/2021 12:15:00 AM 13.76 56.768 0.154 7.36 7.38 9.36
6/23/2021 12:30:00 AM 13.68 56.624 0.154 7.36 6.7 9.37
6/23/2021 12:45:00 AM 13.6 56.48 0.155 7.36 7.4 9.39
6/23/2021 1:00:00 AM 13.51 56.318 0.155 7.36 6.51 9.39
6/23/2021 1:15:00 AM 13.43 56.174 0.156 7.36 7.17 9.4
6/23/2021 1:30:00 AM 13.36 56.048 0.156 7.35 6.65 9.41
6/23/2021 1:45:00 AM 13.27 55.886 0.156 7.35 7.11 9.44
6/23/2021 2:00:00 AM 13.2 55.76 0.157 7.35 7.57 9.44
6/23/2021 2:15:00 AM 13.13 55.634 0.157 7.35 6.67 9.47
6/23/2021 2:30:00 AM 13.05 55.49 0.158 7.35 6.56 9.48
6/23/2021 2:45:00 AM 12.98 55.364 0.158 7.35 7.16 9.48
6/23/2021 3:00:00 AM 12.91 55.238 0.158 7.34 6.58 9.48
6/23/2021 3:15:00 AM 12.83 55.094 0.159 7.34 6.31 9.5
6/23/2021 3:30:00 AM 12.76 54.968 0.159 7.34 5.87 9.51
6/23/2021 3:45:00 AM 12.69 54.842 0.159 7.33 6 9.52
6/23/2021 4:00:00 AM 12.61 54.698 0.16 7.33 6.41 9.54
6/23/2021 4:15:00 AM 12.54 54.572 0.16 7.33 5.13 9.55
6/23/2021 4:30:00 AM 12.47 54.446 0.16 7.32 5.78 9.54
6/23/2021 4:45:00 AM 12.4 54.32 0.161 7.32 6.12 9.56
6/23/2021 5:00:00 AM 12.33 54.194 0.161 7.32 5.94 9.58
6/23/2021 5:15:00 AM 12.26 54.068 0.161 7.32 8.6 9.57
6/23/2021 5:30:00 AM 12.2 53.96 0.162 7.3 5.81 9.59
6/23/2021 5:45:00 AM 12.13 53.834 0.162 7.28 5.16 9.59
6/23/2021 6:00:00 AM 12.07 53.726 0.162 7.28 5.13 9.63
6/23/2021 6:15:00 AM 12.01 53.618 0.163 7.27 5.41 9.63
6/23/2021 6:30:00 AM 11.95 53.51 0.163 7.27 5.22 9.65
6/23/2021 6:45:00 AM 11.91 53.438 0.163 7.27 4.37 9.68
6/23/2021 7:00:00 AM 11.87 53.366 0.163 7.27 5.58 9.71
6/23/2021 7:15:00 AM 11.87 53.366 0.164 7.27 5.27 9.7
6/23/2021 7:30:00 AM 11.85 53.33 0.164 7.27 4.89 9.73
6/23/2021 7:45:00 AM 11.84 53.312 0.164 7.27 4.23 9.74
6/23/2021 8:00:00 AM 11.83 53.294 0.164 7.28 4.34 9.78
6/23/2021 8:15:00 AM 11.83 53.294 0.165 7.28 3.71 9.79
6/23/2021 8:30:00 AM 11.83 53.294 0.165 7.3 3.82 9.82
6/23/2021 8:45:00 AM 11.87 53.366 0.165 7.3 3.95 9.84
6/23/2021 9:00:00 AM 11.92 53.456 0.165 7.31 4.24 9.87
6/23/2021 9:15:00 AM 11.96 53.528 0.166 7.32 3.69 9.89
6/23/2021 9:30:00 AM 12.01 53.618 0.166 7.32 3.33 9.91
6/23/2021 9:45:00 AM 12.09 53.762 0.166 7.33 3.54 9.93
6/23/2021 10:00:00 AM 12.18 53.924 0.166 7.34 3.61 9.96
6/23/2021 10:15:00 AM 12.3 54.14 0.166 7.34 3.37 9.96
6/23/2021 10:30:00 AM 12.44 54.392 0.166 7.35 3.08 10.02
6/23/2021 10:45:00 AM 12.59 54.662 0.167 7.34 3.33 9.97
6/23/2021 11:00:00 AM 12.74 54.932 0.167 7.35 3.59 10.07
6/23/2021 11:15:00 AM 12.88 55.184 0.167 7.36 3.36 10.07
6/23/2021 11:30:00 AM 13.03 55.454 0.167 7.36 2.66 10.06
6/23/2021 11:45:00 AM 13.18 55.724 0.167 7.35 2.82 10.03
6/23/2021 12:00:00 PM 13.41 56.138 0.167 7.36 3.14 10.05
6/23/2021 12:15:00 PM 13.69 56.642 0.167 7.36 4.1 10.01
6/23/2021 12:30:00 PM 14.02 57.236 0.168 7.37 2.78 10.03
6/23/2021 12:45:00 PM 14.47 58.046 0.168 7.38 3 10.05
6/23/2021 1:00:00 PM 14.96 58.928 0.168 7.38 2.75 10.03
6/23/2021 1:15:00 PM 15.44 59.792 0.168 7.39 2.58 10.03
6/23/2021 1:30:00 PM 15.92 60.656 0.168 7.41 2.59 10.03
6/23/2021 1:45:00 PM 16.32 61.376 0.169 7.41 3.01 10.01
6/23/2021 2:00:00 PM 16.53 61.754 0.169 7.41 2.91 9.95
6/23/2021 2:15:00 PM 16.79 62.222 0.169 7.42 2.59 9.91
6/23/2021 2:30:00 PM 17.04 62.672 0.169 7.43 2.39 9.88
6/23/2021 2:45:00 PM 17.35 63.23 0.17 7.43 3.09 9.86
6/23/2021 3:00:00 PM 17.64 63.752 0.17 7.42 2.7 9.83
6/23/2021 3:15:00 PM 17.8 64.04 0.17 7.43 3.17 9.76
6/23/2021 3:30:00 PM 17.84 64.112 0.17 7.39 2.63 9.6
6/23/2021 3:45:00 PM 17.94 64.292 0.17 7.38 2.8 9.52
6/23/2021 4:00:00 PM 17.98 64.364 0.17 7.35 3.01 9.4
6/23/2021 4:15:00 PM 18.04 64.472 0.17 7.36 2.91 9.36
6/23/2021 4:30:00 PM 17.92 64.256 0.169 7.32 2.9 9.27
6/23/2021 4:45:00 PM 17.7 63.86 0.169 7.3 2.48 8.98
6/23/2021 5:00:00 PM 17.85 64.13 0.169 7.33 2.51 9.22
6/23/2021 5:15:00 PM 17.87 64.166 0.169 7.36 2.47 9.23
6/23/2021 5:30:00 PM 17.58 63.644 0.168 7.27 2.12 8.89
6/23/2021 5:45:00 PM 17.38 63.284 0.168 7.24 2.06 8.76
6/23/2021 6:00:00 PM 17.46 63.428 0.171 7.27 2.4 9.02
6/23/2021 6:15:00 PM 17.34 63.212 0.17 7.3 4.77 9.02
6/23/2021 6:30:00 PM 17.13 62.834 0.171 7.26 4.8 8.91
6/23/2021 6:45:00 PM 16.97 62.546 0.171 7.23 3.27 8.79
6/23/2021 7:00:00 PM 16.83 62.294 0.17 7.23 3.44 8.73
6/23/2021 7:15:00 PM 16.71 62.078 0.171 7.21 2.88 8.62
6/23/2021 7:30:00 PM 16.62 61.916 0.171 7.2 3.05 8.58
6/23/2021 7:45:00 PM 16.57 61.826 0.172 7.2 2.6 8.58
6/23/2021 8:00:00 PM 16.4 61.52 0.171 7.19 3.23 8.5
6/23/2021 8:15:00 PM 16.24 61.232 0.171 7.18 3.74 8.42
6/23/2021 8:30:00 PM 16.08 60.944 0.171 7.15 2.57 8.3
6/23/2021 8:45:00 PM 15.99 60.782 0.171 7.14 3.49 8.25
6/23/2021 9:00:00 PM 15.93 60.674 0.171 7.13 2.88 8.25
6/23/2021 9:15:00 PM 15.68 60.224 0.171 7.12 3.43 8.11
6/23/2021 9:30:00 PM 15.48 59.864 0.168 7.08 2.51 7.92
6/23/2021 9:45:00 PM 15.58 60.044 0.171 7.1 2.44 8.04
6/23/2021 10:00:00 PM 15.25 59.45 0.17 7.05 2.51 7.7
6/23/2021 10:15:00 PM 15.18 59.324 0.168 7.06 3.03 7.63
6/23/2021 10:30:00 PM 15.14 59.252 0.168 7.06 2.51 7.69
6/23/2021 10:45:00 PM 15 59 0.169 7.03 2.44 7.54
6/23/2021 11:00:00 PM 14.89 58.802 0.169 7.04 2.61 7.54
6/23/2021 11:15:00 PM 14.76 58.568 0.167 6.99 2.3 7.3
6/23/2021 11:30:00 PM 14.72 58.496 0.168 6.97 2.99 6.89
6/23/2021 11:45:00 PM 14.58 58.244 0.166 6.93 2.6 6.93
6/24/2021 12:00:00 AM 14.49 58.082 0.164 6.92 2.43 7
6/24/2021 12:15:00 AM 14.38 57.884 0.165 6.9 2 6.87
6/24/2021 12:30:00 AM 14.29 57.722 0.165 6.89 2.34 6.76
6/24/2021 12:45:00 AM 14.19 57.542 0.164 6.85 2.27 6.86
6/24/2021 1:00:00 AM 14.17 57.506 0.163 6.85 1.92 6.81
6/24/2021 1:15:00 AM 14.11 57.398 0.165 6.87 2.42 6.8
6/24/2021 1:30:00 AM 13.78 56.804 0.161 6.81 1.83 6.65
6/24/2021 1:45:00 AM 13.78 56.804 0.163 6.82 2.38 6.4
6/24/2021 2:00:00 AM 13.72 56.696 0.162 6.81 1.89 6.57
6/24/2021 2:15:00 AM 13.61 56.498 0.159 6.77 2.53 6.49
6/24/2021 2:30:00 AM 13.49 56.282 0.16 6.75 2.12 6.38
6/24/2021 2:45:00 AM 13.42 56.156 0.16 6.74 2.06 6.21
6/24/2021 3:00:00 AM 13.36 56.048 0.16 6.74 2.87 6.3
6/24/2021 3:15:00 AM 13.26 55.868 0.158 6.74 2.42 6.21
6/24/2021 3:30:00 AM 13.21 55.778 0.158 6.74 2.16 6.36
6/24/2021 3:45:00 AM 13.33 55.994 0.163 6.78 2.93 6.7
6/24/2021 4:00:00 AM 13.23 55.814 0.161 6.8 3.29 6.68
6/24/2021 4:15:00 AM 13.2 55.76 0.161 6.78 2.87 6.51
6/24/2021 4:30:00 AM 13.11 55.598 0.16 6.76 2.75 6.59
6/24/2021 4:45:00 AM 13 55.4 0.16 6.75 2.6 6.36
6/24/2021 5:00:00 AM 12.98 55.364 0.163 6.76 2.89 6.5
6/24/2021 5:15:00 AM 12.98 55.364 0.163 6.77 4.86 6.52
6/24/2021 5:30:00 AM 12.82 55.076 0.161 6.76 2.64 6.43
6/24/2021 5:45:00 AM 12.84 55.112 0.162 6.76 2.56 6.56
6/24/2021 6:00:00 AM 12.77 54.986 0.162 6.75 4 6.23
6/24/2021 6:15:00 AM 12.73 54.914 0.161 6.75 2.45 6.46
6/24/2021 6:30:00 AM 12.63 54.734 0.161 6.75 1.7 6.32
6/24/2021 6:45:00 AM 12.46 54.428 0.158 6.72 1.76 6.21
6/24/2021 7:00:00 AM 12.46 54.428 0.158 6.73 2.19 6.26
6/24/2021 7:15:00 AM 12.48 54.464 0.159 6.74 2.27 6.17
6/24/2021 7:30:00 AM 12.4 54.32 0.158 6.72 1.92 6.19
6/24/2021 7:45:00 AM 12.32 54.176 0.157 6.73 2 6.29
6/24/2021 8:00:00 AM 12.27 54.086 0.158 6.71 1.41 5.97
6/24/2021 8:15:00 AM 12.29 54.122 0.157 6.68 1.65 5.91
6/24/2021 8:30:00 AM 12.32 54.176 0.157 6.68 2.23 5.86
6/24/2021 8:45:00 AM 12.18 53.924 0.156 6.65 1.49 5.76
6/24/2021 9:00:00 AM 12.23 54.014 0.157 6.67 1.39 5.77
6/24/2021 9:15:00 AM 12.24 54.032 0.157 6.67 1.9 5.88
6/24/2021 9:30:00 AM 12.24 54.032 0.157 6.67 5.26 5.86
6/24/2021 9:45:00 AM 12.34 54.212 0.157 6.67 1.78 5.85
6/24/2021 10:00:00 AM 12.34 54.212 0.158 6.66 1.94 5.8
6/24/2021 10:15:00 AM 12.17 53.906 0.154 6.67 1.65 5.73
6/24/2021 10:30:00 AM 12.26 54.068 0.155 6.67 1.84 5.74
6/24/2021 10:45:00 AM 12.26 54.068 0.153 6.61 1.2 5.43
6/24/2021 11:00:00 AM 12.43 54.374 0.154 6.62 1.13 5.43
6/24/2021 11:15:00 AM 12.21 53.978 0.152 6.6 1.49 4.97
6/24/2021 11:30:00 AM 12.22 53.996 0.15 6.6 1.11 5.2
6/24/2021 11:45:00 AM 12.36 54.248 0.152 6.62 1.22 5.4
6/24/2021 12:00:00 PM 12.31 54.158 0.15 6.56 1 5.06
6/24/2021 12:15:00 PM 12.37 54.266 0.149 6.56 3.34 5.14
6/24/2021 12:30:00 PM 12.36 54.248 0.149 6.57 1.07 5.14
6/24/2021 12:45:00 PM 12.68 54.824 0.152 6.58 1.23 5.49
6/24/2021 1:00:00 PM 12.95 55.31 0.152 6.6 1.27 5.55
6/24/2021 1:15:00 PM 13.22 55.796 0.153 6.61 1.3 5.61
6/24/2021 1:30:00 PM 13.55 56.39 0.154 6.61 1.44 5.79
6/24/2021 1:45:00 PM 13.81 56.858 0.154 6.59 1.37 5.76
6/24/2021 2:00:00 PM 14.04 57.272 0.153 6.6 1.3 5.8
6/24/2021 2:15:00 PM 14.17 57.506 0.152 6.6 1.35 5.79
6/24/2021 2:30:00 PM 14.49 58.082 0.154 6.61 1.11 6
6/24/2021 2:45:00 PM 14.69 58.442 0.152 6.59 1.1 5.94
6/24/2021 3:00:00 PM 14.74 58.532 0.151 6.58 1.56 5.84
6/24/2021 3:15:00 PM 14.94 58.892 0.151 6.57 1.3 5.54
6/24/2021 3:30:00 PM 15.04 59.072 0.15 6.58 1.22 5.95
6/24/2021 3:45:00 PM 15.01 59.018 0.149 6.58 1.33 5.89
6/24/2021 4:00:00 PM 15.17 59.306 0.148 6.56 1.91 5.85
6/24/2021 4:15:00 PM 15.15 59.27 0.148 6.55 1.16 5.89
6/24/2021 4:30:00 PM 14.98 58.964 0.147 6.53 1.12 5.44
6/24/2021 4:45:00 PM 14.97 58.946 0.147 6.54 1 5.4
6/24/2021 5:00:00 PM 15.03 59.054 0.148 6.54 1.52 5.43
6/24/2021 5:15:00 PM 14.9 58.82 0.147 6.54 0.8 5.27
6/24/2021 5:30:00 PM 14.86 58.748 0.146 6.52 0.96 5.2
6/24/2021 5:45:00 PM 14.84 58.712 0.146 6.52 0.91 5.09
6/24/2021 6:00:00 PM 14.68 58.424 0.146 6.52 0.83 4.97
6/24/2021 6:15:00 PM 14.68 58.424 0.147 6.52 1.09 4.92
6/24/2021 6:30:00 PM 14.62 58.316 0.147 6.52 0.77 4.74
6/24/2021 6:45:00 PM 14.35 57.83 0.147 6.5 1.45 4.45
6/24/2021 7:00:00 PM 14.42 57.956 0.146 6.5 0.88 4.35
6/24/2021 7:15:00 PM 14.36 57.848 0.147 6.5 1.07 4.45
6/24/2021 7:30:00 PM 14.44 57.992 0.148 6.52 1.88 4.5
6/24/2021 7:45:00 PM 14.22 57.596 0.149 6.53 1.42 4.36
6/24/2021 8:00:00 PM 14.22 57.596 0.148 6.51 0.74 4.37
6/24/2021 8:15:00 PM 14.13 57.434 0.147 6.5 0.8 4.31
6/24/2021 8:30:00 PM 14.01 57.218 0.147 6.51 0.65 4.22
6/24/2021 8:45:00 PM 13.98 57.164 0.148 6.5 0.84 4.09
6/24/2021 9:00:00 PM 13.91 57.038 0.148 6.51 0.76 4.12
6/24/2021 9:15:00 PM 13.82 56.876 0.147 6.5 0.61 4.11
6/24/2021 9:30:00 PM 13.8 56.84 0.147 6.5 0.72 4.02
6/24/2021 9:45:00 PM 13.8 56.84 0.147 6.5 0.54 3.99
6/24/2021 10:00:00 PM 13.71 56.678 0.146 6.49 0.58 4
6/24/2021 10:15:00 PM 13.68 56.624 0.144 6.49 0.24 3.94
6/24/2021 10:30:00 PM 13.66 56.588 0.144 6.47 0.64 3.92
6/24/2021 10:45:00 PM 13.58 56.444 0.142 6.45 0.37 3.95
6/24/2021 11:00:00 PM 13.55 56.39 0.14 6.43 1.33 3.92
6/24/2021 11:15:00 PM 13.39 56.102 0.143 6.47 0.33 3.79
6/24/2021 11:30:00 PM 13.39 56.102 0.145 6.47 0.39 3.63
6/24/2021 11:45:00 PM 13.3 55.94 0.142 6.47 0.32 3.76
6/25/2021 12:00:00 AM 13.28 55.904 0.146 6.49 0.14 3.63
6/25/2021 12:15:00 AM 13.36 56.048 0.146 6.48 0.24 3.51
6/25/2021 12:30:00 AM 13.21 55.778 0.143 6.47 0.22 3.54
6/25/2021 12:45:00 AM 13.08 55.544 0.142 6.45 -0.09 3.5
6/25/2021 1:00:00 AM 13.04 55.472 0.144 6.45 0.2 3.41
6/25/2021 1:15:00 AM 12.96 55.328 0.143 6.46 0.1 3.31
6/25/2021 1:30:00 AM 13.01 55.418 0.142 6.45 0.4 3.42
6/25/2021 1:45:00 AM 12.91 55.238 0.143 6.44 0.6 3.42
6/25/2021 2:00:00 AM 12.91 55.238 0.142 6.45 0.34 3.42
6/25/2021 2:15:00 AM 12.86 55.148 0.142 6.45 0.21 3.39
6/25/2021 2:30:00 AM 12.78 55.004 0.142 6.45 0.54 3.3
6/25/2021 2:45:00 AM 12.83 55.094 0.142 6.44 0.19 3.27
6/25/2021 3:00:00 AM 12.82 55.076 0.14 6.44 0.44 3.27
6/25/2021 3:15:00 AM 12.7 54.86 0.14 6.44 0.11 3.29
6/25/2021 3:30:00 AM 12.62 54.716 0.138 6.42 0.6 3.47
6/25/2021 3:45:00 AM 12.59 54.662 0.139 6.42 0.29 3.35
6/25/2021 4:00:00 AM 12.63 54.734 0.137 6.4 0.62 3.48
6/25/2021 4:15:00 AM 12.52 54.536 0.137 6.39 0.57 3.55
6/25/2021 4:30:00 AM 12.54 54.572 0.136 6.4 0.71 3.59
6/25/2021 4:45:00 AM 12.47 54.446 0.138 6.4 0.64 3.55
6/25/2021 5:00:00 AM 12.47 54.446 0.138 6.4 0.95 3.48
6/25/2021 5:15:00 AM 12.48 54.464 0.139 6.41 3.2 3.41
6/25/2021 5:30:00 AM 12.31 54.158 0.138 6.4 2.47 3.46
6/25/2021 5:45:00 AM 12.35 54.23 0.137 6.4 0.83 3.44
6/25/2021 6:00:00 AM 12.35 54.23 0.137 6.4 0.49 3.47
6/25/2021 6:15:00 AM 12.44 54.392 0.136 6.4 2.65 3.59
6/25/2021 6:30:00 AM 12.3 54.14 0.136 6.4 3.76 3.62
6/25/2021 6:45:00 AM 12.26 54.068 0.137 6.39 0.91 3.67
6/25/2021 7:00:00 AM 12.24 54.032 0.138 6.4 0.88 3.54
6/25/2021 7:15:00 AM 12.35 54.23 0.136 6.39 1.42 3.7
6/25/2021 7:30:00 AM 12.28 54.104 0.137 6.39 0.75 3.67
6/25/2021 7:45:00 AM 12.25 54.05 0.136 6.39 2.2 3.73
6/25/2021 8:00:00 AM 12.16 53.888 0.135 6.38 0.81 3.9
6/25/2021 8:15:00 AM 12.18 53.924 0.134 6.37 1.09 4.01
6/25/2021 8:30:00 AM 12.19 53.942 0.133 6.38 1.03 3.99
6/25/2021 8:45:00 AM 12.21 53.978 0.133 6.37 0.7 4.04
6/25/2021 9:00:00 AM 12.2 53.96 0.134 6.37 1.14 4.14
6/25/2021 9:15:00 AM 12.19 53.942 0.134 6.38 1.04 4.1
6/25/2021 9:30:00 AM 12.27 54.086 0.133 6.37 1 4.07
6/25/2021 9:45:00 AM 12.21 53.978 0.134 6.37 0.85 4
6/25/2021 10:00:00 AM 12.14 53.852 0.135 6.37 0.85 4.05
6/25/2021 10:15:00 AM 12.23 54.014 0.134 6.37 0.78 4.04
6/25/2021 10:30:00 AM 12.18 53.924 0.136 6.37 1.22 3.92
6/25/2021 10:45:00 AM 12.25 54.05 0.136 6.39 1.13 3.94
6/25/2021 11:00:00 AM 12.2 53.96 0.135 6.38 1.4 3.98
6/25/2021 11:15:00 AM 12.19 53.942 0.137 6.39 1.02 3.72
6/25/2021 11:30:00 AM 12.21 53.978 0.137 6.38 0.8 3.8
6/25/2021 11:45:00 AM 12.3 54.14 0.136 6.39 1.45 3.82
6/25/2021 12:00:00 PM 12.38 54.284 0.135 6.39 1.08 3.87
6/25/2021 12:15:00 PM 12.33 54.194 0.137 6.39 1.1 3.97
6/25/2021 12:30:00 PM 12.4 54.32 0.137 6.39 1.09 3.91
6/25/2021 12:45:00 PM 12.64 54.752 0.136 6.39 0.93 3.91
6/25/2021 1:00:00 PM 12.78 55.004 0.137 6.4 0.95 4.13
6/25/2021 1:15:00 PM 13.15 55.67 0.136 6.4 1.26 4.3
6/25/2021 1:30:00 PM 13.29 55.922 0.137 6.42 1.68 4.43
6/25/2021 1:45:00 PM 13.58 56.444 0.136 6.43 1.71 4.69
6/25/2021 2:00:00 PM 13.55 56.39 0.14 6.44 1.74 4.73
6/25/2021 2:15:00 PM 13.68 56.624 0.141 6.45 1.58 4.69
6/25/2021 2:30:00 PM 13.84 56.912 0.141 6.44 1.43 4.63
6/25/2021 2:45:00 PM 14.01 57.218 0.141 6.46 1.09 4.79
6/25/2021 3:00:00 PM 14.03 57.254 0.141 6.46 1.54 4.7
6/25/2021 3:15:00 PM 14.12 57.416 0.141 6.46 1.81 4.61
6/25/2021 3:30:00 PM 14.17 57.506 0.14 6.46 1.85 4.7
6/25/2021 3:45:00 PM 14.21 57.578 0.14 6.46 1.51 4.78
6/25/2021 4:00:00 PM 14.45 58.01 0.14 6.46 1.68 4.99
6/25/2021 4:15:00 PM 14.41 57.938 0.141 6.47 1.49 4.83
6/25/2021 4:30:00 PM 14.31 57.758 0.142 6.47 0.96 4.66
6/25/2021 4:45:00 PM 14.26 57.668 0.143 6.47 1.38 4.69
6/25/2021 5:00:00 PM 14.23 57.614 0.142 6.47 1.17 4.56
6/25/2021 5:15:00 PM 14.02 57.236 0.142 6.46 1.22 4.48
6/25/2021 5:30:00 PM 14.14 57.452 0.142 6.47 1.05 4.58
6/25/2021 5:45:00 PM 14.09 57.362 0.142 6.46 0.93 4.58
6/25/2021 6:00:00 PM 13.94 57.092 0.142 6.45 1.84 4.41
6/25/2021 6:15:00 PM 14.03 57.254 0.142 6.46 1.05 4.42
6/25/2021 6:30:00 PM 13.95 57.11 0.142 6.46 1.19 4.38
6/25/2021 6:45:00 PM 13.96 57.128 0.142 6.46 1.35 4.33
6/25/2021 7:00:00 PM 13.94 57.092 0.142 6.46 1.23 4.26
6/25/2021 7:15:00 PM 13.85 56.93 0.143 6.46 1.05 4.2
6/25/2021 7:30:00 PM 13.67 56.606 0.144 6.46 1.7 4.17
6/25/2021 7:45:00 PM 13.54 56.372 0.144 6.46 0.74 4.17
6/25/2021 8:00:00 PM 13.76 56.768 0.143 6.46 1.24 4.08
6/25/2021 8:15:00 PM 13.6 56.48 0.144 6.46 2.06 4.07
6/25/2021 8:30:00 PM 13.7 56.66 0.144 6.47 1.7 4.06
6/25/2021 8:45:00 PM 13.67 56.606 0.144 6.46 1.94 3.91
6/25/2021 9:00:00 PM 13.61 56.498 0.144 6.46 1.44 3.82
6/25/2021 9:15:00 PM 13.53 56.354 0.144 6.46 0.69 3.94
6/25/2021 9:30:00 PM 13.46 56.228 0.144 6.45 0.6 3.82
6/25/2021 9:45:00 PM 13.4 56.12 0.144 6.46 0.7 3.65
6/25/2021 10:00:00 PM 13.42 56.156 0.143 6.45 1.21 3.82
6/25/2021 10:15:00 PM 13.33 55.994 0.141 6.43 1.2 3.92
6/25/2021 10:30:00 PM 13.32 55.976 0.141 6.43 0.69 3.84
6/25/2021 10:45:00 PM 13.21 55.778 0.141 6.43 0.86 3.78
6/25/2021 11:00:00 PM 13.36 56.048 0.141 6.43 0.91 3.79
6/25/2021 11:15:00 PM 13.18 55.724 0.142 6.43 0.64 3.78
6/25/2021 11:30:00 PM 13.26 55.868 0.144 6.44 0.93 3.68
6/25/2021 11:45:00 PM 13.17 55.706 0.144 6.45 0.74 3.64
6/26/2021 12:00:00 AM 13.16 55.688 0.144 6.45 0.68 3.56
6/26/2021 12:15:00 AM 13.09 55.562 0.143 6.44 0.77 3.49
6/26/2021 12:30:00 AM 12.97 55.346 0.142 6.43 0.71 3.6
6/26/2021 12:45:00 AM 13 55.4 0.142 6.43 2.45 3.55
6/26/2021 1:00:00 AM 13.01 55.418 0.143 6.44 1.25 3.5
6/26/2021 1:15:00 AM 13.01 55.418 0.14 6.43 0.79 3.57
6/26/2021 1:30:00 AM 12.89 55.202 0.14 6.42 0.37 3.58
6/26/2021 1:45:00 AM 12.81 55.058 0.14 6.41 1.05 3.44
6/26/2021 2:00:00 AM 12.7 54.86 0.14 6.41 0.74 3.53
6/26/2021 2:15:00 AM 12.85 55.13 0.141 6.42 0.5 3.46
6/26/2021 2:30:00 AM 12.78 55.004 0.141 6.43 1.68 3.44
6/26/2021 2:45:00 AM 12.73 54.914 0.14 6.42 0.23 3.44
6/26/2021 3:00:00 AM 12.72 54.896 0.14 6.42 0.98 3.45
6/26/2021 3:15:00 AM 12.65 54.77 0.141 6.42 0.73 3.33
6/26/2021 3:30:00 AM 12.64 54.752 0.142 6.42 0.55 3.29
6/26/2021 3:45:00 AM 12.7 54.86 0.143 6.43 0.29 3.17
6/26/2021 4:00:00 AM 12.6 54.68 0.142 6.43 0.34 3.2
6/26/2021 4:15:00 AM 12.53 54.554 0.142 6.42 0.3 3.17
6/26/2021 4:30:00 AM 12.48 54.464 0.14 6.41 0.25 3.21
6/26/2021 4:45:00 AM 12.5 54.5 0.139 6.4 1 3.23
6/26/2021 5:00:00 AM 12.55 54.59 0.143 6.42 1.17 3.02
6/26/2021 5:15:00 AM 12.45 54.41 0.138 6.4 0.83 3.22
6/26/2021 5:30:00 AM 12.42 54.356 0.137 6.39 1.55 3.17
6/26/2021 5:45:00 AM 12.43 54.374 0.137 6.39 0.7 3.14
6/26/2021 6:00:00 AM 12.45 54.41 0.141 6.4 0.45 3.04
6/26/2021 6:15:00 AM 12.53 54.554 0.144 6.43 0.31 2.87
6/26/2021 6:30:00 AM 12.36 54.248 0.144 6.43 0.25 2.86
6/26/2021 6:45:00 AM 12.5 54.5 0.142 6.42 0.6 2.99
6/26/2021 7:00:00 AM 12.28 54.104 0.141 6.4 0.5 2.94
6/26/2021 7:15:00 AM 12.3 54.14 0.142 6.41 0.81 2.89
6/26/2021 7:30:00 AM 12.63 54.734 0.144 6.43 0.55 2.92
6/26/2021 7:45:00 AM 12.35 54.23 0.141 6.41 0.62 3.06
6/26/2021 8:00:00 AM 12.36 54.248 0.142 6.42 0.89 3.11
6/26/2021 8:15:00 AM 12.44 54.392 0.141 6.41 2.89 3.18
6/26/2021 8:30:00 AM 12.45 54.41 0.141 6.41 1.21 3.18
6/26/2021 8:45:00 AM 12.63 54.734 0.14 6.41 6.01 3.11
6/26/2021 9:00:00 AM 12.46 54.428 0.14 6.4 2.06 3.06
6/26/2021 9:15:00 AM 12.4 54.32 0.142 6.42 0.57 3.02
6/26/2021 9:30:00 AM 12.46 54.428 0.142 6.41 0.88 3.08
6/26/2021 9:45:00 AM 12.45 54.41 0.142 6.41 1.19 3.11
6/26/2021 10:00:00 AM 12.43 54.374 0.142 6.42 0.52 3.08
6/26/2021 10:15:00 AM 12.5 54.5 0.143 6.42 0.87 3.13
6/26/2021 10:30:00 AM 12.6 54.68 0.144 6.42 0.75 3.21
6/26/2021 10:45:00 AM 12.56 54.608 0.144 6.42 0.63 3.28
6/26/2021 11:00:00 AM 12.49 54.482 0.143 6.42 0.95 3.26
6/26/2021 11:15:00 AM 12.58 54.644 0.143 6.43 0.73 3.27
6/26/2021 11:30:00 AM 12.56 54.608 0.144 6.43 0.55 3.3
6/26/2021 11:45:00 AM 12.66 54.788 0.145 6.44 0.88 3.37
6/26/2021 12:00:00 PM 12.65 54.77 0.145 6.45 0.53 3.16
6/26/2021 12:15:00 PM 12.72 54.896 0.145 6.44 1.05 3.24
6/26/2021 12:30:00 PM 12.67 54.806 0.144 6.43 0.59 3.31
6/26/2021 12:45:00 PM 13.01 55.418 0.139 6.42 1.49 3.98
6/26/2021 1:00:00 PM 13.29 55.922 0.142 6.42 1.5 3.86
6/26/2021 1:15:00 PM 13.43 56.174 0.136 6.4 0.91 4.1
6/26/2021 1:30:00 PM 13.69 56.642 0.135 6.39 1.08 4.26
6/26/2021 1:45:00 PM 13.83 56.894 0.135 6.39 0.8 4.38
6/26/2021 2:00:00 PM 14.02 57.236 0.135 6.41 2.05 4.56
6/26/2021 2:15:00 PM 14.21 57.578 0.134 6.4 1.39 4.66
6/26/2021 2:30:00 PM 14.32 57.776 0.135 6.4 1.04 4.68
6/26/2021 2:45:00 PM 14.42 57.956 0.134 6.4 1.82 4.78
6/26/2021 3:00:00 PM 14.44 57.992 0.136 6.41 1.15 4.8
6/26/2021 3:15:00 PM 14.54 58.172 0.136 6.42 1.26 4.83
6/26/2021 3:30:00 PM 14.41 57.938 0.137 6.4 0.96 4.7
6/26/2021 3:45:00 PM 14.53 58.154 0.137 6.42 1.4 4.64
6/26/2021 4:00:00 PM 14.52 58.136 0.136 6.42 0.77 4.69
6/26/2021 4:15:00 PM 14.59 58.262 0.136 6.42 1.03 4.78
6/26/2021 4:30:00 PM 14.53 58.154 0.138 6.43 1.05 4.69
6/26/2021 4:45:00 PM 14.73 58.514 0.137 6.43 1.71 4.63
6/26/2021 5:00:00 PM 14.49 58.082 0.137 6.42 0.79 4.54
6/26/2021 5:15:00 PM 14.4 57.92 0.138 6.42 1.26 4.44
6/26/2021 5:30:00 PM 14.44 57.992 0.138 6.42 0.76 4.38
6/26/2021 5:45:00 PM 14.31 57.758 0.138 6.42 0.77 4.35
6/26/2021 6:00:00 PM 14.31 57.758 0.139 6.42 0.74 4.31
6/26/2021 6:15:00 PM 14.29 57.722 0.139 6.43 0.79 4.27
6/26/2021 6:30:00 PM 14.24 57.632 0.139 6.44 0.94 4.42
6/26/2021 6:45:00 PM 14.39 57.902 0.139 6.43 1.96 4.37
6/26/2021 7:00:00 PM 14.13 57.434 0.14 6.43 0.81 4.23
6/26/2021 7:15:00 PM 14.31 57.758 0.14 6.43 1.59 4.17
6/26/2021 7:30:00 PM 14.09 57.362 0.141 6.45 1.26 4.25
6/26/2021 7:45:00 PM 13.86 56.948 0.142 6.44 0.89 4.22
6/26/2021 8:00:00 PM 13.93 57.074 0.142 6.45 0.75 4.21
6/26/2021 8:15:00 PM 13.88 56.984 0.142 6.45 0.71 4.14
6/26/2021 8:30:00 PM 13.81 56.858 0.142 6.44 0.62 4.14
6/26/2021 8:45:00 PM 13.81 56.858 0.142 6.44 0.66 4.16
6/26/2021 9:00:00 PM 13.78 56.804 0.142 6.44 1.11 4.16
6/26/2021 9:15:00 PM 13.72 56.696 0.142 6.44 0.76 4.04
6/26/2021 9:30:00 PM 13.67 56.606 0.141 6.44 0.69 4.01
6/26/2021 9:45:00 PM 13.55 56.39 0.142 6.43 0.93 3.87
6/26/2021 10:00:00 PM 13.5 56.3 0.141 6.43 0.76 3.88
6/26/2021 10:15:00 PM 13.71 56.678 0.141 6.42 1.15 3.82
6/26/2021 10:30:00 PM 13.51 56.318 0.141 6.41 0.61 3.73
6/26/2021 10:45:00 PM 13.38 56.084 0.14 6.41 0.7 3.58
6/26/2021 11:00:00 PM 13.4 56.12 0.14 6.41 0.46 3.65
6/26/2021 11:15:00 PM 13.38 56.084 0.141 6.41 0.88 3.51
6/26/2021 11:30:00 PM 13.25 55.85 0.141 6.41 0.51 3.54
6/26/2021 11:45:00 PM 13.34 56.012 0.141 6.41 0.58 3.47
6/27/2021 12:00:00 AM 13.31 55.958 0.141 6.4 0.67 3.49
6/27/2021 12:15:00 AM 13.29 55.922 0.14 6.41 0.76 3.53
6/27/2021 12:30:00 AM 13.22 55.796 0.14 6.41 0.7 3.56
6/27/2021 12:45:00 AM 13.21 55.778 0.139 6.4 0.23 3.55
6/27/2021 1:00:00 AM 13.18 55.724 0.14 6.4 0.42 3.56
6/27/2021 1:15:00 AM 13.16 55.688 0.14 6.4 0.47 3.54
6/27/2021 1:30:00 AM 13.11 55.598 0.141 6.41 0.43 3.43
6/27/2021 1:45:00 AM 13.12 55.616 0.14 6.4 0.4 3.43
6/27/2021 2:00:00 AM 13.05 55.49 0.14 6.4 0.3 3.42
6/27/2021 2:15:00 AM 13.04 55.472 0.141 6.41 0.24 3.41
6/27/2021 2:30:00 AM 12.91 55.238 0.141 6.41 0.61 3.35
6/27/2021 2:45:00 AM 12.87 55.166 0.14 6.4 0.65 3.3
6/27/2021 3:00:00 AM 12.95 55.31 0.139 6.39 0.42 3.38
6/27/2021 3:15:00 AM 12.9 55.22 0.139 6.39 0.18 3.35
6/27/2021 3:30:00 AM 12.76 54.968 0.139 6.4 0.56 3.25
6/27/2021 3:45:00 AM 12.86 55.148 0.137 6.39 0.68 3.38
6/27/2021 4:00:00 AM 12.83 55.094 0.138 6.39 0.7 3.34
6/27/2021 4:15:00 AM 12.74 54.932 0.138 6.39 0.06 3.37
6/27/2021 4:30:00 AM 12.74 54.932 0.136 6.38 0.3 3.37
6/27/2021 4:45:00 AM 12.7 54.86 0.137 6.38 0.98 3.32
6/27/2021 5:00:00 AM 12.71 54.878 0.137 6.37 0.37 3.25
6/27/2021 5:15:00 AM 12.58 54.644 0.139 6.38 1.32 3.19
6/27/2021 5:30:00 AM 12.69 54.842 0.14 6.39 1.85 3.03
6/27/2021 5:45:00 AM 12.89 55.202 0.137 6.38 1.14 3.12
6/27/2021 6:00:00 AM 12.72 54.896 0.139 6.38 0.75 3.04
6/27/2021 6:15:00 AM 12.64 54.752 0.139 6.39 0.33 3.04
6/27/2021 6:30:00 AM 12.51 54.518 0.141 6.4 0.42 3.04
6/27/2021 6:45:00 AM 12.62 54.716 0.141 6.4 0.37 2.96
6/27/2021 7:00:00 AM 12.71 54.878 0.141 6.4 0.45 2.98
6/27/2021 7:15:00 AM 12.8 55.04 0.145 6.42 0.31 2.92
6/27/2021 7:30:00 AM 12.7 54.86 0.147 6.43 0.23 2.89
6/27/2021 7:45:00 AM 12.57 54.626 0.145 6.43 1.12 2.91
6/27/2021 8:00:00 AM 12.66 54.788 0.147 6.43 0.99 2.9
6/27/2021 8:15:00 AM 12.67 54.806 0.143 6.41 0.36 3
6/27/2021 8:30:00 AM 12.67 54.806 0.144 6.41 0.36 2.75
6/27/2021 8:45:00 AM 12.63 54.734 0.145 6.42 2.36 2.82
6/27/2021 9:00:00 AM 12.52 54.536 0.145 6.42 1.66 2.88
6/27/2021 9:15:00 AM 12.5 54.5 0.142 6.39 0.81 3.04
6/27/2021 9:30:00 AM 12.56 54.608 0.142 6.4 0.55 2.93
6/27/2021 9:45:00 AM 12.62 54.716 0.144 6.4 0.08 2.82
6/27/2021 10:00:00 AM 12.42 54.356 0.145 6.42 0.62 2.91
6/27/2021 10:15:00 AM 12.52 54.536 0.148 6.45 0.27 2.8
6/27/2021 10:30:00 AM 12.64 54.752 0.146 6.43 0.31 2.86
6/27/2021 10:45:00 AM 12.56 54.608 0.144 6.42 0.16 2.98
6/27/2021 11:00:00 AM 12.59 54.662 0.145 6.43 0.27 2.99
6/27/2021 11:15:00 AM 12.56 54.608 0.143 6.42 0.33 3.04
6/27/2021 11:30:00 AM 12.62 54.716 0.143 6.42 0 2.99
6/27/2021 11:45:00 AM 12.62 54.716 0.145 6.43 0.41 3.11
6/27/2021 12:00:00 PM 12.69 54.842 0.144 6.42 0.32 3.03
6/27/2021 12:15:00 PM 12.66 54.788 0.14 6.41 0.41 3.26
6/27/2021 12:30:00 PM 12.78 55.004 0.138 6.39 0.27 3.38
6/27/2021 12:45:00 PM 13.03 55.454 0.136 6.38 0.68 3.53
6/27/2021 1:00:00 PM 13.11 55.598 0.134 6.36 0.8 3.72
6/27/2021 1:15:00 PM 13.4 56.12 0.131 6.34 0.7 3.73
6/27/2021 1:30:00 PM 13.56 56.408 0.131 6.35 1.02 3.83
6/27/2021 1:45:00 PM 13.91 57.038 0.133 6.35 0.58 3.75
6/27/2021 2:00:00 PM 14.13 57.434 0.134 6.37 0.58 3.81
6/27/2021 2:15:00 PM 14.28 57.704 0.133 6.37 0.8 4.04
6/27/2021 2:30:00 PM 14.45 58.01 0.132 6.36 0.62 4.24
6/27/2021 2:45:00 PM 14.59 58.262 0.13 6.36 0.74 4.4
6/27/2021 3:00:00 PM 14.64 58.352 0.131 6.35 0.74 4.41
6/27/2021 3:15:00 PM 14.7 58.46 0.131 6.37 0.27 4.48
6/27/2021 3:30:00 PM 14.71 58.478 0.131 6.37 1.06 4.53
6/27/2021 3:45:00 PM 14.72 58.496 0.133 6.38 1.01 4.49
6/27/2021 4:00:00 PM 14.81 58.658 0.131 6.37 0.68 4.61
6/27/2021 4:15:00 PM 14.8 58.64 0.133 6.38 0.66 4.49
6/27/2021 4:30:00 PM 14.86 58.748 0.134 6.38 0.55 4.53
6/27/2021 4:45:00 PM 14.72 58.496 0.136 6.4 0.78 4.48
6/27/2021 5:00:00 PM 14.59 58.262 0.137 6.4 0.46 4.37
6/27/2021 5:15:00 PM 14.64 58.352 0.138 6.41 0.67 4.39
6/27/2021 5:30:00 PM 14.67 58.406 0.14 6.41 0.43 4.09
6/27/2021 5:45:00 PM 14.5 58.1 0.139 6.4 0.49 4
6/27/2021 6:00:00 PM 14.61 58.298 0.141 6.41 0.56 3.97
6/27/2021 6:15:00 PM 14.44 57.992 0.14 6.41 0.75 4.11
6/27/2021 6:30:00 PM 14.37 57.866 0.14 6.41 0.29 4.04
6/27/2021 6:45:00 PM 14.35 57.83 0.14 6.41 0.74 4
6/27/2021 7:00:00 PM 14.36 57.848 0.139 6.4 0.62 3.84
6/27/2021 7:15:00 PM 14.46 58.028 0.14 6.41 0.36 3.73
6/27/2021 7:30:00 PM 14.19 57.542 0.14 6.41 0.2 3.81
6/27/2021 7:45:00 PM 14.13 57.434 0.141 6.41 0.76 3.76
6/27/2021 8:00:00 PM 14.19 57.542 0.142 6.42 0.53 3.77
6/27/2021 8:15:00 PM 13.9 57.02 0.142 6.41 1.27 3.8
6/27/2021 8:30:00 PM 13.95 57.11 0.142 6.41 0.68 3.81
6/27/2021 8:45:00 PM 13.89 57.002 0.142 6.42 0.4 3.78
6/27/2021 9:00:00 PM 13.88 56.984 0.143 6.42 0.37 3.71
6/27/2021 9:15:00 PM 13.92 57.056 0.142 6.42 0.16 3.72
6/27/2021 9:30:00 PM 13.83 56.894 0.142 6.42 0.31 3.65
6/27/2021 9:45:00 PM 13.81 56.858 0.141 6.41 0.07 3.66
6/27/2021 10:00:00 PM 13.67 56.606 0.14 6.39 0.47 3.61
6/27/2021 10:15:00 PM 13.69 56.642 0.139 6.38 -0.05 3.64
6/27/2021 10:30:00 PM 13.55 56.39 0.139 6.39 0.14 3.57
6/27/2021 10:45:00 PM 13.59 56.462 0.138 6.38 0.11 3.55
6/27/2021 11:00:00 PM 13.65 56.57 0.139 6.38 0.23 3.5
6/27/2021 11:15:00 PM 13.5 56.3 0.139 6.38 0.17 3.44
6/27/2021 11:30:00 PM 13.48 56.264 0.139 6.37 0.07 3.43
6/27/2021 11:45:00 PM 13.41 56.138 0.139 6.38 0.27 3.41
6/28/2021 12:00:00 AM 13.39 56.102 0.14 6.37 0.08 3.34
6/28/2021 12:15:00 AM 13.38 56.084 0.14 6.38 0.03 3.33
6/28/2021 12:30:00 AM 13.37 56.066 0.139 6.38 0.28 3.33
6/28/2021 12:45:00 AM 13.31 55.958 0.141 6.38 0.65 3.22
6/28/2021 1:00:00 AM 13.29 55.922 0.14 6.38 0.26 3.26
6/28/2021 1:15:00 AM 13.18 55.724 0.139 6.38 0.82 3.36
6/28/2021 1:30:00 AM 13.23 55.814 0.139 6.37 0.41 3.33
6/28/2021 1:45:00 AM 13.2 55.76 0.138 6.38 0.04 3.28
6/28/2021 2:00:00 AM 13.19 55.742 0.139 6.38 0.29 3.22
6/28/2021 2:15:00 AM 13.07 55.526 0.139 6.37 0.85 3.21
6/28/2021 2:30:00 AM 13.12 55.616 0.138 6.38 0.46 3.27
6/28/2021 2:45:00 AM 13.1 55.58 0.139 6.38 0.17 3.23
6/28/2021 3:00:00 AM 13.08 55.544 0.14 6.37 0.82 3.18
6/28/2021 3:15:00 AM 12.97 55.346 0.14 6.38 -0.06 3.16
6/28/2021 3:30:00 AM 12.96 55.328 0.14 6.37 0.39 3.16
6/28/2021 3:45:00 AM 12.92 55.256 0.14 6.38 0.07 3.11
6/28/2021 4:00:00 AM 13.02 55.436 0.14 6.38 0.68 3.08
6/28/2021 4:15:00 AM 12.93 55.274 0.14 6.38 0.13 3.05
6/28/2021 4:30:00 AM 12.95 55.31 0.139 6.38 0.05 3.05
6/28/2021 4:45:00 AM 12.88 55.184 0.139 6.37 9.6 3.07
6/28/2021 5:00:00 AM 12.86 55.148 0.138 6.37 0.2 3.05
6/28/2021 5:15:00 AM 12.8 55.04 0.139 6.38 0.55 3.04
6/28/2021 5:30:00 AM 12.84 55.112 0.137 6.37 0.16 3.04
6/28/2021 5:45:00 AM 12.84 55.112 0.138 6.36 0.92 3.05
6/28/2021 6:00:00 AM 12.71 54.878 0.138 6.36 0.35 2.96
6/28/2021 6:15:00 AM 12.77 54.986 0.139 6.37 0.3 2.91
6/28/2021 6:30:00 AM 12.75 54.95 0.139 6.37 0.37 2.89
6/28/2021 6:45:00 AM 12.71 54.878 0.139 6.37 0.32 2.9
6/28/2021 7:00:00 AM 12.69 54.842 0.138 6.37 0.45 2.98
6/28/2021 7:15:00 AM 12.67 54.806 0.138 6.37 0.33 3.04
6/28/2021 7:30:00 AM 12.73 54.914 0.137 6.36 0.33 3.01
6/28/2021 7:45:00 AM 12.67 54.806 0.139 6.36 0.42 2.95
6/28/2021 8:00:00 AM 12.72 54.896 0.139 6.37 0.97 2.93
6/28/2021 8:15:00 AM 12.58 54.644 0.14 6.37 0.63 2.96
6/28/2021 8:30:00 AM 12.66 54.788 0.141 6.38 0.47 2.83
6/28/2021 8:45:00 AM 12.65 54.77 0.142 6.38 0.86 2.92
6/28/2021 9:00:00 AM 12.7 54.86 0.14 6.37 1.31 3
6/28/2021 9:15:00 AM 12.72 54.896 0.139 6.36 1.07 3.05
6/28/2021 9:30:00 AM 12.64 54.752 0.138 6.36 0.67 2.99
6/28/2021 9:45:00 AM 12.71 54.878 0.138 6.36 0.46 2.99
6/28/2021 10:00:00 AM 12.67 54.806 0.139 6.36 2.56 2.97
6/28/2021 10:15:00 AM 12.65 54.77 0.141 6.37 0.4 2.81
6/28/2021 10:30:00 AM 12.63 54.734 0.142 6.39 0.5 2.89
6/28/2021 10:45:00 AM 12.71 54.878 0.138 6.35 1.04 2.9
6/28/2021 11:00:00 AM 12.66 54.788 0.14 6.37 0.27 3.05
6/28/2021 11:15:00 AM 12.69 54.842 0.14 6.37 0.59 2.93
6/28/2021 11:30:00 AM 12.77 54.986 0.141 6.38 0.38 2.87
6/28/2021 11:45:00 AM 12.68 54.824 0.141 6.37 0.52 2.92
6/28/2021 12:00:00 PM 12.71 54.878 0.142 6.38 0.91 2.89
6/28/2021 12:15:00 PM 12.79 55.022 0.142 6.38 0.19 2.98
6/28/2021 12:30:00 PM 12.91 55.238 0.14 6.37 0.38 3.06
6/28/2021 12:45:00 PM 13.07 55.526 0.136 6.36 0.15 3.21
6/28/2021 1:00:00 PM 13.35 56.03 0.134 6.34 0.41 3.29
6/28/2021 1:15:00 PM 13.56 56.408 0.132 6.33 0.53 3.56
6/28/2021 1:30:00 PM 13.83 56.894 0.13 6.32 1.02 3.79
6/28/2021 1:45:00 PM 14.03 57.254 0.131 6.32 0.43 3.92
6/28/2021 2:00:00 PM 13.94 57.092 0.132 6.34 0.65 3.89
6/28/2021 2:15:00 PM 14.22 57.596 0.131 6.33 0.3 3.95
6/28/2021 2:30:00 PM 14.15 57.47 0.131 6.33 0.78 3.99
6/28/2021 2:45:00 PM 14.23 57.614 0.132 6.34 0.88 4.06
6/28/2021 3:00:00 PM 14.08 57.344 0.132 6.34 0.38 3.92
6/28/2021 3:15:00 PM 14.24 57.632 0.132 6.34 0.67 4.07
6/28/2021 3:30:00 PM 14.32 57.776 0.132 6.33 0.72 4.19
6/28/2021 3:45:00 PM 14.36 57.848 0.131 6.34 0.55 4.23
6/28/2021 4:00:00 PM 14.51 58.118 0.133 6.35 0.53 4.21
6/28/2021 4:15:00 PM 14.39 57.902 0.134 6.36 0.33 4.19
6/28/2021 4:30:00 PM 14.36 57.848 0.136 6.37 0.44 4.07
6/28/2021 4:45:00 PM 14.33 57.794 0.136 6.37 0.27 3.98
6/28/2021 5:00:00 PM 14.29 57.722 0.138 6.39 0.53 4.11
6/28/2021 5:15:00 PM 14.25 57.65 0.138 6.39 0.55 4.03
6/28/2021 5:30:00 PM 14.33 57.794 0.139 6.39 2.81 4.01
6/28/2021 5:45:00 PM 14.18 57.524 0.139 6.39 1.16 3.95
6/28/2021 6:00:00 PM 14.3 57.74 0.14 6.4 1.2 4.04
6/28/2021 6:15:00 PM 14.81 58.658 0.141 6.41 4.51 4.12
6/28/2021 6:30:00 PM 15.15 59.27 0.145 6.46 8.14 4.34
6/28/2021 6:45:00 PM 15.27 59.486 0.146 6.47 7.29 4.34
6/28/2021 7:00:00 PM 15.28 59.504 0.147 6.48 7.49 4.21
6/28/2021 7:15:00 PM 15.33 59.594 0.148 6.49 6 4.21
6/28/2021 7:30:00 PM 16.51 61.718 0.16 6.51 9.65 4.36
6/28/2021 7:45:00 PM 19.91 67.838 0.182 6.83 10.39 6.51
6/28/2021 8:00:00 PM 20.3 68.54 0.19 6.97 10.31 6.97
6/28/2021 8:15:00 PM 20.51 68.918 0.194 7.07 10.76 7.28
6/28/2021 8:30:00 PM 20.54 68.972 0.196 7.17 11.62 7.49
6/28/2021 8:45:00 PM 20.6 69.08 0.199 7.3 12.52 7.8
6/28/2021 9:00:00 PM 20.57 69.026 0.2 7.39 12.14 7.98
6/28/2021 9:15:00 PM 20.45 68.81 0.2 7.42 14.55 8.03
6/28/2021 9:30:00 PM 20.32 68.576 0.199 7.42 14.64 8.04
6/28/2021 9:45:00 PM 20.24 68.432 0.199 7.42 16.01 8.09
6/28/2021 10:00:00 PM 20.12 68.216 0.199 7.43 14.05 8.11
6/28/2021 10:15:00 PM 20.03 68.054 0.2 7.43 12.71 8.16
6/28/2021 10:30:00 PM 19.97 67.946 0.201 7.44 13.18 8.19
6/28/2021 10:45:00 PM 19.91 67.838 0.203 7.44 11.64 8.21
6/28/2021 11:00:00 PM 19.84 67.712 0.205 7.44 10.02 8.23
6/28/2021 11:15:00 PM 19.78 67.604 0.206 7.44 9.62 8.22
6/28/2021 11:30:00 PM 19.73 67.514 0.208 7.44 11.27 8.23
6/28/2021 11:45:00 PM 19.68 67.424 0.209 7.43 10 8.22
6/29/2021 12:00:00 AM 19.63 67.334 0.21 7.42 8.57 8.21
6/29/2021 12:15:00 AM 19.58 67.244 0.211 7.42 7.67 8.19
6/29/2021 12:30:00 AM 19.53 67.154 0.211 7.41 7.23 8.16
6/29/2021 12:45:00 AM 19.48 67.064 0.212 7.4 7.24 8.13
6/29/2021 1:00:00 AM 19.41 66.938 0.212 7.38 6.35 8.1
6/29/2021 1:15:00 AM 19.34 66.812 0.213 7.36 5.98 8.05
6/29/2021 1:30:00 AM 19.31 66.758 0.214 7.36 5.9 8.04
6/29/2021 1:45:00 AM 19.16 66.488 0.212 7.33 5.62 7.96
6/29/2021 2:00:00 AM 18.91 66.038 0.212 7.29 4.44 7.86
6/29/2021 2:15:00 AM 19.05 66.29 0.213 7.3 4.8 7.92
6/29/2021 2:30:00 AM 18.96 66.128 0.211 7.3 5.4 7.85
6/29/2021 2:45:00 AM 18.95 66.11 0.213 7.3 4.59 7.88
6/29/2021 3:00:00 AM 18.96 66.128 0.215 7.3 4.76 7.86
6/29/2021 3:15:00 AM 18.92 66.056 0.215 7.31 7.13 7.88
6/29/2021 3:30:00 AM 18.74 65.732 0.212 7.29 3.76 7.9
6/29/2021 3:45:00 AM 18.71 65.67799 0.215 7.27 4.13 7.86
6/29/2021 4:00:00 AM 18.81 65.858 0.214 7.31 5.07 7.95
6/29/2021 4:15:00 AM 18.68 65.624 0.214 7.3 4.83 7.91
6/29/2021 4:30:00 AM 18.72 65.696 0.215 7.31 3.96 7.93
6/29/2021 4:45:00 AM 18.69 65.642 0.215 7.31 4.19 7.96
6/29/2021 5:00:00 AM 18.5 65.3 0.212 7.27 7.6 7.85
6/29/2021 5:15:00 AM 18.48 65.264 0.215 7.27 3.92 7.82
6/29/2021 5:30:00 AM 18.22 64.796 0.21 7.2 3.96 7.58
6/29/2021 5:45:00 AM 18.24 64.832 0.209 7.21 3.96 7.66
6/29/2021 6:00:00 AM 18.14 64.652 0.209 7.2 3.5 7.63
6/29/2021 6:15:00 AM 18.11 64.598 0.21 7.18 4.82 7.53
6/29/2021 6:30:00 AM 18.12 64.616 0.208 7.16 3.37 7.63
6/29/2021 6:45:00 AM 18.05 64.49 0.207 7.16 3.49 7.51
6/29/2021 7:00:00 AM 18.06 64.508 0.207 7.14 3.29 7.57
6/29/2021 7:15:00 AM 17.97 64.346 0.206 7.14 3.07 7.56
6/29/2021 7:30:00 AM 17.82 64.076 0.204 7.08 3.6 7.22
6/29/2021 7:45:00 AM 17.65 63.77 0.202 7.06 3.54 7.02
6/29/2021 8:00:00 AM 17.69 63.842 0.202 7.05 2.91 7.01
6/29/2021 8:15:00 AM 17.7 63.86 0.201 7.05 3.03 7.03
6/29/2021 8:30:00 AM 17.61 63.698 0.201 7.05 3.42 6.97
6/29/2021 8:45:00 AM 17.67 63.806 0.199 7.05 3.16 6.92
6/29/2021 9:00:00 AM 17.68 63.824 0.202 7.02 2.9 6.95
6/29/2021 9:15:00 AM 17.52 63.536 0.198 6.99 3.07 6.78
6/29/2021 9:30:00 AM 17.57 63.626 0.2 6.98 3.76 6.76
6/29/2021 9:45:00 AM 17.58 63.644 0.2 6.97 3.56 6.71
6/29/2021 10:00:00 AM 17.55 63.59 0.197 6.96 2.9 6.68
6/29/2021 10:15:00 AM 17.4 63.32 0.193 6.88 3.1 6.56
6/29/2021 10:30:00 AM 17.41 63.338 0.192 6.84 2.56 6.48
6/29/2021 10:45:00 AM 17.23 63.014 0.188 6.85 2.58 6.48
6/29/2021 11:00:00 AM 17.27 63.086 0.191 6.83 2.49 6.46
6/29/2021 11:15:00 AM 17.14 62.852 0.186 6.8 3.55 6.26
6/29/2021 11:30:00 AM 17.04 62.672 0.186 6.76 2.58 6.23
6/29/2021 11:45:00 AM 17.02 62.636 0.184 6.77 2.78 6.28
6/29/2021 12:00:00 PM 16.91 62.438 0.182 6.75 2.4 5.98
6/29/2021 12:15:00 PM 16.87 62.366 0.178 6.74 1.83 5.82
6/29/2021 12:30:00 PM 16.96 62.528 0.18 6.74 2.47 6.03
6/29/2021 12:45:00 PM 17.09 62.762 0.179 6.74 2.7 6.09
6/29/2021 1:00:00 PM 17.19 62.942 0.179 6.72 2.96 6.14
6/29/2021 1:15:00 PM 17.45 63.41 0.173 6.67 2.43 6.24
6/29/2021 1:30:00 PM 17.69 63.842 0.177 6.7 2.79 6.32
6/29/2021 1:45:00 PM 17.82 64.076 0.176 6.7 5.03 6.2
6/29/2021 2:00:00 PM 18.08 64.544 0.179 6.73 2.97 6.35
6/29/2021 2:15:00 PM 18.16 64.688 0.177 6.72 2.33 6.26
6/29/2021 2:30:00 PM 18.32 64.976 0.178 6.72 2.42 6.28
6/29/2021 2:45:00 PM 18.21 64.778 0.174 6.71 2.26 6.16
6/29/2021 3:00:00 PM 18.22 64.796 0.175 6.7 2.35 6.14
6/29/2021 3:15:00 PM 18.29 64.922 0.175 6.71 2.25 6.26
6/29/2021 3:30:00 PM 18.18 64.724 0.172 6.68 2.34 6.16
6/29/2021 3:45:00 PM 18.15 64.67 0.172 6.66 2.55 6.11
6/29/2021 4:00:00 PM 18.12 64.616 0.167 6.66 2.04 6.15
6/29/2021 4:15:00 PM 18.04 64.472 0.166 6.64 1.9 6.03
6/29/2021 4:30:00 PM 17.93 64.274 0.165 6.64 2.18 5.95
6/29/2021 4:45:00 PM 17.72 63.896 0.164 6.62 1.8 5.87
6/29/2021 5:00:00 PM 17.66 63.788 0.164 6.62 1.81 5.8
6/29/2021 5:15:00 PM 17.56 63.608 0.162 6.61 1.67 5.71
6/29/2021 5:30:00 PM 17.41 63.338 0.165 6.62 1.76 5.65
6/29/2021 5:45:00 PM 17.36 63.248 0.166 6.6 1.61 5.49
6/29/2021 6:00:00 PM 17.27 63.086 0.167 6.59 1.43 5.33
6/29/2021 6:15:00 PM 17.2 62.96 0.165 6.59 1.37 5.31
6/29/2021 6:30:00 PM 17.03 62.654 0.163 6.58 1.61 5.15
6/29/2021 6:45:00 PM 17.01 62.618 0.165 6.58 1.44 5.13
6/29/2021 7:00:00 PM 16.65 61.97 0.163 6.54 1.69 4.8
6/29/2021 7:15:00 PM 16.74 62.132 0.161 6.56 1.32 4.95
6/29/2021 7:30:00 PM 16.5 61.7 0.159 6.53 1.43 4.78
6/29/2021 7:45:00 PM 16.54 61.772 0.16 6.54 1.28 4.71
6/29/2021 8:00:00 PM 16.44 61.592 0.159 6.53 1.16 4.65
6/29/2021 8:15:00 PM 16.13 61.034 0.156 6.5 0.94 4.52
6/29/2021 8:30:00 PM 16.18 61.124 0.156 6.51 1.23 4.64
6/29/2021 8:45:00 PM 16.18 61.124 0.158 6.51 1.02 4.55
6/29/2021 9:00:00 PM 16.16 61.088 0.157 6.5 0.98 4.43
6/29/2021 9:15:00 PM 15.95 60.71 0.159 6.51 0.8 4.28
6/29/2021 9:30:00 PM 15.8 60.44 0.156 6.5 1.8 4.17
6/29/2021 9:45:00 PM 15.79 60.422 0.152 6.46 1.11 4.18
6/29/2021 10:00:00 PM 15.88 60.584 0.149 6.45 1.81 4.26
6/29/2021 10:15:00 PM 15.79 60.422 0.15 6.45 0.97 4.15
6/29/2021 10:30:00 PM 16.65 61.97 0.14 6.43 13.97 4.71
6/29/2021 10:45:00 PM 19.65 67.37 0.165 6.75 18.4 6.24
6/29/2021 11:00:00 PM 20.17 68.306 0.183 6.93 13.08 6.85
6/29/2021 11:15:00 PM 20.48 68.864 0.192 7.12 13.29 7.44
6/29/2021 11:30:00 PM 20.59 69.062 0.195 7.27 16.17 7.72
6/29/2021 11:45:00 PM 20.6 69.08 0.196 7.34 14.49 7.83
6/30/2021 12:00:00 AM 20.58 69.044 0.196 7.36 12.45 7.86
6/30/2021 12:15:00 AM 20.53 68.954 0.196 7.35 11.37 7.82
6/30/2021 12:30:00 AM 20.44 68.792 0.195 7.32 11.54 7.79
6/30/2021 12:45:00 AM 20.4 68.72 0.194 7.33 11.3 7.76
6/30/2021 1:00:00 AM 20.33 68.594 0.192 7.34 14.13 7.84
6/30/2021 1:15:00 AM 20.25 68.45 0.189 7.35 16.55 7.91
6/30/2021 1:30:00 AM 20.17 68.306 0.187 7.36 14.37 8.01
6/30/2021 1:45:00 AM 20.1 68.18 0.186 7.38 15.35 8.06
6/30/2021 2:00:00 AM 20.04 68.07201 0.186 7.39 14.4 8.09
6/30/2021 2:15:00 AM 19.99 67.982 0.186 7.39 13.71 8.12
6/30/2021 2:30:00 AM 19.92 67.856 0.186 7.38 14.72 8.1
6/30/2021 2:45:00 AM 19.89 67.802 0.187 7.38 14.73 8.1
6/30/2021 3:00:00 AM 19.82 67.676 0.188 7.37 12.93 8.12
6/30/2021 3:15:00 AM 19.77 67.586 0.188 7.38 13.39 8.16
6/30/2021 3:30:00 AM 19.73 67.514 0.189 7.39 12.61 8.18
6/30/2021 3:45:00 AM 19.69 67.442 0.19 7.4 13.86 8.18
6/30/2021 4:00:00 AM 19.65 67.37 0.191 7.39 13.42 8.18
6/30/2021 4:15:00 AM 19.62 67.316 0.192 7.4 10.66 8.21
6/30/2021 4:30:00 AM 19.59 67.262 0.193 7.4 9.82 8.22
6/30/2021 4:45:00 AM 19.56 67.208 0.194 7.41 9.9 8.24
6/30/2021 5:00:00 AM 19.53 67.154 0.194 7.41 9.53 8.24
6/30/2021 5:15:00 AM 19.51 67.118 0.195 7.41 8.85 8.26
6/30/2021 5:30:00 AM 19.48 67.064 0.195 7.41 9.96 8.27
6/30/2021 5:45:00 AM 19.46 67.028 0.196 7.41 9.34 8.27
6/30/2021 6:00:00 AM 19.44 66.992 0.197 7.41 8.45 8.28
6/30/2021 6:15:00 AM 19.42 66.956 0.198 7.41 8.48 8.3
6/30/2021 6:30:00 AM 19.4 66.92 0.199 7.41 7.15 8.3
6/30/2021 6:45:00 AM 19.39 66.902 0.2 7.41 8.93 8.33
6/30/2021 7:00:00 AM 19.38 66.884 0.201 7.41 6.55 8.34
6/30/2021 7:15:00 AM 19.37 66.866 0.202 7.42 7.44 8.36
6/30/2021 7:30:00 AM 19.37 66.866 0.202 7.42 6.33 8.39
6/30/2021 7:45:00 AM 19.36 66.848 0.202 7.42 5.91 8.4
6/30/2021 8:00:00 AM 19.35 66.83 0.203 7.42 5.7 8.42
6/30/2021 8:15:00 AM 19.35 66.83 0.203 7.43 6.37 8.43
6/30/2021 8:30:00 AM 19.34 66.812 0.203 7.43 6.1 8.45
6/30/2021 8:45:00 AM 19.35 66.83 0.202 7.43 9.57 8.46
6/30/2021 9:00:00 AM 19.37 66.866 0.202 7.44 12.68 8.47
6/30/2021 9:15:00 AM 19.45 67.01 0.201 7.45 5.29 8.53
6/30/2021 9:30:00 AM 19.52 67.136 0.2 7.46 4.54 8.59
6/30/2021 9:45:00 AM 19.58 67.244 0.199 7.47 4.97 8.62
6/30/2021 10:00:00 AM 19.62 67.316 0.198 7.48 4.75 8.67
6/30/2021 10:15:00 AM 19.72 67.496 0.196 7.49 4.56 8.7
6/30/2021 10:30:00 AM 19.82 67.676 0.194 7.49 4.99 8.76
6/30/2021 10:45:00 AM 19.88 67.784 0.192 7.5 4.91 8.77
6/30/2021 11:00:00 AM 19.92 67.856 0.19 7.51 5.51 8.79
6/30/2021 11:15:00 AM 19.99 67.982 0.188 7.51 4.23 8.8
6/30/2021 11:30:00 AM 20.09 68.162 0.186 7.51 5.06 8.81
6/30/2021 11:45:00 AM 20.19 68.342 0.184 7.51 3.65 8.85
6/30/2021 12:00:00 PM 20.32 68.576 0.182 7.52 4.55 8.86
6/30/2021 12:15:00 PM 20.47 68.846 0.18 7.52 4.28 8.88
6/30/2021 12:30:00 PM 20.7 69.26 0.179 7.53 3.84 8.91
6/30/2021 12:45:00 PM 20.84 69.512 0.177 7.54 4.32 8.93
6/30/2021 1:00:00 PM 21.04 69.872 0.176 7.54 4.35 8.95
6/30/2021 1:15:00 PM 21.21 70.17799 0.176 7.54 4.13 8.93
6/30/2021 1:30:00 PM 21.48 70.664 0.175 7.55 4.45 8.97
6/30/2021 1:45:00 PM 21.62 70.916 0.174 7.56 4.28 8.96
6/30/2021 2:00:00 PM 21.83 71.294 0.174 7.56 3.85 8.98
6/30/2021 2:15:00 PM 22.16 71.888 0.174 7.57 3.99 8.99
6/30/2021 2:30:00 PM 22.42 72.356 0.174 7.57 4.66 8.98
6/30/2021 2:45:00 PM 22.67 72.806 0.174 7.58 3.85 8.96
6/30/2021 3:00:00 PM 22.72 72.896 0.174 7.55 4.25 8.91
6/30/2021 3:15:00 PM 22.71 72.878 0.174 7.54 4.08 8.83
6/30/2021 3:30:00 PM 22.63 72.734 0.175 7.55 4.31 8.77
6/30/2021 3:45:00 PM 22.54 72.57201 0.175 7.51 4.41 8.67
6/30/2021 4:00:00 PM 22.4 72.32 0.175 7.51 4.08 8.54
6/30/2021 4:15:00 PM 22.17 71.906 0.173 7.5 5.47 8.43
6/30/2021 4:30:00 PM 22.03 71.654 0.174 7.51 6.3 8.38
6/30/2021 4:45:00 PM 21.87 71.366 0.174 7.51 6.59 8.33
6/30/2021 5:00:00 PM 21.77 71.186 0.174 7.53 6.8 8.32
6/30/2021 5:15:00 PM 21.64 70.952 0.174 7.55 8.03 8.33
6/30/2021 5:30:00 PM 21.57 70.826 0.175 7.57 7.66 8.37
6/30/2021 5:45:00 PM 21.48 70.664 0.175 7.57 7.76 8.4
6/30/2021 6:00:00 PM 21.39 70.502 0.175 7.57 7.68 8.4
6/30/2021 6:15:00 PM 21.32 70.376 0.175 7.57 8.57 8.39
6/30/2021 6:30:00 PM 21.23 70.214 0.174 7.55 7.52 8.34
6/30/2021 6:45:00 PM 21.15 70.07 0.174 7.53 7.88 8.31
6/30/2021 7:00:00 PM 21.09 69.962 0.174 7.52 7.85 8.31
6/30/2021 7:15:00 PM 21.03 69.854 0.174 7.5 9.03 8.28
6/30/2021 7:30:00 PM 20.95 69.71 0.174 7.49 9.46 8.24
6/30/2021 7:45:00 PM 20.86 69.548 0.174 7.48 8.5 8.22
6/30/2021 8:00:00 PM 20.77 69.386 0.175 7.46 8.57 8.21
6/30/2021 8:15:00 PM 20.68 69.224 0.175 7.45 7.5 8.19
6/30/2021 8:30:00 PM 20.59 69.062 0.176 7.44 7.45 8.17
6/30/2021 8:45:00 PM 20.49 68.882 0.177 7.43 7.91 8.17
6/30/2021 9:00:00 PM 20.4 68.72 0.178 7.43 11.41 8.17
6/30/2021 9:15:00 PM 20.32 68.576 0.179 7.42 9.1 8.16
6/30/2021 9:30:00 PM 20.24 68.432 0.179 7.4 8.5 8.13
6/30/2021 9:45:00 PM 20.17 68.306 0.18 7.4 9.44 8.1
6/30/2021 10:00:00 PM 20.12 68.216 0.181 7.39 6.59 8.08
6/30/2021 10:15:00 PM 20.07 68.126 0.182 7.38 7.57 8.06
6/30/2021 10:30:00 PM 20.02 68.036 0.183 7.37 6.54 8.04
6/30/2021 10:45:00 PM 19.97 67.946 0.183 7.36 9.81 8.02
6/30/2021 11:00:00 PM 19.92 67.856 0.184 7.36 5.39 8.01
6/30/2021 11:15:00 PM 19.87 67.766 0.184 7.36 5.51 8
6/30/2021 11:30:00 PM 19.82 67.676 0.184 7.35 4.88 8
6/30/2021 11:45:00 PM 19.78 67.604 0.185 7.35 5.42 7.99
7/1/2021 12:00:00 AM 19.73 67.514 0.185 7.34 4.65 7.99
7/1/2021 12:15:00 AM 19.69 67.442 0.186 7.33 5.56 7.97
7/1/2021 12:30:00 AM 19.65 67.37 0.186 7.33 4.7 7.96
7/1/2021 12:45:00 AM 19.6 67.28 0.186 7.32 4.27 7.96
7/1/2021 1:00:00 AM 19.57 67.226 0.187 7.32 5.19 7.94
7/1/2021 1:15:00 AM 19.53 67.154 0.187 7.31 4.96 7.93
7/1/2021 1:30:00 AM 19.49 67.082 0.187 7.3 4.68 7.92
7/1/2021 1:45:00 AM 19.44 66.992 0.188 7.29 5.14 7.89
7/1/2021 2:00:00 AM 19.45 67.01 0.188 7.29 4.15 7.9
7/1/2021 2:15:00 AM 19.4 66.92 0.188 7.28 5.29 7.87
7/1/2021 2:30:00 AM 19.35 66.83 0.189 7.26 4 7.84
7/1/2021 2:45:00 AM 19.25 66.65 0.188 7.24 4.3 7.77
7/1/2021 3:00:00 AM 19.24 66.632 0.189 7.23 3.81 7.71
7/1/2021 3:15:00 AM 19.16 66.488 0.189 7.2 3.99 7.7
7/1/2021 3:30:00 AM 19 66.2 0.188 7.19 3.28 7.62
7/1/2021 3:45:00 AM 18.75 65.75 0.188 7.12 3.6 7.5
7/1/2021 4:00:00 AM 18.81 65.858 0.189 7.11 4.34 7.45
7/1/2021 4:15:00 AM 18.54 65.372 0.186 7.05 3.34 7.23
7/1/2021 4:30:00 AM 18.35 65.03 0.184 7.03 3.25 7.01
7/1/2021 4:45:00 AM 18.45 65.21 0.188 7.06 3.79 6.95
7/1/2021 5:00:00 AM 18.36 65.048 0.184 7.05 3.01 7.16
7/1/2021 5:15:00 AM 18.34 65.012 0.186 7.04 3.22 7.04
7/1/2021 5:30:00 AM 18.26 64.868 0.184 7.02 2.74 7.15
7/1/2021 5:45:00 AM 18.18 64.724 0.184 7.03 2.99 7.03
7/1/2021 6:00:00 AM 18.29 64.922 0.187 7.05 3.29 7.12
7/1/2021 6:15:00 AM 18.22 64.796 0.185 7.01 3.83 7.15
7/1/2021 6:30:00 AM 18.3 64.94 0.188 7.04 3.53 7.16
7/1/2021 6:45:00 AM 18.34 65.012 0.188 7.04 3.66 7.16
7/1/2021 7:00:00 AM 18.19 64.742 0.186 7.02 2.71 7.16
7/1/2021 7:15:00 AM 18.12 64.616 0.186 7.04 3.14 7.07
7/1/2021 7:30:00 AM 18.37 65.066 0.188 7.1 2.83 7.43
7/1/2021 7:45:00 AM 18.35 65.03 0.19 7.05 3.94 7.37
7/1/2021 8:00:00 AM 18.44 65.192 0.19 7.13 4.26 7.62
7/1/2021 8:15:00 AM 18.53 65.354 0.191 7.14 3.04 7.68
7/1/2021 8:30:00 AM 18.39 65.102 0.19 7.12 3.54 7.64
7/1/2021 8:45:00 AM 18.42 65.156 0.19 7.13 3.57 7.67
7/1/2021 9:00:00 AM 18.48 65.264 0.19 7.17 3.18 7.82
7/1/2021 9:15:00 AM 18.58 65.444 0.191 7.19 3.51 7.93
7/1/2021 9:30:00 AM 18.52 65.336 0.19 7.19 2.87 7.9
7/1/2021 9:45:00 AM 18.6 65.48 0.19 7.21 3.52 8.06
7/1/2021 10:00:00 AM 18.38 65.084 0.189 7.19 2.78 8.01
7/1/2021 10:15:00 AM 18.49 65.282 0.189 7.21 2.79 8.15
7/1/2021 10:30:00 AM 18.53 65.354 0.189 7.22 3.05 8.19
7/1/2021 10:45:00 AM 18.5 65.3 0.189 7.2 2.85 8.13
7/1/2021 11:00:00 AM 18.49 65.282 0.188 7.22 2.64 8.26
7/1/2021 11:15:00 AM 18.5 65.3 0.188 7.22 2.85 8.24
7/1/2021 11:30:00 AM 18.53 65.354 0.188 7.22 2.53 8.27
7/1/2021 11:45:00 AM 18.44 65.192 0.187 7.2 2.17 8.26
7/1/2021 12:00:00 PM 18.48 65.264 0.186 7.19 2.58 8.27
7/1/2021 12:15:00 PM 18.42 65.156 0.186 7.2 2.35 8.28
7/1/2021 12:30:00 PM 18.51 65.318 0.186 7.21 2.33 8.27
7/1/2021 12:45:00 PM 18.6 65.48 0.186 7.23 2.01 8.47
7/1/2021 1:00:00 PM 18.63 65.534 0.186 7.25 2.69 8.53
7/1/2021 1:15:00 PM 18.74 65.732 0.186 7.27 2.18 8.57
7/1/2021 1:30:00 PM 18.46 65.228 0.183 7.22 2.28 8.38
7/1/2021 1:45:00 PM 18.74 65.732 0.185 7.27 2.37 8.58
7/1/2021 2:00:00 PM 18.78 65.804 0.186 7.29 2.39 8.59
7/1/2021 2:15:00 PM 18.74 65.732 0.185 7.29 2.19 8.59
7/1/2021 2:30:00 PM 18.77 65.786 0.185 7.33 4.02 8.68
7/1/2021 2:45:00 PM 18.76 65.768 0.186 7.36 1.73 8.72
7/1/2021 3:00:00 PM 18.84 65.912 0.186 7.42 2.63 8.82
7/1/2021 3:15:00 PM 18.83 65.894 0.186 7.45 2.24 8.85
7/1/2021 3:30:00 PM 18.79 65.82201 0.186 7.48 2.23 8.85
7/1/2021 3:45:00 PM 18.75 65.75 0.186 7.49 2.65 8.81
7/1/2021 4:00:00 PM 18.68 65.624 0.183 7.53 4.9 8.82
7/1/2021 4:15:00 PM 18.63 65.534 0.182 7.53 6.62 8.81
7/1/2021 4:30:00 PM 18.59 65.462 0.18 7.53 9.4 8.79
7/1/2021 4:45:00 PM 18.54 65.372 0.179 7.52 11.96 8.77
7/1/2021 5:00:00 PM 18.47 65.246 0.179 7.51 12.33 8.78
7/1/2021 5:15:00 PM 18.4 65.12 0.176 7.5 40.82 8.77
7/1/2021 5:30:00 PM 18.26 64.868 0.172 7.38 108.57 8.66
7/1/2021 5:45:00 PM 18.15 64.67 0.146 7.32 237.18 8.66
7/1/2021 6:00:00 PM 18.07 64.526 0.146 7.26 252 8.63
7/1/2021 6:15:00 PM 17.97 64.346 0.147 7.26 185.33 8.67
7/1/2021 6:30:00 PM 17.9 64.22 0.148 7.27 169.14 8.68
7/1/2021 6:45:00 PM 17.79 64.022 0.12 7.21 318.15 8.71
7/1/2021 7:00:00 PM 17.64 63.752 0.086 7.12 435.99 8.77
7/1/2021 7:15:00 PM 17.54 63.572 0.069 7.03 604.39 8.81
7/1/2021 7:30:00 PM 17.51 63.518 0.069 6.99 511.8 8.82
7/1/2021 7:45:00 PM 17.53 63.554 0.08 7.01 550.96 8.81
7/1/2021 8:00:00 PM 17.58 63.644 0.095 7.06 303.22 8.79
7/1/2021 8:15:00 PM 17.62 63.716 0.107 7.09 240.05 8.77
7/1/2021 8:30:00 PM 17.65 63.77 0.116 7.11 189.47 8.75
7/1/2021 8:45:00 PM 17.68 63.824 0.119 7.13 110.84 8.74
7/1/2021 9:00:00 PM 17.69 63.842 0.119 7.13 110.16 8.73
7/1/2021 9:15:00 PM 17.7 63.86 0.116 7.14 122.34 8.73
7/1/2021 9:30:00 PM 17.7 63.86 0.114 7.13 95.87 8.71
7/1/2021 9:45:00 PM 17.69 63.842 0.111 7.13 80.73 8.72
7/1/2021 10:00:00 PM 17.67 63.806 0.11 7.13 68.62 8.73
7/1/2021 10:15:00 PM 17.65 63.77 0.109 7.14 69.44 8.74
7/1/2021 10:30:00 PM 17.63 63.734 0.109 7.14 64.21 8.74
7/1/2021 10:45:00 PM 17.61 63.698 0.109 7.13 71.79 8.75
7/1/2021 11:00:00 PM 17.59 63.662 0.109 7.14 72.05 8.75
7/1/2021 11:15:00 PM 17.56 63.608 0.109 7.13 60.33 8.76
7/1/2021 11:30:00 PM 17.53 63.554 0.109 7.14 74.49 8.77
7/1/2021 11:45:00 PM 17.5 63.5 0.109 7.15 67.31 8.78
7/2/2021 12:00:00 AM 17.48 63.464 0.11 7.16 42.87 8.78
7/2/2021 12:15:00 AM 17.45 63.41 0.11 7.15 54.89 8.79
7/2/2021 12:30:00 AM 17.42 63.356 0.111 7.16 66.29 8.79
7/2/2021 12:45:00 AM 17.39 63.302 0.111 7.15 48.87 8.8
7/2/2021 1:00:00 AM 17.35 63.23 0.111 7.16 47.67 8.81
7/2/2021 1:15:00 AM 17.32 63.176 0.111 7.16 47.68 8.82
7/2/2021 1:30:00 AM 17.29 63.122 0.112 7.17 53.83 8.83
7/2/2021 1:45:00 AM 17.26 63.068 0.112 7.16 36.73 8.83
7/2/2021 2:00:00 AM 17.22 62.996 0.112 7.17 50.53 8.84
7/2/2021 2:15:00 AM 17.19 62.942 0.113 7.17 35.94 8.84
7/2/2021 2:30:00 AM 17.16 62.888 0.113 7.18 41.76 8.85
7/2/2021 2:45:00 AM 17.12 62.816 0.113 7.18 35.63 8.86
7/2/2021 3:00:00 AM 17.09 62.762 0.113 7.18 32.81 8.88
7/2/2021 3:15:00 AM 17.05 62.69 0.113 7.18 38.26 8.88
7/2/2021 3:30:00 AM 17.02 62.636 0.113 7.17 32.45 8.89
7/2/2021 3:45:00 AM 16.98 62.564 0.113 7.17 28.65 8.9
7/2/2021 4:00:00 AM 16.93 62.474 0.113 7.18 29.49 8.92
7/2/2021 4:15:00 AM 16.89 62.402 0.113 7.19 28.12 8.92
7/2/2021 4:30:00 AM 16.84 62.312 0.114 7.2 38.36 8.93
7/2/2021 4:45:00 AM 16.8 62.24 0.114 7.2 25.35 8.94
7/2/2021 5:00:00 AM 16.74 62.132 0.114 7.21 28.2 8.95
7/2/2021 5:15:00 AM 16.69 62.042 0.114 7.21 23.9 8.96
7/2/2021 5:30:00 AM 16.63 61.934 0.114 7.22 24.82 8.97
7/2/2021 5:45:00 AM 16.58 61.844 0.115 7.22 23.65 8.99
7/2/2021 6:00:00 AM 16.53 61.754 0.115 7.22 22.59 8.99
7/2/2021 6:15:00 AM 16.48 61.664 0.115 7.23 21.52 9.01
7/2/2021 6:30:00 AM 16.44 61.592 0.115 7.23 20.04 9.03
7/2/2021 6:45:00 AM 16.4 61.52 0.115 7.23 19.88 9.04
7/2/2021 7:00:00 AM 16.38 61.484 0.116 7.23 20.49 9.07
7/2/2021 7:15:00 AM 16.36 61.448 0.116 7.24 18.22 9.07
7/2/2021 7:30:00 AM 16.34 61.412 0.116 7.25 17.86 9.09
7/2/2021 7:45:00 AM 16.33 61.394 0.117 7.26 17.38 9.11
7/2/2021 8:00:00 AM 16.33 61.394 0.117 7.27 16.3 9.13
7/2/2021 8:15:00 AM 16.34 61.412 0.117 7.27 16.78 9.16
7/2/2021 8:30:00 AM 16.33 61.394 0.117 7.28 15.19 9.18
7/2/2021 8:45:00 AM 16.33 61.394 0.118 7.29 14.92 9.19
7/2/2021 9:00:00 AM 16.34 61.412 0.118 7.29 14.69 9.21
7/2/2021 9:15:00 AM 16.33 61.394 0.118 7.3 14.51 9.21
7/2/2021 9:30:00 AM 16.32 61.376 0.119 7.3 13.62 9.22
7/2/2021 9:45:00 AM 16.32 61.376 0.119 7.3 14.56 9.24
7/2/2021 10:00:00 AM 16.32 61.376 0.119 7.31 12.93 9.24
7/2/2021 10:15:00 AM 16.32 61.376 0.12 7.31 12.14 9.24
7/2/2021 10:30:00 AM 16.32 61.376 0.12 7.32 13.28 9.26
7/2/2021 10:45:00 AM 16.33 61.394 0.12 7.33 11.31 9.29
7/2/2021 11:00:00 AM 16.35 61.43 0.12 7.34 10.99 9.3
7/2/2021 11:15:00 AM 16.37 61.466 0.121 7.35 11.92 9.31
7/2/2021 11:30:00 AM 16.38 61.484 0.121 7.35 11.71 9.32
7/2/2021 11:45:00 AM 16.49 61.682 0.121 7.36 11.11 9.34
7/2/2021 12:00:00 PM 16.55 61.79 0.122 7.37 10.14 9.37
7/2/2021 12:15:00 PM 16.61 61.898 0.122 7.37 9.7 9.38
7/2/2021 12:30:00 PM 16.69 62.042 0.122 7.39 10.14 9.4
7/2/2021 12:45:00 PM 16.73 62.114 0.122 7.39 9.63 9.41
7/2/2021 1:00:00 PM 16.96 62.528 0.123 7.41 10.28 9.42
7/2/2021 1:15:00 PM 17.11 62.798 0.123 7.42 9.54 9.43
7/2/2021 1:30:00 PM 17.35 63.23 0.123 7.43 8.91 9.43
7/2/2021 1:45:00 PM 17.54 63.572 0.124 7.45 8.52 9.41
7/2/2021 2:00:00 PM 17.69 63.842 0.124 7.45 8.23 9.39
7/2/2021 2:15:00 PM 17.78 64.004 0.124 7.46 8.07 9.35
7/2/2021 2:30:00 PM 17.96 64.328 0.125 7.46 7.64 9.34
7/2/2021 2:45:00 PM 18.05 64.49 0.125 7.47 8.01 9.32
7/2/2021 3:00:00 PM 18.12 64.616 0.125 7.48 7.92 9.3
7/2/2021 3:15:00 PM 18.18 64.724 0.126 7.48 7.76 9.26
7/2/2021 3:30:00 PM 18.28 64.904 0.126 7.48 7.04 9.23
7/2/2021 3:45:00 PM 18.32 64.976 0.126 7.47 7.13 9.18
7/2/2021 4:00:00 PM 18.4 65.12 0.127 7.48 7.51 9.15
7/2/2021 4:15:00 PM 18.42 65.156 0.127 7.47 7.26 9.11
7/2/2021 4:30:00 PM 18.47 65.246 0.127 7.47 7.26 9.07
7/2/2021 4:45:00 PM 18.46 65.228 0.128 7.46 7.74 9.03
7/2/2021 5:00:00 PM 18.4 65.12 0.128 7.46 7.29 9
7/2/2021 5:15:00 PM 18.37 65.066 0.128 7.46 6.85 8.99
7/2/2021 5:30:00 PM 18.31 64.958 0.128 7.45 7.29 8.96
7/2/2021 5:45:00 PM 18.28 64.904 0.129 7.45 7.36 8.96
7/2/2021 6:00:00 PM 18.23 64.814 0.129 7.44 7.59 8.94
7/2/2021 6:15:00 PM 18.17 64.706 0.129 7.44 6.97 8.93
7/2/2021 6:30:00 PM 18.11 64.598 0.13 7.43 7.02 8.92
7/2/2021 6:45:00 PM 18.05 64.49 0.13 7.43 6.98 8.92
7/2/2021 7:00:00 PM 18.01 64.418 0.13 7.42 7.25 8.91
7/2/2021 7:15:00 PM 17.97 64.346 0.13 7.42 7.18 8.89
7/2/2021 7:30:00 PM 17.94 64.292 0.13 7.42 7.29 8.88
7/2/2021 7:45:00 PM 17.9 64.22 0.131 7.41 7.06 8.86
7/2/2021 8:00:00 PM 17.87 64.166 0.131 7.41 7.77 8.85
7/2/2021 8:15:00 PM 17.83 64.094 0.131 7.4 7.7 8.85
7/2/2021 8:30:00 PM 17.79 64.022 0.131 7.4 7.23 8.83
7/2/2021 8:45:00 PM 17.76 63.968 0.132 7.39 7.35 8.82
7/2/2021 9:00:00 PM 17.73 63.914 0.132 7.39 7.49 8.82
7/2/2021 9:15:00 PM 17.7 63.86 0.132 7.38 8.25 8.83
7/2/2021 9:30:00 PM 17.66 63.788 0.133 7.38 7.43 8.81
7/2/2021 9:45:00 PM 17.62 63.716 0.133 7.38 8.44 8.81
7/2/2021 10:00:00 PM 17.57 63.626 0.133 7.38 8.14 8.81
7/2/2021 10:15:00 PM 17.52 63.536 0.134 7.38 7.74 8.82
7/2/2021 10:30:00 PM 17.47 63.446 0.134 7.38 7.73 8.82
7/2/2021 10:45:00 PM 17.42 63.356 0.134 7.37 9 8.83
7/2/2021 11:00:00 PM 17.38 63.284 0.135 7.37 8.05 8.84
7/2/2021 11:15:00 PM 17.33 63.194 0.135 7.37 7.89 8.84
7/2/2021 11:30:00 PM 17.29 63.122 0.136 7.37 7.88 8.85
7/2/2021 11:45:00 PM 17.24 63.032 0.136 7.37 7.83 8.85
7/3/2021 12:00:00 AM 17.2 62.96 0.137 7.37 7.56 8.85
7/3/2021 12:15:00 AM 17.16 62.888 0.137 7.38 7.26 8.86
7/3/2021 12:30:00 AM 17.13 62.834 0.138 7.38 7.12 8.87
7/3/2021 12:45:00 AM 17.09 62.762 0.138 7.38 7.42 8.88
7/3/2021 1:00:00 AM 17.06 62.708 0.138 7.38 7.88 8.89
7/3/2021 1:15:00 AM 17.03 62.654 0.139 7.38 7.4 8.9
7/3/2021 1:30:00 AM 16.99 62.582 0.139 7.38 7.83 8.91
7/3/2021 1:45:00 AM 16.96 62.528 0.139 7.38 7.03 8.92
7/3/2021 2:00:00 AM 16.92 62.456 0.139 7.38 6.93 8.92
7/3/2021 2:15:00 AM 16.89 62.402 0.139 7.38 6.96 8.92
7/3/2021 2:30:00 AM 16.84 62.312 0.139 7.38 7.76 8.95
7/3/2021 2:45:00 AM 16.79 62.222 0.138 7.38 8.12 8.96
7/3/2021 3:00:00 AM 16.75 62.15 0.138 7.38 8.06 8.96
7/3/2021 3:15:00 AM 16.7 62.06 0.138 7.37 7.65 8.96
7/3/2021 3:30:00 AM 16.66 61.988 0.139 7.37 8.12 8.96
7/3/2021 3:45:00 AM 16.63 61.934 0.139 7.37 7.98 8.97
7/3/2021 4:00:00 AM 16.59 61.862 0.14 7.37 7.84 8.97
7/3/2021 4:15:00 AM 16.55 61.79 0.141 7.37 7.35 8.97
7/3/2021 4:30:00 AM 16.52 61.736 0.142 7.37 7.73 8.98
7/3/2021 4:45:00 AM 16.48 61.664 0.142 7.37 7.47 8.99
7/3/2021 5:00:00 AM 16.45 61.61 0.143 7.37 6.89 9
7/3/2021 5:15:00 AM 16.41 61.538 0.143 7.37 7.41 9
7/3/2021 5:30:00 AM 16.37 61.466 0.144 7.37 6.99 9.02
7/3/2021 5:45:00 AM 16.33 61.394 0.144 7.38 7.19 9.02
7/3/2021 6:00:00 AM 16.29 61.322 0.145 7.38 7.69 9.03
7/3/2021 6:15:00 AM 16.25 61.25 0.145 7.38 7.27 9.05
7/3/2021 6:30:00 AM 16.22 61.196 0.145 7.38 6.89 9.06
7/3/2021 6:45:00 AM 16.19 61.142 0.145 7.38 7.41 9.08
7/3/2021 7:00:00 AM 16.17 61.106 0.145 7.39 7.27 9.11
7/3/2021 7:15:00 AM 16.15 61.07 0.146 7.39 7.33 9.14
7/3/2021 7:30:00 AM 16.14 61.052 0.145 7.4 7.07 9.17
7/3/2021 7:45:00 AM 16.11 60.998 0.145 7.41 7.24 9.2
7/3/2021 8:00:00 AM 16.09 60.962 0.145 7.41 7.85 9.21
7/3/2021 8:15:00 AM 16.06 60.908 0.144 7.41 8 9.23
7/3/2021 8:30:00 AM 16.05 60.89 0.143 7.41 8.24 9.26
7/3/2021 8:45:00 AM 16.04 60.872 0.142 7.42 8.1 9.3
7/3/2021 9:00:00 AM 16.03 60.854 0.142 7.42 8.1 9.32
7/3/2021 9:15:00 AM 16.01 60.818 0.141 7.42 7.69 9.33
7/3/2021 9:30:00 AM 16.02 60.836 0.141 7.43 6.91 9.35
7/3/2021 9:45:00 AM 16.05 60.89 0.141 7.43 6.61 9.4
7/3/2021 10:00:00 AM 16.06 60.908 0.141 7.44 6.6 9.42
7/3/2021 10:15:00 AM 16.13 61.034 0.141 7.45 6.14 9.45
7/3/2021 10:30:00 AM 16.14 61.052 0.141 7.45 6.21 9.43
7/3/2021 10:45:00 AM 16.18 61.124 0.141 7.46 5.91 9.44
7/3/2021 11:00:00 AM 16.17 61.106 0.141 7.46 5.57 9.43
7/3/2021 11:15:00 AM 16.13 61.034 0.142 7.47 5.67 9.43
7/3/2021 11:30:00 AM 16.14 61.052 0.142 7.47 6.12 9.44
7/3/2021 11:45:00 AM 16.27 61.286 0.142 7.47 5.81 9.47
7/3/2021 12:00:00 PM 16.41 61.538 0.142 7.48 6.37 9.5
7/3/2021 12:15:00 PM 16.5 61.7 0.143 7.49 6.92 9.48
7/3/2021 12:30:00 PM 16.61 61.898 0.143 7.49 6.61 9.47
7/3/2021 12:45:00 PM 16.68 62.024 0.143 7.5 6.92 9.48
7/3/2021 1:00:00 PM 16.69 62.042 0.143 7.5 6.28 9.48
7/3/2021 1:15:00 PM 16.71 62.078 0.143 7.51 5.71 9.46
7/3/2021 1:30:00 PM 16.75 62.15 0.143 7.51 5.88 9.45
7/3/2021 1:45:00 PM 16.75 62.15 0.143 7.51 5.97 9.43
7/3/2021 2:00:00 PM 16.77 62.186 0.142 7.51 5.62 9.42
7/3/2021 2:15:00 PM 16.76 62.168 0.141 7.51 5.74 9.39
7/3/2021 2:30:00 PM 16.79 62.222 0.14 7.51 5.77 9.39
7/3/2021 2:45:00 PM 16.93 62.474 0.14 7.51 5.61 9.41
7/3/2021 3:00:00 PM 17.08 62.744 0.139 7.52 6.28 9.43
7/3/2021 3:15:00 PM 17.15 62.87 0.138 7.52 6.38 9.42
7/3/2021 3:30:00 PM 17.36 63.248 0.138 7.53 6.07 9.42
7/3/2021 3:45:00 PM 17.47 63.446 0.137 7.53 6.37 9.41
7/3/2021 4:00:00 PM 17.5 63.5 0.137 7.54 6.41 9.4
7/3/2021 4:15:00 PM 17.56 63.608 0.136 7.54 6.47 9.4
7/3/2021 4:30:00 PM 17.58 63.644 0.136 7.54 6.35 9.38
7/3/2021 4:45:00 PM 17.52 63.536 0.135 7.53 6.81 9.36
7/3/2021 5:00:00 PM 17.54 63.572 0.135 7.53 6.6 9.34
7/3/2021 5:15:00 PM 17.5 63.5 0.135 7.53 6.58 9.3
7/3/2021 5:30:00 PM 17.46 63.428 0.135 7.52 7.47 9.27
7/3/2021 5:45:00 PM 17.4 63.32 0.135 7.51 6.9 9.24
7/3/2021 6:00:00 PM 17.33 63.194 0.135 7.5 6.87 9.22
7/3/2021 6:15:00 PM 17.29 63.122 0.135 7.49 7.67 9.2
7/3/2021 6:30:00 PM 17.28 63.104 0.135 7.48 7.1 9.19
7/3/2021 6:45:00 PM 17.29 63.122 0.135 7.48 7.17 9.18
7/3/2021 7:00:00 PM 17.29 63.122 0.135 7.47 7.19 9.16
7/3/2021 7:15:00 PM 17.27 63.086 0.135 7.47 6.54 9.15
7/3/2021 7:30:00 PM 17.26 63.068 0.136 7.46 7 9.12
7/3/2021 7:45:00 PM 17.24 63.032 0.138 7.46 7.08 9.09
7/3/2021 8:00:00 PM 17.23 63.014 0.141 7.45 6.62 9.07
7/3/2021 8:15:00 PM 17.22 62.996 0.144 7.44 6.89 9.04
7/3/2021 8:30:00 PM 17.21 62.978 0.147 7.44 6.51 9.01
7/3/2021 8:45:00 PM 17.19 62.942 0.148 7.43 6.96 8.99
7/3/2021 9:00:00 PM 17.16 62.888 0.148 7.42 7.1 8.98
7/3/2021 9:15:00 PM 17.1 62.78 0.147 7.41 6.9 8.97
7/3/2021 9:30:00 PM 17.04 62.672 0.146 7.41 6.94 8.97
7/3/2021 9:45:00 PM 16.98 62.564 0.144 7.41 7.01 8.97
7/3/2021 10:00:00 PM 16.91 62.438 0.143 7.4 7.82 8.97
7/3/2021 10:15:00 PM 16.83 62.294 0.142 7.39 7.48 8.98
7/3/2021 10:30:00 PM 16.76 62.168 0.141 7.39 6.73 8.99
7/3/2021 10:45:00 PM 16.68 62.024 0.14 7.39 7.23 9
7/3/2021 11:00:00 PM 16.61 61.898 0.139 7.38 7.35 9.01
7/3/2021 11:15:00 PM 16.54 61.772 0.139 7.37 6.78 9.02
7/3/2021 11:30:00 PM 16.47 61.646 0.138 7.38 7.03 9.04
7/3/2021 11:45:00 PM 16.41 61.538 0.138 7.38 7.23 9.05
7/4/2021 12:00:00 AM 16.35 61.43 0.138 7.37 7.93 9.06
7/4/2021 12:15:00 AM 16.29 61.322 0.138 7.37 7.48 9.07
7/4/2021 12:30:00 AM 16.23 61.214 0.138 7.37 7.34 9.08
7/4/2021 12:45:00 AM 16.17 61.106 0.139 7.37 7.28 9.09
7/4/2021 1:00:00 AM 16.1 60.98 0.139 7.37 6.93 9.11
7/4/2021 1:15:00 AM 16.03 60.854 0.139 7.37 7 9.12
7/4/2021 1:30:00 AM 15.96 60.728 0.139 7.37 6.63 9.13
7/4/2021 1:45:00 AM 15.9 60.62 0.139 7.36 6.79 9.14
7/4/2021 2:00:00 AM 15.84 60.512 0.139 7.36 6.29 9.16
7/4/2021 2:15:00 AM 15.78 60.404 0.139 7.37 5.91 9.17
7/4/2021 2:30:00 AM 15.72 60.296 0.14 7.36 6.32 9.18
7/4/2021 2:45:00 AM 15.67 60.206 0.14 7.36 5.95 9.2
7/4/2021 3:00:00 AM 15.62 60.116 0.14 7.36 6.52 9.21
7/4/2021 3:15:00 AM 15.57 60.026 0.14 7.37 5.8 9.22
7/4/2021 3:30:00 AM 15.52 59.936 0.14 7.36 6.05 9.22
7/4/2021 3:45:00 AM 15.46 59.828 0.14 7.36 6.08 9.24
7/4/2021 4:00:00 AM 15.41 59.738 0.141 7.36 6.04 9.25
7/4/2021 4:15:00 AM 15.36 59.648 0.141 7.36 6.23 9.26
7/4/2021 4:30:00 AM 15.31 59.558 0.141 7.36 5.99 9.27
7/4/2021 4:45:00 AM 15.25 59.45 0.141 7.37 5.82 9.29
7/4/2021 5:00:00 AM 15.2 59.36 0.141 7.36 6.13 9.29
7/4/2021 5:15:00 AM 15.15 59.27 0.141 7.36 5.65 9.31
7/4/2021 5:30:00 AM 15.1 59.18 0.142 7.36 5.74 9.32
7/4/2021 5:45:00 AM 15.05 59.09 0.142 7.36 4.92 9.33
7/4/2021 6:00:00 AM 15 59 0.142 7.36 5.2 9.35
7/4/2021 6:15:00 AM 14.95 58.91 0.142 7.37 4.9 9.37
7/4/2021 6:30:00 AM 14.9 58.82 0.142 7.37 4.82 9.39
7/4/2021 6:45:00 AM 14.86 58.748 0.142 7.37 4.47 9.41
7/4/2021 7:00:00 AM 14.82 58.676 0.142 7.37 4.6 9.44
7/4/2021 7:15:00 AM 14.79 58.622 0.142 7.38 4.88 9.47
7/4/2021 7:30:00 AM 14.76 58.568 0.143 7.39 4.63 9.51
7/4/2021 7:45:00 AM 14.74 58.532 0.143 7.39 5.09 9.54
7/4/2021 8:00:00 AM 14.73 58.514 0.143 7.39 4.44 9.57
7/4/2021 8:15:00 AM 14.73 58.514 0.143 7.41 4.16 9.6
7/4/2021 8:30:00 AM 14.74 58.532 0.143 7.41 3.66 9.63
7/4/2021 8:45:00 AM 14.77 58.586 0.143 7.41 3.97 9.64
7/4/2021 9:00:00 AM 14.8 58.64 0.143 7.42 3.66 9.66
7/4/2021 9:15:00 AM 14.83 58.694 0.143 7.43 3.81 9.68
7/4/2021 9:30:00 AM 14.91 58.838 0.143 7.44 3.4 9.7
7/4/2021 9:45:00 AM 15.01 59.018 0.143 7.45 3.36 9.72
7/4/2021 10:00:00 AM 15.06 59.108 0.143 7.46 3.58 9.71
7/4/2021 10:15:00 AM 15.13 59.234 0.143 7.47 3.32 9.73
7/4/2021 10:30:00 AM 15.24 59.432 0.143 7.47 3.41 9.73
7/4/2021 10:45:00 AM 15.38 59.684 0.143 7.48 3.25 9.73
7/4/2021 11:00:00 AM 15.51 59.918 0.143 7.49 3.35 9.72
7/4/2021 11:15:00 AM 15.7 60.26 0.143 7.5 2.83 9.74
7/4/2021 11:30:00 AM 15.89 60.602 0.144 7.51 3.08 9.74
7/4/2021 11:45:00 AM 16.08 60.944 0.144 7.52 3.04 9.73
7/4/2021 12:00:00 PM 16.29 61.322 0.144 7.53 3.1 9.73
7/4/2021 12:15:00 PM 16.37 61.466 0.144 7.54 2.84 9.71
7/4/2021 12:30:00 PM 16.55 61.79 0.144 7.55 2.89 9.69
7/4/2021 12:45:00 PM 16.65 61.97 0.144 7.56 3.05 9.69
7/4/2021 1:00:00 PM 16.85 62.33 0.144 7.57 2.98 9.69
7/4/2021 1:15:00 PM 17.05 62.69 0.144 7.58 3.04 9.67
7/4/2021 1:30:00 PM 17.24 63.032 0.144 7.58 3.03 9.64
7/4/2021 1:45:00 PM 17.4 63.32 0.144 7.59 2.97 9.62
7/4/2021 2:00:00 PM 17.43 63.374 0.144 7.6 2.92 9.58
7/4/2021 2:15:00 PM 17.55 63.59 0.144 7.6 2.9 9.57
7/4/2021 2:30:00 PM 17.75 63.95 0.144 7.6 2.77 9.54
7/4/2021 2:45:00 PM 17.83 64.094 0.144 7.61 2.83 9.53
7/4/2021 3:00:00 PM 17.8 64.04 0.144 7.61 2.96 9.49
7/4/2021 3:15:00 PM 17.91 64.238 0.145 7.61 2.99 9.48
7/4/2021 3:30:00 PM 17.95 64.31 0.145 7.61 2.67 9.46
7/4/2021 3:45:00 PM 17.99 64.382 0.145 7.61 2.97 9.43
7/4/2021 4:00:00 PM 18.1 64.58 0.145 7.61 2.79 9.42
7/4/2021 4:15:00 PM 18.11 64.598 0.145 7.61 3.01 9.39
7/4/2021 4:30:00 PM 18.09 64.562 0.146 7.6 2.96 9.34
7/4/2021 4:45:00 PM 18.04 64.472 0.146 7.59 3.28 9.3
7/4/2021 5:00:00 PM 17.97 64.346 0.146 7.58 3.11 9.27
7/4/2021 5:15:00 PM 17.93 64.274 0.147 7.58 3.16 9.25
7/4/2021 5:30:00 PM 17.86 64.148 0.147 7.57 3.14 9.22
7/4/2021 5:45:00 PM 17.81 64.058 0.147 7.55 3.23 9.17
7/4/2021 6:00:00 PM 17.77 63.986 0.147 7.54 3.17 9.14
7/4/2021 6:15:00 PM 17.7 63.86 0.147 7.53 3.43 9.11
7/4/2021 6:30:00 PM 17.64 63.752 0.147 7.52 3.12 9.07
7/4/2021 6:45:00 PM 17.58 63.644 0.147 7.51 3.52 9.05
7/4/2021 7:00:00 PM 17.53 63.554 0.147 7.5 3.46 9.04
7/4/2021 7:15:00 PM 17.47 63.446 0.147 7.49 3.6 9.02
7/4/2021 7:30:00 PM 17.42 63.356 0.147 7.48 3.32 9.01
7/4/2021 7:45:00 PM 17.38 63.284 0.147 7.48 3.78 9
7/4/2021 8:00:00 PM 17.33 63.194 0.147 7.47 3.95 8.98
7/4/2021 8:15:00 PM 17.28 63.104 0.147 7.46 3.95 8.97
7/4/2021 8:30:00 PM 17.24 63.032 0.147 7.46 3.98 8.97
7/4/2021 8:45:00 PM 17.19 62.942 0.147 7.46 3.59 8.96
7/4/2021 9:00:00 PM 17.14 62.852 0.147 7.46 3.84 8.95
7/4/2021 9:15:00 PM 17.09 62.762 0.147 7.45 3.94 8.94
7/4/2021 9:30:00 PM 17.03 62.654 0.148 7.44 4.43 8.94
7/4/2021 9:45:00 PM 16.96 62.528 0.148 7.43 3.98 8.94
7/4/2021 10:00:00 PM 16.89 62.402 0.148 7.43 4.3 8.95
7/4/2021 10:15:00 PM 16.82 62.276 0.148 7.43 4.4 8.96
7/4/2021 10:30:00 PM 16.74 62.132 0.149 7.42 4.37 8.96
7/4/2021 10:45:00 PM 16.66 61.988 0.149 7.42 4.27 8.97
7/4/2021 11:00:00 PM 16.57 61.826 0.149 7.42 4.32 8.99
7/4/2021 11:15:00 PM 16.49 61.682 0.149 7.41 4.53 9
7/4/2021 11:30:00 PM 16.41 61.538 0.15 7.41 4.43 9.02
7/4/2021 11:45:00 PM 16.32 61.376 0.15 7.41 4.37 9.04
7/5/2021 12:00:00 AM 16.24 61.232 0.151 7.41 4.54 9.05
7/5/2021 12:15:00 AM 16.15 61.07 0.152 7.41 4.18 9.07
7/5/2021 12:30:00 AM 16.07 60.926 0.152 7.41 4.15 9.08
7/5/2021 12:45:00 AM 15.98 60.764 0.153 7.4 4.28 9.1
7/5/2021 1:00:00 AM 15.9 60.62 0.153 7.41 4.11 9.11
7/5/2021 1:15:00 AM 15.81 60.458 0.154 7.4 4.1 9.13
7/5/2021 1:30:00 AM 15.73 60.314 0.154 7.4 3.94 9.15
7/5/2021 1:45:00 AM 15.65 60.17 0.155 7.41 3.74 9.17
7/5/2021 2:00:00 AM 15.56 60.008 0.155 7.4 4.2 9.19
7/5/2021 2:15:00 AM 15.48 59.864 0.155 7.41 4.01 9.2
7/5/2021 2:30:00 AM 15.4 59.72 0.155 7.4 4.09 9.21
7/5/2021 2:45:00 AM 15.32 59.576 0.155 7.41 3.76 9.23
7/5/2021 3:00:00 AM 15.25 59.45 0.155 7.4 3.79 9.25
7/5/2021 3:15:00 AM 15.17 59.306 0.155 7.4 3.79 9.27
7/5/2021 3:30:00 AM 15.1 59.18 0.155 7.4 3.78 9.28
7/5/2021 3:45:00 AM 15.03 59.054 0.155 7.4 3.78 9.31
7/5/2021 4:00:00 AM 14.95 58.91 0.155 7.4 3.92 9.32
7/5/2021 4:15:00 AM 14.89 58.802 0.155 7.4 3.94 9.34
7/5/2021 4:30:00 AM 14.82 58.676 0.155 7.4 4.27 9.35
7/5/2021 4:45:00 AM 14.75 58.55 0.155 7.4 4.08 9.37
7/5/2021 5:00:00 AM 14.69 58.442 0.155 7.39 4.37 9.38
7/5/2021 5:15:00 AM 14.63 58.334 0.155 7.4 4.54 9.4
7/5/2021 5:30:00 AM 14.57 58.226 0.155 7.4 5.58 9.42
7/5/2021 5:45:00 AM 14.51 58.118 0.155 7.4 3.84 9.43
7/5/2021 6:00:00 AM 14.45 58.01 0.154 7.39 3.64 9.45
7/5/2021 6:15:00 AM 14.4 57.92 0.154 7.4 3.12 9.47
7/5/2021 6:30:00 AM 14.35 57.83 0.154 7.4 3.36 9.5
7/5/2021 6:45:00 AM 14.31 57.758 0.154 7.4 3.37 9.53
7/5/2021 7:00:00 AM 14.27 57.686 0.154 7.4 3.45 9.56
7/5/2021 7:15:00 AM 14.25 57.65 0.154 7.41 3.46 9.59
7/5/2021 7:30:00 AM 14.22 57.596 0.154 7.42 3.19 9.62
7/5/2021 7:45:00 AM 14.21 57.578 0.154 7.42 3.11 9.65
7/5/2021 8:00:00 AM 14.21 57.578 0.153 7.43 2.95 9.68
7/5/2021 8:15:00 AM 14.22 57.596 0.153 7.44 2.76 9.72
7/5/2021 8:30:00 AM 14.24 57.632 0.153 7.45 2.69 9.76
7/5/2021 8:45:00 AM 14.28 57.704 0.153 7.46 2.45 9.79
7/5/2021 9:00:00 AM 14.34 57.812 0.153 7.47 2.41 9.82
7/5/2021 9:15:00 AM 14.42 57.956 0.154 7.47 2.52 9.85
7/5/2021 9:30:00 AM 14.51 58.118 0.154 7.49 2.29 9.88
7/5/2021 9:45:00 AM 14.61 58.298 0.154 7.49 2.38 9.9
7/5/2021 10:00:00 AM 14.73 58.514 0.154 7.51 2.26 9.92
7/5/2021 10:15:00 AM 14.87 58.766 0.154 7.52 2.48 9.94
7/5/2021 10:30:00 AM 15.02 59.036 0.154 7.53 2.16 9.94
7/5/2021 10:45:00 AM 15.17 59.306 0.154 7.54 2.31 9.94
7/5/2021 11:00:00 AM 15.35 59.63 0.154 7.55 2.02 9.95
7/5/2021 11:15:00 AM 15.56 60.008 0.154 7.56 2.24 9.96
7/5/2021 11:30:00 AM 15.78 60.404 0.154 7.58 2.29 9.94
7/5/2021 11:45:00 AM 16.02 60.836 0.154 7.59 2.44 9.93
7/5/2021 12:00:00 PM 16.29 61.322 0.154 7.6 2.39 9.92
7/5/2021 12:15:00 PM 16.57 61.826 0.155 7.62 2.13 9.91
7/5/2021 12:30:00 PM 16.87 62.366 0.155 7.64 2.15 9.9
7/5/2021 12:45:00 PM 17.17 62.906 0.155 7.65 2.15 9.88
7/5/2021 1:00:00 PM 17.44 63.392 0.155 7.67 2.41 9.86
7/5/2021 1:15:00 PM 17.7 63.86 0.155 7.68 2.15 9.84
7/5/2021 1:30:00 PM 17.98 64.364 0.155 7.7 2.52 9.82
7/5/2021 1:45:00 PM 18.21 64.778 0.155 7.72 2.22 9.79
7/5/2021 2:00:00 PM 18.41 65.138 0.155 7.73 2.45 9.75
7/5/2021 2:15:00 PM 18.63 65.534 0.156 7.74 2.57 9.71
7/5/2021 2:30:00 PM 18.79 65.82201 0.156 7.75 2.46 9.66
7/5/2021 2:45:00 PM 18.88 65.984 0.156 7.76 3.52 9.62
7/5/2021 3:00:00 PM 18.96 66.128 0.156 7.76 3.97 9.57
7/5/2021 3:15:00 PM 19.01 66.218 0.156 7.75 3.83 9.51
7/5/2021 3:30:00 PM 19.05 66.29 0.156 7.74 3.77 9.46
7/5/2021 3:45:00 PM 19.07 66.326 0.156 7.72 3.6 9.42
7/5/2021 4:00:00 PM 19.09 66.362 0.155 7.72 3.29 9.38
7/5/2021 4:15:00 PM 19.1 66.38 0.155 7.72 3.11 9.35
7/5/2021 4:30:00 PM 19.09 66.362 0.155 7.71 3.21 9.31
7/5/2021 4:45:00 PM 19.07 66.326 0.155 7.7 2.68 9.27
7/5/2021 5:00:00 PM 19.05 66.29 0.155 7.69 2.87 9.23
7/5/2021 5:15:00 PM 19.01 66.218 0.156 7.67 2.77 9.19
7/5/2021 5:30:00 PM 18.97 66.146 0.156 7.66 2.79 9.14
7/5/2021 5:45:00 PM 18.92 66.056 0.157 7.64 2.84 9.09
7/5/2021 6:00:00 PM 18.88 65.984 0.157 7.63 2.77 9.06
7/5/2021 6:15:00 PM 18.84 65.912 0.157 7.62 2.63 9.02
7/5/2021 6:30:00 PM 18.8 65.84 0.158 7.6 2.8 8.99
7/5/2021 6:45:00 PM 18.75 65.75 0.159 7.6 2.67 8.96
7/5/2021 7:00:00 PM 18.71 65.67799 0.159 7.57 2.8 8.94
7/5/2021 7:15:00 PM 18.66 65.588 0.16 7.56 2.68 8.91
7/5/2021 7:30:00 PM 18.61 65.498 0.161 7.55 2.51 8.87
7/5/2021 7:45:00 PM 18.55 65.39 0.163 7.53 4.41 8.85
7/5/2021 8:00:00 PM 18.5 65.3 0.164 7.52 2.71 8.81
7/5/2021 8:15:00 PM 18.46 65.228 0.165 7.51 2.84 8.77
7/5/2021 8:30:00 PM 18.41 65.138 0.166 7.5 2.77 8.74
7/5/2021 8:45:00 PM 18.37 65.066 0.167 7.49 3.23 8.71
7/5/2021 9:00:00 PM 18.33 64.994 0.168 7.48 3.2 8.68
7/5/2021 9:15:00 PM 18.3 64.94 0.169 7.47 3.25 8.66
7/5/2021 9:30:00 PM 18.26 64.868 0.17 7.46 3.48 8.64
7/5/2021 9:45:00 PM 18.23 64.814 0.171 7.46 3.54 8.62
7/5/2021 10:00:00 PM 18.19 64.742 0.171 7.45 3.6 8.62
7/5/2021 10:15:00 PM 18.16 64.688 0.171 7.44 3.47 8.6
7/5/2021 10:30:00 PM 18.13 64.634 0.171 7.43 4.1 8.6
7/5/2021 10:45:00 PM 18.1 64.58 0.171 7.43 3.87 8.59
7/5/2021 11:00:00 PM 18.06 64.508 0.171 7.42 3.82 8.58
7/5/2021 11:15:00 PM 18.03 64.454 0.17 7.42 4.15 8.59
7/5/2021 11:30:00 PM 17.99 64.382 0.17 7.42 4.64 8.6
7/5/2021 11:45:00 PM 17.95 64.31 0.17 7.41 4.14 8.61
7/6/2021 12:00:00 AM 17.91 64.238 0.169 7.41 3.8 8.6
7/6/2021 12:15:00 AM 17.87 64.166 0.169 7.41 4.88 8.61
7/6/2021 12:30:00 AM 17.83 64.094 0.169 7.41 4.27 8.63
7/6/2021 12:45:00 AM 17.79 64.022 0.168 7.4 3.77 8.62
7/6/2021 1:00:00 AM 17.75 63.95 0.168 7.4 3.95 8.63
7/6/2021 1:15:00 AM 17.7 63.86 0.168 7.39 3.85 8.62
7/6/2021 1:30:00 AM 17.65 63.77 0.168 7.39 3.7 8.63
7/6/2021 1:45:00 AM 17.61 63.698 0.168 7.38 3.65 8.63
7/6/2021 2:00:00 AM 17.56 63.608 0.168 7.38 3.76 8.64
7/6/2021 2:15:00 AM 17.51 63.518 0.168 7.38 3.65 8.64
7/6/2021 2:30:00 AM 17.46 63.428 0.167 7.37 3.67 8.63
7/6/2021 2:45:00 AM 17.41 63.338 0.167 7.37 4.17 8.62
7/6/2021 3:00:00 AM 17.37 63.266 0.167 7.36 3.59 8.62
7/6/2021 3:15:00 AM 17.33 63.194 0.168 7.36 3.43 8.63
7/6/2021 3:30:00 AM 17.29 63.122 0.168 7.36 3.57 8.64
7/6/2021 3:45:00 AM 17.24 63.032 0.168 7.36 3.55 8.66
7/6/2021 4:00:00 AM 17.2 62.96 0.168 7.36 3.5 8.68
7/6/2021 4:15:00 AM 17.16 62.888 0.168 7.36 3.62 8.68
7/6/2021 4:30:00 AM 17.13 62.834 0.168 7.36 3.8 8.69
7/6/2021 4:45:00 AM 17.09 62.762 0.168 7.36 3.97 8.69
7/6/2021 5:00:00 AM 17.06 62.708 0.168 7.36 3.61 8.69
7/6/2021 5:15:00 AM 17.03 62.654 0.168 7.35 3.72 8.69
7/6/2021 5:30:00 AM 17 62.6 0.168 7.35 3.52 8.68
7/6/2021 5:45:00 AM 16.97 62.546 0.168 7.34 3.78 8.69
7/6/2021 6:00:00 AM 16.93 62.474 0.168 7.35 3.81 8.71
7/6/2021 6:15:00 AM 16.91 62.438 0.168 7.34 3.32 8.71
7/6/2021 6:30:00 AM 16.89 62.402 0.168 7.34 3.45 8.72
7/6/2021 6:45:00 AM 16.89 62.402 0.169 7.34 3.35 8.74
7/6/2021 7:00:00 AM 16.9 62.42 0.169 7.34 3.36 8.79
7/6/2021 7:15:00 AM 16.91 62.438 0.169 7.35 2.86 8.85
7/6/2021 7:30:00 AM 16.93 62.474 0.169 7.37 2.89 8.92
7/6/2021 7:45:00 AM 16.97 62.546 0.169 7.38 3.2 9
7/6/2021 8:00:00 AM 17.02 62.636 0.169 7.39 3.27 9.07
7/6/2021 8:15:00 AM 17.06 62.708 0.168 7.4 3.22 9.12
7/6/2021 8:30:00 AM 17.1 62.78 0.168 7.42 2.74 9.16
7/6/2021 8:45:00 AM 17.14 62.852 0.168 7.42 2.99 9.2
7/6/2021 9:00:00 AM 17.18 62.924 0.168 7.43 2.52 9.22
7/6/2021 9:15:00 AM 17.2 62.96 0.168 7.43 2.83 9.2
7/6/2021 9:30:00 AM 17.24 63.032 0.168 7.44 2.26 9.21
7/6/2021 9:45:00 AM 17.28 63.104 0.168 7.44 2.67 9.24
7/6/2021 10:00:00 AM 17.33 63.194 0.168 7.45 2.27 9.26
7/6/2021 10:15:00 AM 17.42 63.356 0.168 7.46 2.37 9.31
7/6/2021 10:30:00 AM 17.53 63.554 0.168 7.47 2.55 9.36
7/6/2021 10:45:00 AM 17.61 63.698 0.168 7.49 2.48 9.4
7/6/2021 11:00:00 AM 17.7 63.86 0.168 7.51 2.1 9.42
7/6/2021 11:15:00 AM 17.9 64.22 0.168 7.53 2.47 9.48
7/6/2021 11:30:00 AM 18.04 64.472 0.168 7.57 2.2 9.5
7/6/2021 11:45:00 AM 18.16 64.688 0.168 7.59 2.15 9.52
7/6/2021 12:00:00 PM 18.28 64.904 0.168 7.61 2.11 9.53
7/6/2021 12:15:00 PM 18.51 65.318 0.167 7.63 2.07 9.54
7/6/2021 12:30:00 PM 18.71 65.67799 0.167 7.66 2.01 9.55
7/6/2021 12:45:00 PM 18.89 66.002 0.167 7.68 2.04 9.57
7/6/2021 1:00:00 PM 19.17 66.506 0.168 7.7 1.96 9.57
7/6/2021 1:15:00 PM 19.34 66.812 0.168 7.72 2.06 9.56
7/6/2021 1:30:00 PM 19.24 66.632 0.168 7.72 1.92 9.45
7/6/2021 1:45:00 PM 19.37 66.866 0.168 7.72 1.93 9.41
7/6/2021 2:00:00 PM 19.63 67.334 0.168 7.73 2.03 9.44
7/6/2021 2:15:00 PM 19.71 67.478 0.168 7.74 2.24 9.39
7/6/2021 2:30:00 PM 19.61 67.298 0.166 7.73 4.41 9.2
7/6/2021 2:45:00 PM 19.54 67.172 0.166 7.7 4.29 9.07
7/6/2021 3:00:00 PM 19.51 67.118 0.166 7.68 5.03 8.98
7/6/2021 3:15:00 PM 19.47 67.046 0.167 7.66 4.17 8.96
7/6/2021 3:30:00 PM 19.47 67.046 0.167 7.66 3.7 9.01
7/6/2021 3:45:00 PM 19.38 66.884 0.167 7.66 3.58 9.02
7/6/2021 4:00:00 PM 19.34 66.812 0.167 7.66 3.59 9.05
7/6/2021 4:15:00 PM 19.4 66.92 0.167 7.66 3.09 9.11
7/6/2021 4:30:00 PM 19.48 67.064 0.167 7.67 3.27 9.15
7/6/2021 4:45:00 PM 19.49 67.082 0.167 7.69 3.62 9.15
7/6/2021 5:00:00 PM 19.52 67.136 0.167 7.69 3.22 9.16
7/6/2021 5:15:00 PM 19.47 67.046 0.166 7.68 3.59 9.08
7/6/2021 5:30:00 PM 19.42 66.956 0.165 7.66 4.21 8.99
7/6/2021 5:45:00 PM 19.37 66.866 0.165 7.64 5.19 8.93
7/6/2021 6:00:00 PM 19.32 66.776 0.164 7.63 7.15 8.9
7/6/2021 6:15:00 PM 19.21 66.578 0.163 7.62 7.31 8.87
7/6/2021 6:30:00 PM 19.12 66.416 0.163 7.6 8.73 8.83
7/6/2021 6:45:00 PM 19.08 66.344 0.162 7.57 10.01 8.79
7/6/2021 7:00:00 PM 19.06 66.308 0.161 7.54 11.2 8.75
7/6/2021 7:15:00 PM 19.04 66.272 0.161 7.53 11.75 8.74
7/6/2021 7:30:00 PM 19.01 66.218 0.16 7.52 12.55 8.72
7/6/2021 7:45:00 PM 18.97 66.146 0.161 7.51 12.39 8.7
7/6/2021 8:00:00 PM 18.92 66.056 0.161 7.49 10.86 8.68
7/6/2021 8:15:00 PM 18.86 65.948 0.163 7.47 10.4 8.67
7/6/2021 8:30:00 PM 18.79 65.82201 0.164 7.47 9.46 8.66
7/6/2021 8:45:00 PM 18.73 65.714 0.164 7.45 9.26 8.64
7/6/2021 9:00:00 PM 18.67 65.606 0.165 7.45 9.33 8.63
7/6/2021 9:15:00 PM 18.62 65.516 0.166 7.44 8.92 8.62
7/6/2021 9:30:00 PM 18.58 65.444 0.167 7.44 8.8 8.61
7/6/2021 9:45:00 PM 18.54 65.372 0.168 7.43 8.53 8.61
7/6/2021 10:00:00 PM 18.5 65.3 0.168 7.42 8.15 8.6
7/6/2021 10:15:00 PM 18.46 65.228 0.169 7.41 7.88 8.6
7/6/2021 10:30:00 PM 18.42 65.156 0.169 7.4 7.83 8.61
7/6/2021 10:45:00 PM 18.38 65.084 0.169 7.4 7.35 8.62
7/6/2021 11:00:00 PM 18.34 65.012 0.168 7.4 6.78 8.63
7/6/2021 11:15:00 PM 18.3 64.94 0.168 7.39 7.08 8.64
7/6/2021 11:30:00 PM 18.25 64.85 0.167 7.38 7.38 8.65
7/6/2021 11:45:00 PM 18.21 64.778 0.166 7.38 6.76 8.65
7/7/2021 12:00:00 AM 18.18 64.724 0.165 7.37 7.03 8.66
7/7/2021 12:15:00 AM 18.14 64.652 0.164 7.36 8.93 8.67
7/7/2021 12:30:00 AM 18.11 64.598 0.164 7.36 7.29 8.68
7/7/2021 12:45:00 AM 18.07 64.526 0.163 7.36 6.66 8.68
7/7/2021 1:00:00 AM 18.04 64.472 0.163 7.35 6.45 8.69
7/7/2021 1:15:00 AM 18 64.4 0.163 7.35 6.01 8.7
7/7/2021 1:30:00 AM 17.96 64.328 0.163 7.36 6.44 8.71
7/7/2021 1:45:00 AM 17.92 64.256 0.163 7.37 5.84 8.72
7/7/2021 2:00:00 AM 17.88 64.184 0.164 7.36 5.61 8.72
7/7/2021 2:15:00 AM 17.84 64.112 0.164 7.37 6.02 8.73
7/7/2021 2:30:00 AM 17.8 64.04 0.165 7.37 6.22 8.73
7/7/2021 2:45:00 AM 17.76 63.968 0.165 7.38 5.6 8.74
7/7/2021 3:00:00 AM 17.73 63.914 0.165 7.38 5.43 8.75
7/7/2021 3:15:00 AM 17.7 63.86 0.166 7.38 5.62 8.75
7/7/2021 3:30:00 AM 17.66 63.788 0.166 7.38 5.74 8.76
7/7/2021 3:45:00 AM 17.63 63.734 0.167 7.38 12.5 8.76
7/7/2021 4:00:00 AM 17.59 63.662 0.167 7.38 5.4 8.77
7/7/2021 4:15:00 AM 17.56 63.608 0.168 7.38 5.95 8.78
7/7/2021 4:30:00 AM 17.53 63.554 0.168 7.39 5.32 8.79
7/7/2021 4:45:00 AM 17.49 63.482 0.169 7.39 5.4 8.79
7/7/2021 5:00:00 AM 17.46 63.428 0.169 7.39 5.47 8.8
7/7/2021 5:15:00 AM 17.43 63.374 0.17 7.39 5.36 8.8
7/7/2021 5:30:00 AM 17.4 63.32 0.17 7.4 5.33 8.81
7/7/2021 5:45:00 AM 17.38 63.284 0.17 7.4 4.78 8.81
7/7/2021 6:00:00 AM 17.35 63.23 0.171 7.4 4.8 8.82
7/7/2021 6:15:00 AM 17.33 63.194 0.171 7.4 4.93 8.84
7/7/2021 6:30:00 AM 17.3 63.14 0.171 7.41 4.57 8.85
7/7/2021 6:45:00 AM 17.28 63.104 0.171 7.41 4.48 8.87
7/7/2021 7:00:00 AM 17.27 63.086 0.171 7.41 4.57 8.9
7/7/2021 7:15:00 AM 17.27 63.086 0.172 7.42 4.12 8.93
7/7/2021 7:30:00 AM 17.28 63.104 0.172 7.43 4.05 8.99
7/7/2021 7:45:00 AM 17.28 63.104 0.172 7.44 3.64 9.04
7/7/2021 8:00:00 AM 17.26 63.068 0.172 7.45 4.01 9.06
7/7/2021 8:15:00 AM 17.28 63.104 0.171 7.45 3.7 9.11
7/7/2021 8:30:00 AM 17.32 63.176 0.171 7.46 3.56 9.16
7/7/2021 8:45:00 AM 17.32 63.176 0.171 7.46 3.28 9.18
7/7/2021 9:00:00 AM 17.32 63.176 0.171 7.46 3.2 9.2
7/7/2021 9:15:00 AM 17.36 63.248 0.171 7.47 3.31 9.22
7/7/2021 9:30:00 AM 17.41 63.338 0.171 7.48 3.01 9.25
7/7/2021 9:45:00 AM 17.46 63.428 0.171 7.48 2.98 9.27
7/7/2021 10:00:00 AM 17.52 63.536 0.171 7.49 2.9 9.29
7/7/2021 10:15:00 AM 17.64 63.752 0.17 7.51 2.84 9.33
7/7/2021 10:30:00 AM 17.78 64.004 0.17 7.53 2.92 9.36
7/7/2021 10:45:00 AM 17.94 64.292 0.17 7.54 2.54 9.38
7/7/2021 11:00:00 AM 18.1 64.58 0.17 7.56 2.53 9.4
7/7/2021 11:15:00 AM 18.31 64.958 0.169 7.58 2.73 9.43
7/7/2021 11:30:00 AM 18.51 65.318 0.169 7.61 2.53 9.45
7/7/2021 11:45:00 AM 18.71 65.67799 0.169 7.63 2.5 9.47
7/7/2021 12:00:00 PM 18.86 65.948 0.169 7.65 2.57 9.46
7/7/2021 12:15:00 PM 19.06 66.308 0.168 7.66 2.65 9.46
7/7/2021 12:30:00 PM 19.2 66.56 0.168 7.68 2.62 9.44
7/7/2021 12:45:00 PM 19.28 66.704 0.168 7.68 2.48 9.38
7/7/2021 1:00:00 PM 19.49 67.082 0.168 7.69 2.54 9.39
7/7/2021 1:15:00 PM 19.72 67.496 0.167 7.7 2.13 9.39
7/7/2021 1:30:00 PM 19.84 67.712 0.167 7.71 2.1 9.39
7/7/2021 1:45:00 PM 19.8 67.64 0.167 7.71 2.38 9.33
7/7/2021 2:00:00 PM 20.04 68.07201 0.167 7.72 2.26 9.33
7/7/2021 2:15:00 PM 20.1 68.18 0.167 7.72 2.22 9.29
7/7/2021 2:30:00 PM 20.35 68.63 0.167 7.74 2.34 9.29
7/7/2021 2:45:00 PM 20.52 68.936 0.167 7.75 2.25 9.3
7/7/2021 3:00:00 PM 20.42 68.756 0.167 7.74 2.38 9.21
7/7/2021 3:15:00 PM 20.6 69.08 0.166 7.74 2.49 9.21
7/7/2021 3:30:00 PM 20.77 69.386 0.166 7.75 2.22 9.21
7/7/2021 3:45:00 PM 20.73 69.314 0.166 7.75 2.5 9.13
7/7/2021 4:00:00 PM 20.61 69.098 0.167 7.72 2.97 9
7/7/2021 4:15:00 PM 20.58 69.044 0.167 7.7 2.62 8.93
7/7/2021 4:30:00 PM 20.6 69.08 0.167 7.68 2.58 8.89
7/7/2021 4:45:00 PM 20.58 69.044 0.167 7.66 2.41 8.87
7/7/2021 5:00:00 PM 20.51 68.918 0.167 7.65 2.74 8.84
7/7/2021 5:15:00 PM 20.51 68.918 0.167 7.64 2.88 8.86
7/7/2021 5:30:00 PM 20.41 68.738 0.167 7.63 3.08 8.84
7/7/2021 5:45:00 PM 20.32 68.576 0.167 7.62 2.86 8.79
7/7/2021 6:00:00 PM 20.29 68.522 0.168 7.61 2.87 8.75
7/7/2021 6:15:00 PM 20.27 68.486 0.168 7.6 2.75 8.7
7/7/2021 6:30:00 PM 20.26 68.468 0.168 7.58 2.74 8.67
7/7/2021 6:45:00 PM 20.24 68.432 0.168 7.57 2.76 8.63
7/7/2021 7:00:00 PM 20.2 68.36 0.168 7.56 2.87 8.59
7/7/2021 7:15:00 PM 20.15 68.27 0.169 7.54 2.84 8.54
7/7/2021 7:30:00 PM 20.11 68.198 0.169 7.53 3.3 8.5
7/7/2021 7:45:00 PM 20.08 68.144 0.169 7.51 3.01 8.46
7/7/2021 8:00:00 PM 20.04 68.07201 0.17 7.49 3.15 8.42
7/7/2021 8:15:00 PM 20 68 0.17 7.48 3.46 8.38
7/7/2021 8:30:00 PM 19.96 67.92799 0.17 7.46 3.12 8.35
7/7/2021 8:45:00 PM 19.91 67.838 0.171 7.45 2.98 8.32
7/7/2021 9:00:00 PM 19.86 67.748 0.171 7.45 3.48 8.29
7/7/2021 9:15:00 PM 19.81 67.658 0.171 7.44 3.89 8.27
7/7/2021 9:30:00 PM 19.76 67.568 0.172 7.44 3.59 8.25
7/7/2021 9:45:00 PM 19.72 67.496 0.172 7.43 3.7 8.24
7/7/2021 10:00:00 PM 19.68 67.424 0.172 7.43 3.55 8.23
7/7/2021 10:15:00 PM 19.59 67.262 0.16 7.45 20.75 8.46
7/7/2021 10:30:00 PM 19.5 67.1 0.156 7.41 37.22 8.46
7/7/2021 10:45:00 PM 19.42 66.956 0.154 7.4 50.84 8.46
7/7/2021 11:00:00 PM 19.3 66.74 0.142 7.31 199.91 8.47
7/7/2021 11:15:00 PM 19.23 66.614 0.13 7.27 160.4 8.45
7/7/2021 11:30:00 PM 19.13 66.434 0.124 7.25 159.25 8.43
7/7/2021 11:45:00 PM 19.04 66.272 0.12 7.21 148.86 8.43
7/8/2021 12:00:00 AM 19 66.2 0.123 7.2 126.13 8.39
7/8/2021 12:15:00 AM 18.94 66.092 0.125 7.18 128.52 8.38
7/8/2021 12:30:00 AM 18.85 65.93 0.119 7.17 102.34 8.42
7/8/2021 12:45:00 AM 18.75 65.75 0.114 7.16 91.07 8.45
7/8/2021 1:00:00 AM 18.67 65.606 0.114 7.16 90.88 8.48
7/8/2021 1:15:00 AM 18.64 65.552 0.118 7.15 63.13 8.48
7/8/2021 1:30:00 AM 18.61 65.498 0.122 7.16 60.58 8.48
7/8/2021 1:45:00 AM 18.59 65.462 0.127 7.17 65.56 8.49
7/8/2021 2:00:00 AM 18.56 65.408 0.129 7.19 36.94 8.51
7/8/2021 2:15:00 AM 18.51 65.318 0.129 7.2 45.81 8.54
7/8/2021 2:30:00 AM 18.47 65.246 0.131 7.21 52.82 8.55
7/8/2021 2:45:00 AM 18.47 65.246 0.135 7.22 52.51 8.55
7/8/2021 3:00:00 AM 18.5 65.3 0.141 7.24 45.5 8.54
7/8/2021 3:15:00 AM 18.52 65.336 0.146 7.25 42.67 8.53
7/8/2021 3:30:00 AM 18.5 65.3 0.148 7.27 41.99 8.55
7/8/2021 3:45:00 AM 18.39 65.102 0.143 7.27 43.03 8.59
7/8/2021 4:00:00 AM 18.22 64.796 0.134 7.25 40.78 8.64
7/8/2021 4:15:00 AM 18.05 64.49 0.13 7.24 45.89 8.68
7/8/2021 4:30:00 AM 17.97 64.346 0.131 7.24 46.06 8.7
7/8/2021 4:45:00 AM 17.94 64.292 0.136 7.25 34.56 8.71
7/8/2021 5:00:00 AM 17.95 64.31 0.142 7.26 37.31 8.69
7/8/2021 5:15:00 AM 17.96 64.328 0.146 7.27 43.42 8.69
7/8/2021 5:30:00 AM 17.94 64.292 0.149 7.27 32.66 8.69
7/8/2021 5:45:00 AM 17.91 64.238 0.15 7.27 28.17 8.71
7/8/2021 6:00:00 AM 17.87 64.166 0.149 7.27 27.07 8.72
7/8/2021 6:15:00 AM 17.83 64.094 0.148 7.27 30.48 8.72
7/8/2021 6:30:00 AM 17.79 64.022 0.146 7.26 23.94 8.75
7/8/2021 6:45:00 AM 17.77 63.986 0.144 7.25 24.46 8.75
7/8/2021 7:00:00 AM 17.75 63.95 0.142 7.25 27.33 8.76
7/8/2021 7:15:00 AM 17.74 63.932 0.139 7.24 31.19 8.78
7/8/2021 7:30:00 AM 17.73 63.914 0.137 7.24 28.95 8.8
7/8/2021 7:45:00 AM 17.72 63.896 0.135 7.23 27.8 8.81
7/8/2021 8:00:00 AM 17.71 63.878 0.133 7.23 29.68 8.81
7/8/2021 8:15:00 AM 17.7 63.86 0.131 7.23 28.97 8.82
7/8/2021 8:30:00 AM 17.69 63.842 0.13 7.23 27.41 8.82
7/8/2021 8:45:00 AM 17.7 63.86 0.129 7.22 26.94 8.84
7/8/2021 9:00:00 AM 17.71 63.878 0.128 7.23 28.37 8.87
7/8/2021 9:15:00 AM 17.74 63.932 0.127 7.23 18.31 8.9
7/8/2021 9:30:00 AM 17.78 64.004 0.127 7.24 26.39 8.93
7/8/2021 9:45:00 AM 17.82 64.076 0.127 7.25 29.89 8.96
7/8/2021 10:00:00 AM 17.87 64.166 0.126 7.27 27.05 8.99
7/8/2021 10:15:00 AM 17.94 64.292 0.126 7.27 23.07 9.03
7/8/2021 10:30:00 AM 18.01 64.418 0.126 7.28 23.71 9.07
7/8/2021 10:45:00 AM 18.12 64.616 0.126 7.3 21.64 9.1
7/8/2021 11:00:00 AM 18.19 64.742 0.126 7.31 22 9.12
7/8/2021 11:15:00 AM 18.29 64.922 0.126 7.32 20.74 9.16
7/8/2021 11:30:00 AM 18.36 65.048 0.126 7.34 18.94 9.17
7/8/2021 11:45:00 AM 18.43 65.174 0.126 7.35 17.1 9.16
7/8/2021 12:00:00 PM 18.49 65.282 0.127 7.36 16.33 9.15
7/8/2021 12:15:00 PM 18.49 65.282 0.127 7.36 16.29 9.12
7/8/2021 12:30:00 PM 18.49 65.282 0.127 7.35 15.48 9.09
7/8/2021 12:45:00 PM 18.48 65.264 0.127 7.35 16.16 9.08
7/8/2021 1:00:00 PM 18.47 65.246 0.127 7.35 14.95 9.06
7/8/2021 1:15:00 PM 18.46 65.228 0.128 7.35 14.18 9.03
7/8/2021 1:30:00 PM 18.46 65.228 0.128 7.34 13.14 9.02
7/8/2021 1:45:00 PM 18.46 65.228 0.128 7.34 13.37 9.02
7/8/2021 2:00:00 PM 18.53 65.354 0.128 7.35 12.51 9.06
7/8/2021 2:15:00 PM 18.62 65.516 0.129 7.37 11.47 9.11
7/8/2021 2:30:00 PM 18.69 65.642 0.129 7.39 11.71 9.16
7/8/2021 2:45:00 PM 18.72 65.696 0.129 7.39 11.28 9.14
7/8/2021 3:00:00 PM 18.78 65.804 0.129 7.4 10.89 9.12
7/8/2021 3:15:00 PM 18.77 65.786 0.13 7.4 10.51 9.07
7/8/2021 3:30:00 PM 18.74 65.732 0.13 7.39 10.71 9.03
7/8/2021 3:45:00 PM 18.72 65.696 0.13 7.39 9.51 9.01
7/8/2021 4:00:00 PM 18.74 65.732 0.13 7.39 10.1 9.02
7/8/2021 4:15:00 PM 18.76 65.768 0.131 7.4 9.56 9.04
7/8/2021 4:30:00 PM 18.81 65.858 0.131 7.41 9.03 9.06
7/8/2021 4:45:00 PM 18.85 65.93 0.131 7.42 9.08 9.07
7/8/2021 5:00:00 PM 18.88 65.984 0.131 7.42 9.36 9.05
7/8/2021 5:15:00 PM 18.88 65.984 0.132 7.42 8.58 9.03
7/8/2021 5:30:00 PM 18.85 65.93 0.132 7.41 8.68 8.99
7/8/2021 5:45:00 PM 18.81 65.858 0.132 7.41 8.6 8.95
7/8/2021 6:00:00 PM 18.77 65.786 0.133 7.4 8.31 8.91
7/8/2021 6:15:00 PM 18.74 65.732 0.133 7.39 8.37 8.88
7/8/2021 6:30:00 PM 18.72 65.696 0.133 7.38 8.06 8.84
7/8/2021 6:45:00 PM 18.7 65.66 0.134 7.38 7.93 8.81
7/8/2021 7:00:00 PM 18.7 65.66 0.134 7.37 7.79 8.8
7/8/2021 7:15:00 PM 18.68 65.624 0.134 7.36 7.61 8.77
7/8/2021 7:30:00 PM 18.66 65.588 0.135 7.35 8.36 8.75
7/8/2021 7:45:00 PM 18.63 65.534 0.135 7.36 7.47 8.73
7/8/2021 8:00:00 PM 18.6 65.48 0.135 7.34 7.88 8.71
7/8/2021 8:15:00 PM 18.57 65.426 0.135 7.34 7.73 8.7
7/8/2021 8:30:00 PM 18.53 65.354 0.135 7.33 7.82 8.68
7/8/2021 8:45:00 PM 18.5 65.3 0.135 7.32 8.14 8.65
7/8/2021 9:00:00 PM 18.46 65.228 0.136 7.31 7.94 8.64
7/8/2021 9:15:00 PM 18.43 65.174 0.136 7.3 8.65 8.63
7/8/2021 9:30:00 PM 18.4 65.12 0.137 7.29 8.99 8.63
7/8/2021 9:45:00 PM 18.36 65.048 0.137 7.29 8.62 8.62
7/8/2021 10:00:00 PM 18.33 64.994 0.137 7.29 8.72 8.62
7/8/2021 10:15:00 PM 18.28 64.904 0.137 7.27 8.59 8.63
7/8/2021 10:30:00 PM 18.25 64.85 0.138 7.28 8.42 8.63
7/8/2021 10:45:00 PM 18.21 64.778 0.138 7.27 8.29 8.64
7/8/2021 11:00:00 PM 18.17 64.706 0.138 7.26 7.82 8.64
7/8/2021 11:15:00 PM 18.13 64.634 0.139 7.27 8.09 8.65
7/8/2021 11:30:00 PM 18.09 64.562 0.139 7.27 8.21 8.65
7/8/2021 11:45:00 PM 18.06 64.508 0.14 7.26 8.07 8.66
7/9/2021 12:00:00 AM 18.02 64.436 0.14 7.26 7.34 8.67
7/9/2021 12:15:00 AM 17.98 64.364 0.14 7.27 7.23 8.68
7/9/2021 12:30:00 AM 17.95 64.31 0.141 7.27 7.1 8.68
7/9/2021 12:45:00 AM 17.91 64.238 0.141 7.27 6.93 8.7
7/9/2021 1:00:00 AM 17.88 64.184 0.141 7.27 7 8.7
7/9/2021 1:15:00 AM 17.85 64.13 0.141 7.27 7.24 8.7
7/9/2021 1:30:00 AM 17.82 64.076 0.141 7.27 6.73 8.71
7/9/2021 1:45:00 AM 17.79 64.022 0.142 7.27 6.7 8.72
7/9/2021 2:00:00 AM 17.76 63.968 0.142 7.27 6.86 8.72
7/9/2021 2:15:00 AM 17.72 63.896 0.142 7.27 6.56 8.73
7/9/2021 2:30:00 AM 17.69 63.842 0.142 7.28 6.69 8.74
7/9/2021 2:45:00 AM 17.65 63.77 0.142 7.28 6.4 8.74
7/9/2021 3:00:00 AM 17.61 63.698 0.143 7.29 6.96 8.75
7/9/2021 3:15:00 AM 17.57 63.626 0.143 7.28 6.42 8.76
7/9/2021 3:30:00 AM 17.53 63.554 0.143 7.29 6.47 8.77
7/9/2021 3:45:00 AM 17.49 63.482 0.144 7.29 6.55 8.78
7/9/2021 4:00:00 AM 17.45 63.41 0.144 7.29 6.52 8.78
7/9/2021 4:15:00 AM 17.42 63.356 0.144 7.29 6.3 8.8
7/9/2021 4:30:00 AM 17.38 63.284 0.144 7.29 6.78 8.8
7/9/2021 4:45:00 AM 17.34 63.212 0.144 7.29 6.62 8.81
7/9/2021 5:00:00 AM 17.3 63.14 0.144 7.29 6.54 8.82
7/9/2021 5:15:00 AM 17.26 63.068 0.145 7.3 7 8.82
7/9/2021 5:30:00 AM 17.21 62.978 0.145 7.3 6.44 8.83
7/9/2021 5:45:00 AM 17.17 62.906 0.145 7.3 6.24 8.85
7/9/2021 6:00:00 AM 17.14 62.852 0.145 7.3 5.94 8.85
7/9/2021 6:15:00 AM 17.1 62.78 0.145 7.3 6.08 8.87
7/9/2021 6:30:00 AM 17.07 62.726 0.145 7.3 6.02 8.88
7/9/2021 6:45:00 AM 17.05 62.69 0.145 7.3 5.86 8.9
7/9/2021 7:00:00 AM 17.02 62.636 0.145 7.29 5.67 8.92
7/9/2021 7:15:00 AM 17 62.6 0.145 7.29 5.48 8.95
7/9/2021 7:30:00 AM 16.99 62.582 0.146 7.29 5.11 8.97
7/9/2021 7:45:00 AM 16.97 62.546 0.146 7.3 5.65 9
7/9/2021 8:00:00 AM 16.97 62.546 0.146 7.3 5.18 9.05
7/9/2021 8:15:00 AM 16.98 62.564 0.146 7.32 5.4 9.1
7/9/2021 8:30:00 AM 16.99 62.582 0.146 7.32 4.78 9.15
7/9/2021 8:45:00 AM 17.04 62.672 0.147 7.34 4.45 9.22
7/9/2021 9:00:00 AM 17.06 62.708 0.147 7.35 4.53 9.24
7/9/2021 9:15:00 AM 17.08 62.744 0.147 7.36 4.01 9.26
7/9/2021 9:30:00 AM 17.14 62.852 0.147 7.37 4.22 9.31
7/9/2021 9:45:00 AM 17.16 62.888 0.147 7.39 3.79 9.31
7/9/2021 10:00:00 AM 17.21 62.978 0.147 7.4 3.97 9.34
7/9/2021 10:15:00 AM 17.35 63.23 0.147 7.41 3.71 9.37
7/9/2021 10:30:00 AM 17.38 63.284 0.147 7.43 3.61 9.37
7/9/2021 10:45:00 AM 17.45 63.41 0.147 7.45 3.85 9.4
7/9/2021 11:00:00 AM 17.62 63.716 0.148 7.47 3.79 9.44
7/9/2021 11:15:00 AM 17.72 63.896 0.148 7.48 3.45 9.44
7/9/2021 11:30:00 AM 17.83 64.094 0.148 7.49 3.27 9.44
7/9/2021 11:45:00 AM 18.01 64.418 0.148 7.51 3.27 9.46
7/9/2021 12:00:00 PM 18.14 64.652 0.148 7.51 3.3 9.45
7/9/2021 12:15:00 PM 18.29 64.922 0.148 7.53 3.05 9.46
7/9/2021 12:30:00 PM 18.52 65.336 0.148 7.54 3.2 9.46
7/9/2021 12:45:00 PM 18.64 65.552 0.148 7.56 2.74 9.45
7/9/2021 1:00:00 PM 18.8 65.84 0.148 7.57 3.06 9.44
7/9/2021 1:15:00 PM 19.02 66.236 0.148 7.58 2.98 9.43
7/9/2021 1:30:00 PM 19.17 66.506 0.148 7.59 3.26 9.41
7/9/2021 1:45:00 PM 19.28 66.704 0.148 7.6 3.14 9.39
7/9/2021 2:00:00 PM 19.44 66.992 0.148 7.6 2.86 9.38
7/9/2021 2:15:00 PM 19.65 67.37 0.148 7.62 2.85 9.38
7/9/2021 2:30:00 PM 19.83 67.694 0.148 7.62 2.92 9.35
7/9/2021 2:45:00 PM 19.75 67.55 0.148 7.62 2.9 9.27
7/9/2021 3:00:00 PM 19.63 67.334 0.147 7.59 3.09 9.13
7/9/2021 3:15:00 PM 19.56 67.208 0.144 7.56 6.73 9.01
7/9/2021 3:30:00 PM 19.4 66.92 0.139 7.5 17.01 8.91
7/9/2021 3:45:00 PM 19.21 66.578 0.138 7.44 47.35 8.8
7/9/2021 4:00:00 PM 19.14 66.452 0.122 7.32 143.36 8.71
7/9/2021 4:15:00 PM 19.12 66.416 0.119 7.28 95.11 8.64
7/9/2021 4:30:00 PM 19.1 66.38 0.119 7.25 74.61 8.58
7/9/2021 4:45:00 PM 19.16 66.488 0.121 7.24 69.74 8.56
7/9/2021 5:00:00 PM 19.16 66.488 0.124 7.24 50.82 8.6
7/9/2021 5:15:00 PM 19.18 66.524 0.127 7.24 40.08 8.63
7/9/2021 5:30:00 PM 19.16 66.488 0.128 7.24 37.25 8.64
7/9/2021 5:45:00 PM 19.12 66.416 0.129 7.25 25 8.64
7/9/2021 6:00:00 PM 19.07 66.326 0.131 7.25 23.63 8.64
7/9/2021 6:15:00 PM 19.01 66.218 0.134 7.26 18.95 8.62
7/9/2021 6:30:00 PM 18.95 66.11 0.136 7.26 16.98 8.62
7/9/2021 6:45:00 PM 18.9 66.02 0.138 7.27 15.64 8.63
7/9/2021 7:00:00 PM 18.85 65.93 0.14 7.28 14.3 8.64
7/9/2021 7:15:00 PM 18.8 65.84 0.141 7.28 11.83 8.65
7/9/2021 7:30:00 PM 18.76 65.768 0.143 7.29 12.29 8.67
7/9/2021 7:45:00 PM 18.71 65.67799 0.144 7.3 14.34 8.65
7/9/2021 8:00:00 PM 18.67 65.606 0.144 7.29 16.7 8.66
7/9/2021 8:15:00 PM 18.63 65.534 0.144 7.3 15.87 8.65
7/9/2021 8:30:00 PM 18.58 65.444 0.144 7.3 14.75 8.65
7/9/2021 8:45:00 PM 18.54 65.372 0.144 7.29 13.94 8.65
7/9/2021 9:00:00 PM 18.5 65.3 0.144 7.3 13.18 8.64
7/9/2021 9:15:00 PM 18.48 65.264 0.144 7.3 12.02 8.64
7/9/2021 9:30:00 PM 18.46 65.228 0.145 7.29 12.3 8.63
7/9/2021 9:45:00 PM 18.45 65.21 0.146 7.29 10.87 8.62
7/9/2021 10:00:00 PM 18.44 65.192 0.147 7.3 10.79 8.62
7/9/2021 10:15:00 PM 18.42 65.156 0.149 7.31 10.24 8.63
7/9/2021 10:30:00 PM 18.4 65.12 0.151 7.3 10.43 8.63
7/9/2021 10:45:00 PM 18.37 65.066 0.153 7.31 9.69 8.63
7/9/2021 11:00:00 PM 18.33 64.994 0.154 7.32 9.1 8.64
7/9/2021 11:15:00 PM 18.29 64.922 0.155 7.32 9.07 8.65
7/9/2021 11:30:00 PM 18.26 64.868 0.156 7.31 8.68 8.65
7/9/2021 11:45:00 PM 18.22 64.796 0.156 7.32 8.28 8.66
7/10/2021 12:00:00 AM 18.19 64.742 0.155 7.32 8.53 8.67
7/10/2021 12:15:00 AM 18.14 64.652 0.155 7.31 8.08 8.67
7/10/2021 12:30:00 AM 18.1 64.58 0.154 7.32 8.87 8.68
7/10/2021 12:45:00 AM 18.06 64.508 0.152 7.31 9.4 8.69
7/10/2021 1:00:00 AM 18.02 64.436 0.151 7.31 9.92 8.69
7/10/2021 1:15:00 AM 17.99 64.382 0.15 7.31 10.98 8.69
7/10/2021 1:30:00 AM 17.95 64.31 0.148 7.3 11.94 8.69
7/10/2021 1:45:00 AM 17.91 64.238 0.147 7.3 12.95 8.69
7/10/2021 2:00:00 AM 17.87 64.166 0.146 7.29 12.66 8.7
7/10/2021 2:15:00 AM 17.82 64.076 0.145 7.29 13.04 8.7
7/10/2021 2:30:00 AM 17.78 64.004 0.144 7.29 14.04 8.71
7/10/2021 2:45:00 AM 17.73 63.914 0.143 7.29 13.3 8.71
7/10/2021 3:00:00 AM 17.68 63.824 0.142 7.28 13.87 8.72
7/10/2021 3:15:00 AM 17.63 63.734 0.142 7.29 13.37 8.74
7/10/2021 3:30:00 AM 17.58 63.644 0.141 7.28 13.74 8.74
7/10/2021 3:45:00 AM 17.54 63.572 0.141 7.27 13.32 8.74
7/10/2021 4:00:00 AM 17.49 63.482 0.141 7.28 12.21 8.76
7/10/2021 4:15:00 AM 17.45 63.41 0.141 7.28 11.44 8.77
7/10/2021 4:30:00 AM 17.4 63.32 0.141 7.28 11.42 8.78
7/10/2021 4:45:00 AM 17.36 63.248 0.141 7.28 12.08 8.79
7/10/2021 5:00:00 AM 17.32 63.176 0.141 7.28 11.76 8.81
7/10/2021 5:15:00 AM 17.28 63.104 0.141 7.28 10.64 8.81
7/10/2021 5:30:00 AM 17.23 63.014 0.141 7.28 10.35 8.81
7/10/2021 5:45:00 AM 17.19 62.942 0.141 7.28 10.42 8.83
7/10/2021 6:00:00 AM 17.15 62.87 0.141 7.28 9.59 8.84
7/10/2021 6:15:00 AM 17.11 62.798 0.141 7.28 9.1 8.85
7/10/2021 6:30:00 AM 17.07 62.726 0.141 7.28 8.42 8.87
7/10/2021 6:45:00 AM 17.03 62.654 0.141 7.29 8.05 8.89
7/10/2021 7:00:00 AM 16.99 62.582 0.141 7.28 8.2 8.91
7/10/2021 7:15:00 AM 16.97 62.546 0.141 7.3 7.69 8.93
7/10/2021 7:30:00 AM 16.93 62.474 0.142 7.29 7.16 8.95
7/10/2021 7:45:00 AM 16.9 62.42 0.142 7.3 7.22 8.98
7/10/2021 8:00:00 AM 16.87 62.366 0.142 7.3 7.23 8.99
7/10/2021 8:15:00 AM 16.85 62.33 0.142 7.3 6.62 9.03
7/10/2021 8:30:00 AM 16.83 62.294 0.142 7.32 6.1 9.06
7/10/2021 8:45:00 AM 16.81 62.258 0.142 7.32 6.07 9.09
7/10/2021 9:00:00 AM 16.79 62.222 0.142 7.33 5.93 9.12
7/10/2021 9:15:00 AM 16.77 62.186 0.142 7.32 5.44 9.14
7/10/2021 9:30:00 AM 16.78 62.204 0.142 7.34 5.5 9.2
7/10/2021 9:45:00 AM 16.79 62.222 0.143 7.35 5.39 9.27
7/10/2021 10:00:00 AM 16.81 62.258 0.143 7.37 5.24 9.33
7/10/2021 10:15:00 AM 16.82 62.276 0.143 7.38 4.94 9.38
7/10/2021 10:30:00 AM 16.88 62.384 0.143 7.4 4.87 9.43
7/10/2021 10:45:00 AM 16.9 62.42 0.143 7.41 4.65 9.48
7/10/2021 11:00:00 AM 16.9 62.42 0.143 7.42 4.77 9.49
7/10/2021 11:15:00 AM 16.95 62.51 0.143 7.43 4.51 9.51
7/10/2021 11:30:00 AM 17 62.6 0.143 7.44 4.49 9.54
7/10/2021 11:45:00 AM 17 62.6 0.144 7.45 4.03 9.54
7/10/2021 12:00:00 PM 16.99 62.582 0.144 7.45 3.79 9.53
7/10/2021 12:15:00 PM 16.99 62.582 0.144 7.45 3.62 9.5
7/10/2021 12:30:00 PM 17.03 62.654 0.144 7.46 3.53 9.53
7/10/2021 12:45:00 PM 17.03 62.654 0.144 7.46 3.33 9.53
7/10/2021 1:00:00 PM 17.04 62.672 0.144 7.47 3.23 9.53
7/10/2021 1:15:00 PM 17.09 62.762 0.144 7.47 3.14 9.53
7/10/2021 1:30:00 PM 17.16 62.888 0.144 7.48 3.17 9.55
7/10/2021 1:45:00 PM 17.19 62.942 0.144 7.49 3.11 9.57
7/10/2021 2:00:00 PM 17.28 63.104 0.145 7.5 3.29 9.61
7/10/2021 2:15:00 PM 17.45 63.41 0.145 7.52 3.1 9.64
7/10/2021 2:30:00 PM 17.46 63.428 0.145 7.53 2.81 9.65
7/10/2021 2:45:00 PM 17.5 63.5 0.145 7.54 3.1 9.65
7/10/2021 3:00:00 PM 17.54 63.572 0.145 7.55 2.83 9.62
7/10/2021 3:15:00 PM 17.76 63.968 0.145 7.56 2.94 9.64
7/10/2021 3:30:00 PM 17.93 64.274 0.146 7.57 2.98 9.64
7/10/2021 3:45:00 PM 17.86 64.148 0.146 7.57 3.02 9.59
7/10/2021 4:00:00 PM 17.99 64.382 0.146 7.57 2.98 9.58
7/10/2021 4:15:00 PM 18.03 64.454 0.146 7.57 3.28 9.55
7/10/2021 4:30:00 PM 17.99 64.382 0.146 7.56 3.2 9.49
7/10/2021 4:45:00 PM 17.95 64.31 0.147 7.55 2.94 9.44
7/10/2021 5:00:00 PM 17.91 64.238 0.147 7.53 2.79 9.36
7/10/2021 5:15:00 PM 17.94 64.292 0.147 7.52 3.18 9.32
7/10/2021 5:30:00 PM 17.92 64.256 0.147 7.51 3.29 9.26
7/10/2021 5:45:00 PM 17.9 64.22 0.147 7.49 3.24 9.2
7/10/2021 6:00:00 PM 17.9 64.22 0.148 7.48 3.22 9.16
7/10/2021 6:15:00 PM 17.88 64.184 0.148 7.47 3.28 9.13
7/10/2021 6:30:00 PM 17.84 64.112 0.148 7.46 3.03 9.09
7/10/2021 6:45:00 PM 17.79 64.022 0.148 7.45 3.18 9.06
7/10/2021 7:00:00 PM 17.73 63.914 0.148 7.44 3.28 9.04
7/10/2021 7:15:00 PM 17.66 63.788 0.148 7.43 3.48 9.02
7/10/2021 7:30:00 PM 17.59 63.662 0.148 7.43 3.61 9.01
7/10/2021 7:45:00 PM 17.53 63.554 0.149 7.42 3.62 8.99
7/10/2021 8:00:00 PM 17.48 63.464 0.149 7.42 3.6 8.98
7/10/2021 8:15:00 PM 17.44 63.392 0.149 7.41 3.65 8.96
7/10/2021 8:30:00 PM 17.4 63.32 0.149 7.41 3.63 8.96
7/10/2021 8:45:00 PM 17.36 63.248 0.149 7.4 3.52 8.94
7/10/2021 9:00:00 PM 17.32 63.176 0.149 7.39 3.95 8.94
7/10/2021 9:15:00 PM 17.28 63.104 0.149 7.38 3.84 8.92
7/10/2021 9:30:00 PM 17.23 63.014 0.149 7.37 4.65 8.92
7/10/2021 9:45:00 PM 17.18 62.924 0.15 7.37 4.25 8.9
7/10/2021 10:00:00 PM 17.13 62.834 0.15 7.37 4.4 8.91
7/10/2021 10:15:00 PM 17.07 62.726 0.15 7.37 3.81 8.92
7/10/2021 10:30:00 PM 17.02 62.636 0.15 7.36 4.24 8.91
7/10/2021 10:45:00 PM 16.97 62.546 0.15 7.36 4.51 8.92
7/10/2021 11:00:00 PM 16.91 62.438 0.15 7.36 3.86 8.93
7/10/2021 11:15:00 PM 16.85 62.33 0.15 7.36 4.05 8.95
7/10/2021 11:30:00 PM 16.79 62.222 0.15 7.35 3.95 8.96
7/10/2021 11:45:00 PM 16.73 62.114 0.151 7.35 4.05 8.97
7/11/2021 12:00:00 AM 16.66 61.988 0.151 7.35 4.06 8.98
7/11/2021 12:15:00 AM 16.59 61.862 0.151 7.35 4.24 8.99
7/11/2021 12:30:00 AM 16.53 61.754 0.151 7.34 3.87 9
7/11/2021 12:45:00 AM 16.46 61.628 0.151 7.35 4.54 9.01
7/11/2021 1:00:00 AM 16.39 61.502 0.151 7.34 4.52 9.03
7/11/2021 1:15:00 AM 16.32 61.376 0.151 7.34 4.52 9.04
7/11/2021 1:30:00 AM 16.25 61.25 0.151 7.34 9.14 9.06
7/11/2021 1:45:00 AM 16.18 61.124 0.152 7.34 4.51 9.07
7/11/2021 2:00:00 AM 16.12 61.016 0.152 7.34 4.29 9.08
7/11/2021 2:15:00 AM 16.06 60.908 0.152 7.34 4.68 9.09
7/11/2021 2:30:00 AM 16 60.8 0.152 7.34 4.27 9.11
7/11/2021 2:45:00 AM 15.94 60.692 0.152 7.34 4.43 9.12
7/11/2021 3:00:00 AM 15.88 60.584 0.152 7.34 3.66 9.13
7/11/2021 3:15:00 AM 15.83 60.494 0.152 7.35 3.94 9.14
7/11/2021 3:30:00 AM 15.79 60.422 0.152 7.34 4.1 9.15
7/11/2021 3:45:00 AM 15.74 60.332 0.152 7.34 4.32 9.17
7/11/2021 4:00:00 AM 15.69 60.242 0.153 7.34 4.22 9.18
7/11/2021 4:15:00 AM 15.64 60.152 0.153 7.34 4.22 9.19
7/11/2021 4:30:00 AM 15.6 60.08 0.153 7.34 4.23 9.2
7/11/2021 4:45:00 AM 15.56 60.008 0.153 7.34 4.29 9.22
7/11/2021 5:00:00 AM 15.53 59.954 0.153 7.34 4.43 9.22
7/11/2021 5:15:00 AM 15.49 59.882 0.153 7.34 4.27 9.22
7/11/2021 5:30:00 AM 15.46 59.828 0.153 7.33 3.96 9.23
7/11/2021 5:45:00 AM 15.42 59.756 0.153 7.34 3.91 9.24
7/11/2021 6:00:00 AM 15.4 59.72 0.153 7.34 4.19 9.25
7/11/2021 6:15:00 AM 15.37 59.666 0.153 7.34 3.72 9.27
7/11/2021 6:30:00 AM 15.35 59.63 0.153 7.34 3.68 9.29
7/11/2021 6:45:00 AM 15.33 59.594 0.153 7.34 3.74 9.3
7/11/2021 7:00:00 AM 15.31 59.558 0.153 7.35 3.59 9.31
7/11/2021 7:15:00 AM 15.3 59.54 0.153 7.35 3.19 9.34
7/11/2021 7:30:00 AM 15.29 59.522 0.153 7.35 3.22 9.38
7/11/2021 7:45:00 AM 15.3 59.54 0.153 7.36 3.39 9.42
7/11/2021 8:00:00 AM 15.3 59.54 0.153 7.37 3.06 9.47
7/11/2021 8:15:00 AM 15.31 59.558 0.154 7.38 3 9.51
7/11/2021 8:30:00 AM 15.34 59.612 0.154 7.39 3.11 9.56
7/11/2021 8:45:00 AM 15.36 59.648 0.154 7.39 3.22 9.6
7/11/2021 9:00:00 AM 15.38 59.684 0.154 7.41 3.17 9.63
7/11/2021 9:15:00 AM 15.42 59.756 0.154 7.41 2.71 9.66
7/11/2021 9:30:00 AM 15.46 59.828 0.154 7.42 2.52 9.7
7/11/2021 9:45:00 AM 15.51 59.918 0.154 7.43 2.33 9.73
7/11/2021 10:00:00 AM 15.56 60.008 0.154 7.43 2.37 9.77
7/11/2021 10:15:00 AM 15.63 60.134 0.153 7.44 2.51 9.82
7/11/2021 10:30:00 AM 15.68 60.224 0.153 7.45 2.46 9.84
7/11/2021 10:45:00 AM 15.74 60.332 0.153 7.47 2.49 9.86
7/11/2021 11:00:00 AM 15.81 60.458 0.153 7.48 2.32 9.88
7/11/2021 11:15:00 AM 15.87 60.566 0.153 7.49 2.32 9.88
7/11/2021 11:30:00 AM 15.92 60.656 0.153 7.5 2.13 9.88
7/11/2021 11:45:00 AM 15.96 60.728 0.153 7.51 2.01 9.85
7/11/2021 12:00:00 PM 15.99 60.782 0.153 7.51 2.19 9.82
7/11/2021 12:15:00 PM 16.03 60.854 0.153 7.5 1.88 9.8
7/11/2021 12:30:00 PM 16.06 60.908 0.153 7.51 2.04 9.81
7/11/2021 12:45:00 PM 16.06 60.908 0.153 7.51 1.97 9.76
7/11/2021 1:00:00 PM 16.06 60.908 0.153 7.51 2.04 9.72
7/11/2021 1:15:00 PM 16.08 60.944 0.154 7.5 2.04 9.68
7/11/2021 1:30:00 PM 16.09 60.962 0.154 7.49 2.05 9.68
7/11/2021 1:45:00 PM 16.09 60.962 0.154 7.49 1.88 9.66
7/11/2021 2:00:00 PM 16.08 60.944 0.154 7.49 1.81 9.62
7/11/2021 2:15:00 PM 16.08 60.944 0.153 7.49 2.61 9.59
7/11/2021 2:30:00 PM 16.08 60.944 0.152 7.48 2.71 9.56
7/11/2021 2:45:00 PM 16.07 60.926 0.152 7.46 3.85 9.51
7/11/2021 3:00:00 PM 16.06 60.908 0.151 7.44 4.6 9.5
7/11/2021 3:15:00 PM 16.05 60.89 0.151 7.44 4.34 9.47
7/11/2021 3:30:00 PM 16.02 60.836 0.152 7.43 4.24 9.44
7/11/2021 3:45:00 PM 16.03 60.854 0.15 7.43 5.23 9.42
7/11/2021 4:00:00 PM 16.04 60.872 0.146 7.41 10.29 9.42
7/11/2021 4:15:00 PM 16.03 60.854 0.143 7.37 15.58 9.37
7/11/2021 4:30:00 PM 16.02 60.836 0.14 7.36 26.68 9.36
7/11/2021 4:45:00 PM 16.05 60.89 0.131 7.28 66.94 9.27
7/11/2021 5:00:00 PM 16.08 60.944 0.125 7.24 75.43 9.24
7/11/2021 5:15:00 PM 16.12 61.016 0.118 7.23 93.16 9.24
7/11/2021 5:30:00 PM 16.11 60.998 0.121 7.21 74.29 9.21
7/11/2021 5:45:00 PM 16.09 60.962 0.117 7.19 84.85 9.19
7/11/2021 6:00:00 PM 16.08 60.944 0.108 7.14 136.2 9.16
7/11/2021 6:15:00 PM 16.09 60.962 0.105 7.13 104.08 9.16
7/11/2021 6:30:00 PM 16.09 60.962 0.105 7.14 105.68 9.17
7/11/2021 6:45:00 PM 16.09 60.962 0.104 7.14 77.39 9.18
7/11/2021 7:00:00 PM 16.08 60.944 0.103 7.13 77.11 9.18
7/11/2021 7:15:00 PM 16.08 60.944 0.106 7.12 95.49 9.16
7/11/2021 7:30:00 PM 16.1 60.98 0.112 7.07 102.19 9.14
7/11/2021 7:45:00 PM 16.11 60.998 0.12 7.08 79.5 9.13
7/11/2021 8:00:00 PM 16.09 60.962 0.118 7.07 80.43 9.14
7/11/2021 8:15:00 PM 16.02 60.836 0.11 7.05 93.21 9.17
7/11/2021 8:30:00 PM 15.99 60.782 0.106 7.02 115.55 9.18
7/11/2021 8:45:00 PM 15.99 60.782 0.106 7.03 81.62 9.18
7/11/2021 9:00:00 PM 16.02 60.836 0.107 7.04 85.84 9.16
7/11/2021 9:15:00 PM 16.05 60.89 0.106 7.05 74.72 9.15
7/11/2021 9:30:00 PM 16.09 60.962 0.102 7.06 78.64 9.13
7/11/2021 9:45:00 PM 16.12 61.016 0.099 7.06 80.87 9.12
7/11/2021 10:00:00 PM 16.14 61.052 0.097 7.07 70.45 9.11
7/11/2021 10:15:00 PM 16.16 61.088 0.096 7.06 70.37 9.1
7/11/2021 10:30:00 PM 16.17 61.106 0.095 7.06 64.21 9.09
7/11/2021 10:45:00 PM 16.19 61.142 0.094 7.04 63.92 9.09
7/11/2021 11:00:00 PM 16.2 61.16 0.092 7.03 68.82 9.08
7/11/2021 11:15:00 PM 16.2 61.16 0.091 7.01 88.09 9.08
7/11/2021 11:30:00 PM 16.2 61.16 0.089 7.01 71.48 9.08
7/11/2021 11:45:00 PM 16.19 61.142 0.087 7.01 73.28 9.08
7/12/2021 12:00:00 AM 16.18 61.124 0.087 7.02 57.77 9.08
7/12/2021 12:15:00 AM 16.17 61.106 0.086 6.99 71.2 9.08
7/12/2021 12:30:00 AM 16.16 61.088 0.086 6.99 59.16 9.08
7/12/2021 12:45:00 AM 16.14 61.052 0.086 6.98 70.65 9.08
7/12/2021 1:00:00 AM 16.11 60.998 0.084 6.96 69.04 9.09
7/12/2021 1:15:00 AM 16.08 60.944 0.083 6.95 87.99 9.11
7/12/2021 1:30:00 AM 16.05 60.89 0.082 6.95 67.85 9.11
7/12/2021 1:45:00 AM 16.02 60.836 0.082 6.97 70.03 9.12
7/12/2021 2:00:00 AM 16.01 60.818 0.081 6.97 62.29 9.12
7/12/2021 2:15:00 AM 16 60.8 0.081 6.98 73.82 9.12
7/12/2021 2:30:00 AM 16 60.8 0.081 6.99 67.37 9.13
7/12/2021 2:45:00 AM 15.99 60.782 0.081 6.99 66.81 9.13
7/12/2021 3:00:00 AM 15.99 60.782 0.081 6.99 62.57 9.13
7/12/2021 3:15:00 AM 15.98 60.764 0.081 6.99 59 9.13
7/12/2021 3:30:00 AM 15.97 60.746 0.082 6.99 56.57 9.12
7/12/2021 3:45:00 AM 15.96 60.728 0.082 6.99 37.63 9.12
7/12/2021 4:00:00 AM 15.95 60.71 0.083 6.99 43.51 9.13
7/12/2021 4:15:00 AM 15.93 60.674 0.083 6.99 39.49 9.13
7/12/2021 4:30:00 AM 15.92 60.656 0.084 6.99 39.72 9.13
7/12/2021 4:45:00 AM 15.9 60.62 0.084 6.99 43.69 9.13
7/12/2021 5:00:00 AM 15.88 60.584 0.085 6.99 39.43 9.14
7/12/2021 5:15:00 AM 15.87 60.566 0.086 6.99 32.47 9.15
7/12/2021 5:30:00 AM 15.85 60.53 0.086 6.99 33.46 9.15
7/12/2021 5:45:00 AM 15.83 60.494 0.087 6.99 31.67 9.16
7/12/2021 6:00:00 AM 15.81 60.458 0.087 6.98 31.86 9.16
7/12/2021 6:15:00 AM 15.79 60.422 0.088 6.99 26 9.16
7/12/2021 6:30:00 AM 15.77 60.386 0.089 7 27.85 9.17
7/12/2021 6:45:00 AM 15.75 60.35 0.089 6.99 25.15 9.18
7/12/2021 7:00:00 AM 15.74 60.332 0.09 7 25.45 9.2
7/12/2021 7:15:00 AM 15.72 60.296 0.09 6.99 25.04 9.21
7/12/2021 7:30:00 AM 15.71 60.278 0.091 6.99 24.63 9.22
7/12/2021 7:45:00 AM 15.69 60.242 0.091 7 20.97 9.22
7/12/2021 8:00:00 AM 15.68 60.224 0.092 6.99 34.18 9.24
7/12/2021 8:15:00 AM 15.67 60.206 0.092 7 19.73 9.25
7/12/2021 8:30:00 AM 15.66 60.188 0.092 6.99 20.78 9.27
7/12/2021 8:45:00 AM 15.66 60.188 0.093 6.98 18.69 9.29
7/12/2021 9:00:00 AM 15.65 60.17 0.093 7 19.68 9.3
7/12/2021 9:15:00 AM 15.66 60.188 0.093 6.99 19.81 9.32
7/12/2021 9:30:00 AM 15.66 60.188 0.093 7 16.92 9.33
7/12/2021 9:45:00 AM 15.67 60.206 0.094 7.01 16.12 9.35
7/12/2021 10:00:00 AM 15.67 60.206 0.094 7.03 14.6 9.35
7/12/2021 10:15:00 AM 15.68 60.224 0.094 7.04 17.11 9.38
7/12/2021 10:30:00 AM 15.7 60.26 0.094 7.04 14.39 9.39
7/12/2021 10:45:00 AM 15.71 60.278 0.094 7.05 14.76 9.4
7/12/2021 11:00:00 AM 15.72 60.296 0.095 7.06 16.32 9.41
7/12/2021 11:15:00 AM 15.76 60.368 0.095 7.05 15.09 9.43
7/12/2021 11:30:00 AM 15.79 60.422 0.095 7.06 14.88 9.45
7/12/2021 11:45:00 AM 15.84 60.512 0.095 7.07 14.29 9.47
7/12/2021 12:00:00 PM 15.87 60.566 0.095 7.09 13.68 9.48
7/12/2021 12:15:00 PM 15.92 60.656 0.096 7.1 13.27 9.49
7/12/2021 12:30:00 PM 15.98 60.764 0.096 7.09 13.4 9.5
7/12/2021 12:45:00 PM 16.04 60.872 0.096 7.11 13.07 9.51
7/12/2021 1:00:00 PM 16.09 60.962 0.096 7.11 12.92 9.5
7/12/2021 1:15:00 PM 16.11 60.998 0.096 7.12 13.29 9.48
7/12/2021 1:30:00 PM 16.16 61.088 0.096 7.13 12.64 9.5
7/12/2021 1:45:00 PM 16.23 61.214 0.096 7.13 11.54 9.5
7/12/2021 2:00:00 PM 16.32 61.376 0.096 7.14 12.03 9.5
7/12/2021 2:15:00 PM 16.4 61.52 0.096 7.14 11.49 9.5
7/12/2021 2:30:00 PM 16.49 61.682 0.096 7.15 10.99 9.51
7/12/2021 2:45:00 PM 16.55 61.79 0.096 7.16 11.51 9.5
7/12/2021 3:00:00 PM 16.65 61.97 0.096 7.17 11.25 9.49
7/12/2021 3:15:00 PM 16.7 62.06 0.097 7.16 10.87 9.48
7/12/2021 3:30:00 PM 16.77 62.186 0.097 7.18 11.12 9.47
7/12/2021 3:45:00 PM 16.84 62.312 0.097 7.17 10.93 9.47
7/12/2021 4:00:00 PM 16.89 62.402 0.097 7.18 11 9.43
7/12/2021 4:15:00 PM 16.95 62.51 0.097 7.18 10.86 9.4
7/12/2021 4:30:00 PM 16.99 62.582 0.097 7.16 10.69 9.37
7/12/2021 4:45:00 PM 17.03 62.654 0.097 7.17 10.38 9.36
7/12/2021 5:00:00 PM 17.07 62.726 0.097 7.16 10.86 9.35
7/12/2021 5:15:00 PM 17.1 62.78 0.097 7.17 9.86 9.32
7/12/2021 5:30:00 PM 17.12 62.816 0.097 7.17 10.43 9.31
7/12/2021 5:45:00 PM 17.12 62.816 0.097 7.16 10.22 9.29
7/12/2021 6:00:00 PM 17.15 62.87 0.097 7.16 9.57 9.29
7/12/2021 6:15:00 PM 17.18 62.924 0.097 7.16 9.83 9.27
7/12/2021 6:30:00 PM 17.18 62.924 0.097 7.16 9.66 9.24
7/12/2021 6:45:00 PM 17.17 62.906 0.097 7.16 9.4 9.21
7/12/2021 7:00:00 PM 17.17 62.906 0.097 7.15 8.66 9.2
7/12/2021 7:15:00 PM 17.16 62.888 0.097 7.13 9.9 9.18
7/12/2021 7:30:00 PM 17.14 62.852 0.097 7.13 10.19 9.17
7/12/2021 7:45:00 PM 17.12 62.816 0.098 7.12 9.41 9.15
7/12/2021 8:00:00 PM 17.11 62.798 0.098 7.12 10.36 9.14
7/12/2021 8:15:00 PM 17.1 62.78 0.098 7.1 9.06 9.13
7/12/2021 8:30:00 PM 17.1 62.78 0.098 7.11 9.35 9.12
7/12/2021 8:45:00 PM 17.09 62.762 0.098 7.09 9.36 9.1
7/12/2021 9:00:00 PM 17.08 62.744 0.098 7.09 9.7 9.09
7/12/2021 9:15:00 PM 17.06 62.708 0.098 7.09 10.39 9.08
7/12/2021 9:30:00 PM 17.04 62.672 0.098 7.07 9.89 9.08
7/12/2021 9:45:00 PM 17.02 62.636 0.098 7.07 10.19 9.08
7/12/2021 10:00:00 PM 17 62.6 0.098 7.07 10.41 9.07
7/12/2021 10:15:00 PM 16.98 62.564 0.098 7.06 9.97 9.08
7/12/2021 10:30:00 PM 16.96 62.528 0.099 7.06 10.34 9.08
7/12/2021 10:45:00 PM 16.93 62.474 0.099 7.06 10.14 9.08
7/12/2021 11:00:00 PM 16.9 62.42 0.099 7.07 10.49 9.08
7/12/2021 11:15:00 PM 16.87 62.366 0.099 7.05 10.93 9.08
7/12/2021 11:30:00 PM 16.84 62.312 0.099 7.06 10.76 9.09
7/12/2021 11:45:00 PM 16.81 62.258 0.099 7.05 10.08 9.09
7/13/2021 12:00:00 AM 16.77 62.186 0.099 7.06 10.18 9.1
7/13/2021 12:15:00 AM 16.74 62.132 0.099 7.06 10.16 9.11
7/13/2021 12:30:00 AM 16.71 62.078 0.099 7.06 11.28 9.12
7/13/2021 12:45:00 AM 16.67 62.006 0.099 7.06 10.37 9.12
7/13/2021 1:00:00 AM 16.64 61.952 0.099 7.07 10.11 9.13
7/13/2021 1:15:00 AM 16.6 61.88 0.099 7.06 9.63 9.13
7/13/2021 1:30:00 AM 16.56 61.808 0.099 7.05 10.34 9.14
7/13/2021 1:45:00 AM 16.53 61.754 0.099 7.06 9.98 9.15
7/13/2021 2:00:00 AM 16.5 61.7 0.099 7.05 10.42 9.15
7/13/2021 2:15:00 AM 16.46 61.628 0.1 7.05 11.1 9.16
7/13/2021 2:30:00 AM 16.43 61.574 0.1 7.05 9.49 9.17
7/13/2021 2:45:00 AM 16.4 61.52 0.1 7.05 10.03 9.18
7/13/2021 3:00:00 AM 16.37 61.466 0.1 7.06 10.12 9.18
7/13/2021 3:15:00 AM 16.34 61.412 0.1 7.05 9.62 9.19
7/13/2021 3:30:00 AM 16.31 61.358 0.1 7.04 9.99 9.19
7/13/2021 3:45:00 AM 16.29 61.322 0.1 7.04 10.09 9.2
7/13/2021 4:00:00 AM 16.27 61.286 0.1 7.05 9.22 9.2
7/13/2021 4:15:00 AM 16.25 61.25 0.1 7.05 9.24 9.2
7/13/2021 4:30:00 AM 16.22 61.196 0.1 7.05 9.63 9.2
7/13/2021 4:45:00 AM 16.2 61.16 0.1 7.04 9.42 9.21
7/13/2021 5:00:00 AM 16.18 61.124 0.1 7.04 9.76 9.21
7/13/2021 5:15:00 AM 16.17 61.106 0.1 7.04 10.29 9.22
7/13/2021 5:30:00 AM 16.15 61.07 0.1 7.03 10.28 9.22
7/13/2021 5:45:00 AM 16.14 61.052 0.1 7.03 10.49 9.22
7/13/2021 6:00:00 AM 16.12 61.016 0.1 7.03 10.02 9.23
7/13/2021 6:15:00 AM 16.11 60.998 0.1 7.03 9.01 9.24
7/13/2021 6:30:00 AM 16.1 60.98 0.101 7.03 9.87 9.24
7/13/2021 6:45:00 AM 16.1 60.98 0.101 7.04 9.5 9.26
7/13/2021 7:00:00 AM 16.1 60.98 0.101 7.04 8.72 9.28
7/13/2021 7:15:00 AM 16.09 60.962 0.101 7.04 9.24 9.3
7/13/2021 7:30:00 AM 16.1 60.98 0.101 7.05 8.93 9.31
7/13/2021 7:45:00 AM 16.1 60.98 0.101 7.04 8.43 9.33
7/13/2021 8:00:00 AM 16.11 60.998 0.101 7.05 8.62 9.35
7/13/2021 8:15:00 AM 16.13 61.034 0.101 7.06 8.45 9.37
7/13/2021 8:30:00 AM 16.15 61.07 0.101 7.07 8.19 9.39
7/13/2021 8:45:00 AM 16.18 61.124 0.101 7.1 8.13 9.42
7/13/2021 9:00:00 AM 16.22 61.196 0.101 7.12 7.81 9.44
7/13/2021 9:15:00 AM 16.26 61.268 0.101 7.13 7.55 9.46
7/13/2021 9:30:00 AM 16.34 61.412 0.101 7.14 7.37 9.48
7/13/2021 9:45:00 AM 16.4 61.52 0.101 7.15 7.5 9.47
7/13/2021 10:00:00 AM 16.46 61.628 0.101 7.16 6.68 9.47
7/13/2021 10:15:00 AM 16.48 61.664 0.101 7.18 6.43 9.46
7/13/2021 10:30:00 AM 16.51 61.718 0.101 7.18 6.53 9.45
7/13/2021 10:45:00 AM 16.56 61.808 0.101 7.19 6.14 9.46
7/13/2021 11:00:00 AM 16.63 61.934 0.102 7.2 6.38 9.48
7/13/2021 11:15:00 AM 16.69 62.042 0.102 7.2 6.24 9.5
7/13/2021 11:30:00 AM 16.76 62.168 0.102 7.21 5.63 9.5
7/13/2021 11:45:00 AM 16.8 62.24 0.102 7.2 7.44 9.48
7/13/2021 12:00:00 PM 16.88 62.384 0.102 7.22 5.49 9.48
7/13/2021 12:15:00 PM 16.95 62.51 0.102 7.21 5.46 9.49
7/13/2021 12:30:00 PM 17.05 62.69 0.102 7.23 5.69 9.5
7/13/2021 12:45:00 PM 17.16 62.888 0.102 7.24 5.31 9.5
7/13/2021 1:00:00 PM 17.23 63.014 0.102 7.24 5.46 9.5
7/13/2021 1:15:00 PM 17.39 63.302 0.102 7.26 5.73 9.51
7/13/2021 1:30:00 PM 17.49 63.482 0.102 7.27 5.47 9.5
7/13/2021 1:45:00 PM 17.67 63.806 0.102 7.28 5.48 9.5
7/13/2021 2:00:00 PM 17.78 64.004 0.102 7.29 5.56 9.47
7/13/2021 2:15:00 PM 17.94 64.292 0.102 7.3 5.28 9.45
7/13/2021 2:30:00 PM 18.13 64.634 0.103 7.3 5.31 9.43
7/13/2021 2:45:00 PM 18.28 64.904 0.103 7.31 5.3 9.4
7/13/2021 3:00:00 PM 18.36 65.048 0.103 7.32 5.39 9.36
7/13/2021 3:15:00 PM 18.43 65.174 0.103 7.32 6.09 9.33
7/13/2021 3:30:00 PM 18.47 65.246 0.103 7.31 5.84 9.27
7/13/2021 3:45:00 PM 18.47 65.246 0.103 7.3 5.54 9.22
7/13/2021 4:00:00 PM 18.44 65.192 0.103 7.29 5.81 9.19
7/13/2021 4:15:00 PM 18.43 65.174 0.103 7.29 6.25 9.18
7/13/2021 4:30:00 PM 18.44 65.192 0.103 7.28 6.54 9.17
7/13/2021 4:45:00 PM 18.45 65.21 0.103 7.28 7.1 9.17
7/13/2021 5:00:00 PM 18.42 65.156 0.103 7.28 6.35 9.14
7/13/2021 5:15:00 PM 18.42 65.156 0.103 7.28 6.11 9.12
7/13/2021 5:30:00 PM 18.4 65.12 0.104 7.28 5.53 9.09
7/13/2021 5:45:00 PM 18.38 65.084 0.104 7.26 5.96 9.07
7/13/2021 6:00:00 PM 18.38 65.084 0.104 7.26 6.54 9.05
7/13/2021 6:15:00 PM 18.39 65.102 0.104 7.25 5.86 9.02
7/13/2021 6:30:00 PM 18.41 65.138 0.104 7.26 5.49 9.01
7/13/2021 6:45:00 PM 18.42 65.156 0.105 7.26 5.93 8.98
7/13/2021 7:00:00 PM 18.39 65.102 0.105 7.25 5.51 8.96
7/13/2021 7:15:00 PM 18.36 65.048 0.105 7.24 5.68 8.95
7/13/2021 7:30:00 PM 18.33 64.994 0.105 7.23 5.76 8.94
7/13/2021 7:45:00 PM 18.33 64.994 0.105 7.22 5.66 8.92
7/13/2021 8:00:00 PM 18.33 64.994 0.105 7.22 6.23 8.89
7/13/2021 8:15:00 PM 18.33 64.994 0.105 7.22 5.71 8.88
7/13/2021 8:30:00 PM 18.32 64.976 0.105 7.21 5.64 8.86
7/13/2021 8:45:00 PM 18.31 64.958 0.106 7.2 6.2 8.84
7/13/2021 9:00:00 PM 18.29 64.922 0.106 7.19 6.04 8.83
7/13/2021 9:15:00 PM 18.28 64.904 0.106 7.19 6.6 8.82
7/13/2021 9:30:00 PM 18.25 64.85 0.106 7.18 7.33 8.82
7/13/2021 9:45:00 PM 18.23 64.814 0.106 7.17 6.9 8.82
7/13/2021 10:00:00 PM 18.21 64.778 0.106 7.17 7.23 8.82
7/13/2021 10:15:00 PM 18.21 64.778 0.104 7.17 12.03 8.82
7/13/2021 10:30:00 PM 18.18 64.724 0.103 7.15 14.06 8.81
7/13/2021 10:45:00 PM 18.15 64.67 0.103 7.14 26.66 8.8
7/13/2021 11:00:00 PM 18.15 64.67 0.099 7.12 70.28 8.79
7/13/2021 11:15:00 PM 18.11 64.598 0.099 7.11 50.72 8.78
7/13/2021 11:30:00 PM 18.06 64.508 0.099 7.11 42.78 8.78
7/13/2021 11:45:00 PM 17.99 64.382 0.099 7.09 35.42 8.79
7/14/2021 12:00:00 AM 17.92 64.256 0.098 7.09 30.64 8.8
7/14/2021 12:15:00 AM 17.84 64.112 0.096 7.06 35.14 8.8
7/14/2021 12:30:00 AM 17.79 64.022 0.094 7.05 38.15 8.82
7/14/2021 12:45:00 AM 17.75 63.95 0.091 7.07 36.53 8.83
7/14/2021 1:00:00 AM 17.7 63.86 0.09 7.05 42.19 8.83
7/14/2021 1:15:00 AM 17.66 63.788 0.09 7.03 46.51 8.84
7/14/2021 1:30:00 AM 17.64 63.752 0.09 7.03 46.36 8.85
7/14/2021 1:45:00 AM 17.62 63.716 0.091 7.03 50.75 8.85
7/14/2021 2:00:00 AM 17.59 63.662 0.092 7.04 51.56 8.86
7/14/2021 2:15:00 AM 17.55 63.59 0.092 7.04 45.13 8.88
7/14/2021 2:30:00 AM 17.49 63.482 0.091 7.04 48.7 8.89
7/14/2021 2:45:00 AM 17.44 63.392 0.091 7.03 45.28 8.9
7/14/2021 3:00:00 AM 17.4 63.32 0.091 7.04 45.98 8.91
7/14/2021 3:15:00 AM 17.37 63.266 0.091 7.03 37.64 8.91
7/14/2021 3:30:00 AM 17.34 63.212 0.089 7.03 53.47 8.91
7/14/2021 3:45:00 AM 17.33 63.194 0.087 7.02 55.66 8.91
7/14/2021 4:00:00 AM 17.33 63.194 0.086 7.02 63.44 8.9
7/14/2021 4:15:00 AM 17.34 63.212 0.086 7.01 54.06 8.89
7/14/2021 4:30:00 AM 17.36 63.248 0.086 7.02 56.1 8.89
7/14/2021 4:45:00 AM 17.38 63.284 0.086 7.01 64 8.88
7/14/2021 5:00:00 AM 17.39 63.302 0.085 7.01 59.63 8.87
7/14/2021 5:15:00 AM 17.4 63.32 0.084 7.01 54.84 8.87
7/14/2021 5:30:00 AM 17.4 63.32 0.084 7.01 53.68 8.86
7/14/2021 5:45:00 AM 17.4 63.32 0.083 7 51.81 8.86
7/14/2021 6:00:00 AM 17.39 63.302 0.083 7 49.08 8.86
7/14/2021 6:15:00 AM 17.38 63.284 0.083 7 45.02 8.86
7/14/2021 6:30:00 AM 17.37 63.266 0.083 6.99 41.77 8.86
7/14/2021 6:45:00 AM 17.35 63.23 0.083 6.98 43.24 8.86
7/14/2021 7:00:00 AM 17.33 63.194 0.083 6.98 38.82 8.87
7/14/2021 7:15:00 AM 17.32 63.176 0.083 6.98 36.94 8.88
7/14/2021 7:30:00 AM 17.3 63.14 0.084 6.98 42.17 8.89
7/14/2021 7:45:00 AM 17.29 63.122 0.084 6.98 33.52 8.91
7/14/2021 8:00:00 AM 17.28 63.104 0.084 6.99 36.63 8.92
7/14/2021 8:15:00 AM 17.27 63.086 0.084 6.99 29.92 8.93
7/14/2021 8:30:00 AM 17.26 63.068 0.085 7 28.55 8.95
7/14/2021 8:45:00 AM 17.26 63.068 0.085 7 27.68 8.96
7/14/2021 9:00:00 AM 17.24 63.032 0.086 7.02 28.31 8.96
7/14/2021 9:15:00 AM 17.22 62.996 0.086 7.01 25.1 8.98
7/14/2021 9:30:00 AM 17.21 62.978 0.087 7.01 22.38 8.99
7/14/2021 9:45:00 AM 17.21 62.978 0.087 7.02 21.05 9.01
7/14/2021 10:00:00 AM 17.21 62.978 0.088 7.03 22.3 9.03
7/14/2021 10:15:00 AM 17.23 63.014 0.088 7.04 19.34 9.06
7/14/2021 10:30:00 AM 17.26 63.068 0.088 7.04 18.64 9.1
7/14/2021 10:45:00 AM 17.32 63.176 0.089 7.06 17.29 9.13
7/14/2021 11:00:00 AM 17.38 63.284 0.089 7.07 14.72 9.15
7/14/2021 11:15:00 AM 17.45 63.41 0.089 7.07 17.89 9.16
7/14/2021 11:30:00 AM 17.48 63.464 0.09 7.09 15.89 9.16
7/14/2021 11:45:00 AM 17.5 63.5 0.09 7.09 15.21 9.16
7/14/2021 12:00:00 PM 17.55 63.59 0.09 7.11 13.73 9.17
7/14/2021 12:15:00 PM 17.66 63.788 0.09 7.11 13.8 9.19
7/14/2021 12:30:00 PM 17.74 63.932 0.091 7.11 14.39 9.19
7/14/2021 12:45:00 PM 17.84 64.112 0.091 7.13 13.01 9.19
7/14/2021 1:00:00 PM 18 64.4 0.091 7.15 12.97 9.2
7/14/2021 1:15:00 PM 18.08 64.544 0.092 7.15 12.14 9.21
7/14/2021 1:30:00 PM 18.17 64.706 0.092 7.15 12.18 9.21
7/14/2021 1:45:00 PM 18.28 64.904 0.092 7.17 11.96 9.22
7/14/2021 2:00:00 PM 18.28 64.904 0.092 7.17 11.9 9.19
7/14/2021 2:15:00 PM 18.28 64.904 0.092 7.18 11.56 9.13
7/14/2021 2:30:00 PM 18.2 64.76 0.092 7.17 11.58 9.06
7/14/2021 2:45:00 PM 18.13 64.634 0.092 7.14 12.18 9.01
7/14/2021 3:00:00 PM 18.08 64.544 0.093 7.13 13.05 8.98
7/14/2021 3:15:00 PM 18.09 64.562 0.093 7.13 13.28 8.98
7/14/2021 3:30:00 PM 18.08 64.544 0.093 7.12 12.77 9.01
7/14/2021 3:45:00 PM 18.09 64.562 0.093 7.14 13.67 9.02
7/14/2021 4:00:00 PM 18.05 64.49 0.092 7.14 14.9 9.03
7/14/2021 4:15:00 PM 17.98 64.364 0.091 7.15 17.16 9.05
7/14/2021 4:30:00 PM 17.95 64.31 0.09 7.14 17.57 9.05
7/14/2021 4:45:00 PM 17.92 64.256 0.089 7.14 18.65 9.04
7/14/2021 5:00:00 PM 17.9 64.22 0.089 7.11 22.43 9.02
7/14/2021 5:15:00 PM 17.94 64.292 0.09 7.11 21.48 9.02
7/14/2021 5:30:00 PM 17.97 64.346 0.091 7.12 19.05 9
7/14/2021 5:45:00 PM 17.98 64.364 0.09 7.11 20.98 9
7/14/2021 6:00:00 PM 17.92 64.256 0.086 7.08 22.59 9.01
7/14/2021 6:15:00 PM 17.84 64.112 0.083 7.08 31.75 9
7/14/2021 6:30:00 PM 17.81 64.058 0.081 7.07 33.87 8.99
7/14/2021 6:45:00 PM 17.84 64.112 0.082 7.06 36.72 8.97
7/14/2021 7:00:00 PM 17.88 64.184 0.083 7.06 37.98 8.94
7/14/2021 7:15:00 PM 17.93 64.274 0.084 7.07 32 8.92
7/14/2021 7:30:00 PM 17.97 64.346 0.085 7.08 31.12 8.91
7/14/2021 7:45:00 PM 17.99 64.382 0.086 7.08 32.11 8.9
7/14/2021 8:00:00 PM 18.02 64.436 0.086 7.08 30.68 8.87
7/14/2021 8:15:00 PM 18.06 64.508 0.086 7.08 29.16 8.85
7/14/2021 8:30:00 PM 18.09 64.562 0.086 7.06 30.99 8.83
7/14/2021 8:45:00 PM 18.12 64.616 0.085 7.07 32.09 8.81
7/14/2021 9:00:00 PM 18.13 64.634 0.084 7.06 34.88 8.79
7/14/2021 9:15:00 PM 18.15 64.67 0.084 7.05 38.28 8.78
7/14/2021 9:30:00 PM 18.15 64.67 0.083 7.04 40.41 8.77
7/14/2021 9:45:00 PM 18.14 64.652 0.083 7.04 34.51 8.76
7/14/2021 10:00:00 PM 18.13 64.634 0.083 7.04 36.24 8.76
7/14/2021 10:15:00 PM 18.1 64.58 0.083 7.03 37.4 8.76
7/14/2021 10:30:00 PM 18.06 64.508 0.083 7.03 35.09 8.76
7/14/2021 10:45:00 PM 18.01 64.418 0.084 7.02 36.01 8.77
7/14/2021 11:00:00 PM 17.96 64.328 0.084 7.02 31.72 8.77
7/14/2021 11:15:00 PM 17.9 64.22 0.085 7.02 29.97 8.79
7/14/2021 11:30:00 PM 17.84 64.112 0.086 7.03 27.57 8.79
7/14/2021 11:45:00 PM 17.77 63.986 0.086 7.04 25.15 8.8
7/15/2021 12:00:00 AM 17.71 63.878 0.087 7.03 24.42 8.82
7/15/2021 12:15:00 AM 17.65 63.77 0.088 7.02 25.56 8.83
7/15/2021 12:30:00 AM 17.59 63.662 0.088 7.03 22.19 8.84
7/15/2021 12:45:00 AM 17.53 63.554 0.089 7.03 20.66 8.86
7/15/2021 1:00:00 AM 17.47 63.446 0.09 7.04 19.86 8.87
7/15/2021 1:15:00 AM 17.42 63.356 0.09 7.04 18.88 8.88
7/15/2021 1:30:00 AM 17.36 63.248 0.091 7.05 17.85 8.89
7/15/2021 1:45:00 AM 17.31 63.158 0.091 7.06 17.96 8.9
7/15/2021 2:00:00 AM 17.26 63.068 0.091 7.06 16.97 8.92
7/15/2021 2:15:00 AM 17.21 62.978 0.092 7.06 16.82 8.94
7/15/2021 2:30:00 AM 17.16 62.888 0.092 7.06 15.76 8.95
7/15/2021 2:45:00 AM 17.12 62.816 0.093 7.07 15.2 8.96
7/15/2021 3:00:00 AM 17.07 62.726 0.093 7.06 15.1 8.97
7/15/2021 3:15:00 AM 17.03 62.654 0.093 7.06 14.47 8.98
7/15/2021 3:30:00 AM 16.99 62.582 0.094 7.06 14.33 9
7/15/2021 3:45:00 AM 16.95 62.51 0.094 7.05 14.59 9.01
7/15/2021 4:00:00 AM 16.91 62.438 0.094 7.05 14 9.01
7/15/2021 4:15:00 AM 16.87 62.366 0.095 7.05 14.37 9.03
7/15/2021 4:30:00 AM 16.83 62.294 0.095 7.04 13.49 9.03
7/15/2021 4:45:00 AM 16.8 62.24 0.095 7.04 13.83 9.04
7/15/2021 5:00:00 AM 16.76 62.168 0.096 7.04 13.66 9.05
7/15/2021 5:15:00 AM 16.73 62.114 0.096 7.03 13.5 9.05
7/15/2021 5:30:00 AM 16.69 62.042 0.096 7.03 13.85 9.06
7/15/2021 5:45:00 AM 16.66 61.988 0.096 7.03 12.95 9.06
7/15/2021 6:00:00 AM 16.63 61.934 0.097 7.03 13.59 9.07
7/15/2021 6:15:00 AM 16.61 61.898 0.097 7.02 13.02 9.08
7/15/2021 6:30:00 AM 16.59 61.862 0.097 7.02 12.91 9.09
7/15/2021 6:45:00 AM 16.57 61.826 0.097 7.03 12.72 9.1
7/15/2021 7:00:00 AM 16.55 61.79 0.098 7.03 13.15 9.11
7/15/2021 7:15:00 AM 16.53 61.754 0.098 7.03 12.19 9.13
7/15/2021 7:30:00 AM 16.52 61.736 0.098 7.04 12.26 9.14
7/15/2021 7:45:00 AM 16.51 61.718 0.098 7.06 11.42 9.16
7/15/2021 8:00:00 AM 16.51 61.718 0.098 7.08 11.86 9.17
7/15/2021 8:15:00 AM 16.52 61.736 0.099 7.09 11.54 9.19
7/15/2021 8:30:00 AM 16.53 61.754 0.099 7.09 11.21 9.21
7/15/2021 8:45:00 AM 16.54 61.772 0.099 7.09 11.17 9.23
7/15/2021 9:00:00 AM 16.57 61.826 0.099 7.11 11.05 9.25
7/15/2021 9:15:00 AM 16.59 61.862 0.099 7.12 10.45 9.27
7/15/2021 9:30:00 AM 16.62 61.916 0.099 7.13 10.27 9.28
7/15/2021 9:45:00 AM 16.67 62.006 0.099 7.13 10.01 9.3
7/15/2021 10:00:00 AM 16.74 62.132 0.1 7.13 10.12 9.3
7/15/2021 10:15:00 AM 16.81 62.258 0.1 7.13 10.21 9.31
7/15/2021 10:30:00 AM 16.89 62.402 0.1 7.13 9.95 9.32
7/15/2021 10:45:00 AM 16.99 62.582 0.1 7.16 9.78 9.33
7/15/2021 11:00:00 AM 17.08 62.744 0.1 7.16 9.44 9.34
7/15/2021 11:15:00 AM 17.19 62.942 0.1 7.17 9.81 9.34
7/15/2021 11:30:00 AM 17.32 63.176 0.1 7.18 9.22 9.34
7/15/2021 11:45:00 AM 17.46 63.428 0.1 7.2 8.74 9.33
7/15/2021 12:00:00 PM 17.63 63.734 0.1 7.21 8.73 9.33
7/15/2021 12:15:00 PM 17.78 64.004 0.101 7.21 8.62 9.32
7/15/2021 12:30:00 PM 17.89 64.202 0.101 7.21 8.27 9.3
7/15/2021 12:45:00 PM 18.03 64.454 0.101 7.23 7.92 9.29
7/15/2021 1:00:00 PM 18.15 64.67 0.101 7.24 8.16 9.28
7/15/2021 1:15:00 PM 18.25 64.85 0.101 7.23 8.21 9.26
7/15/2021 1:30:00 PM 18.36 65.048 0.101 7.24 8.26 9.26
7/15/2021 1:45:00 PM 18.39 65.102 0.101 7.23 7.96 9.21
7/15/2021 2:00:00 PM 18.45 65.21 0.101 7.24 8.02 9.19
7/15/2021 2:15:00 PM 18.54 65.372 0.101 7.24 8.25 9.19
7/15/2021 2:30:00 PM 18.59 65.462 0.102 7.25 8 9.16
7/15/2021 2:45:00 PM 18.7 65.66 0.102 7.27 8.1 9.15
7/15/2021 3:00:00 PM 18.72 65.696 0.102 7.26 8.38 9.12
7/15/2021 3:15:00 PM 18.82 65.876 0.102 7.25 8.21 9.11
7/15/2021 3:30:00 PM 18.87 65.966 0.102 7.26 8.35 9.09
7/15/2021 3:45:00 PM 18.89 66.002 0.103 7.26 8.2 9.06
7/15/2021 4:00:00 PM 18.98 66.164 0.103 7.25 7.76 9.04
7/15/2021 4:15:00 PM 19.03 66.254 0.103 7.26 8.33 9.01
7/15/2021 4:30:00 PM 19.09 66.362 0.103 7.26 8.49 8.98
7/15/2021 4:45:00 PM 19.13 66.434 0.104 7.26 8.82 8.96
7/15/2021 5:00:00 PM 19.17 66.506 0.104 7.26 8.48 8.93
7/15/2021 5:15:00 PM 19.21 66.578 0.104 7.26 9.22 8.9
7/15/2021 5:30:00 PM 19.23 66.614 0.104 7.25 8.68 8.86
7/15/2021 5:45:00 PM 19.27 66.686 0.104 7.25 8.58 8.84
7/15/2021 6:00:00 PM 19.28 66.704 0.105 7.24 8.74 8.81
7/15/2021 6:15:00 PM 19.31 66.758 0.105 7.24 8.54 8.79
7/15/2021 6:30:00 PM 19.33 66.794 0.105 7.24 9.56 8.77
7/15/2021 6:45:00 PM 19.33 66.794 0.105 7.23 8.64 8.74
7/15/2021 7:00:00 PM 19.33 66.794 0.105 7.23 8.77 8.72
7/15/2021 7:15:00 PM 19.32 66.776 0.105 7.21 8.99 8.7
7/15/2021 7:30:00 PM 19.31 66.758 0.106 7.21 9.25 8.69
7/15/2021 7:45:00 PM 19.29 66.722 0.106 7.21 8.33 8.67
7/15/2021 8:00:00 PM 19.27 66.686 0.106 7.19 9.02 8.66
7/15/2021 8:15:00 PM 19.24 66.632 0.106 7.2 8.33 8.65
7/15/2021 8:30:00 PM 19.2 66.56 0.106 7.2 8.99 8.64
7/15/2021 8:45:00 PM 19.16 66.488 0.106 7.18 8.39 8.63
7/15/2021 9:00:00 PM 19.12 66.416 0.106 7.18 9.67 8.62
7/15/2021 9:15:00 PM 19.08 66.344 0.107 7.18 9.35 8.62
7/15/2021 9:30:00 PM 19.03 66.254 0.107 7.18 10.17 8.62
7/15/2021 9:45:00 PM 18.98 66.164 0.107 7.18 9.8 8.62
7/15/2021 10:00:00 PM 18.92 66.056 0.107 7.18 9.64 8.62
7/15/2021 10:15:00 PM 18.86 65.948 0.107 7.17 9.81 8.63
7/15/2021 10:30:00 PM 18.8 65.84 0.107 7.17 10.21 8.64
7/15/2021 10:45:00 PM 18.75 65.75 0.107 7.18 9.59 8.65
7/15/2021 11:00:00 PM 18.68 65.624 0.108 7.17 10.31 8.66
7/15/2021 11:15:00 PM 18.61 65.498 0.108 7.17 9.84 8.66
7/15/2021 11:30:00 PM 18.55 65.39 0.108 7.17 10.06 8.68
7/15/2021 11:45:00 PM 18.48 65.264 0.108 7.16 9.8 8.69
7/16/2021 12:00:00 AM 18.41 65.138 0.108 7.16 9.8 8.7
7/16/2021 12:15:00 AM 18.34 65.012 0.108 7.16 9.94 8.71
7/16/2021 12:30:00 AM 18.28 64.904 0.108 7.16 9.67 8.72
7/16/2021 12:45:00 AM 18.21 64.778 0.109 7.16 10.12 8.73
7/16/2021 1:00:00 AM 18.14 64.652 0.109 7.17 9.26 8.75
7/16/2021 1:15:00 AM 18.07 64.526 0.109 7.16 10.08 8.76
7/16/2021 1:30:00 AM 18 64.4 0.109 7.15 9.97 8.77

These are provisional data and have not been subject to a quality assurance process, but rather are the raw data reported by the instrument.
H: value is above sensor operating range
L: value is below sensor operating range
Offline: station is not reporting data
NC: parameter is not collected at site

Data Availability & Limitations

Uncertainty and potential for error can be associated with environmental monitoring data. Provisional data have not been subject to a quality assurance process, but rather are the raw data reported by the instrument. Data users are cautioned to consider carefully the provisional nature of the information before using it for decisions that concern personal or public safety or the conduct of business that involves substantial monetary or operational consequences.

Approved data are currently available by request by emailing: srbc@srbc.net. Approved data have been subject to a quality assurance process to correct for equipment or fouling drift. Data recorded during equipment malfunctions have been removed.

View Historical Stations that have been discontinued.